Time,TemperatureF,DewpointF,PressureIn,WindDirection,WindDirectionDegrees,WindSpeedMPH,WindSpeedGustMPH,Humidity,HourlyPrecipIn,Conditions,Clouds,dailyrainin,SolarRadiationWatts/m^2,SoftwareType,DateUTC
2013-01-26 00:00:00,74.6,70.1,29.95,North,-999,0.0,0.0,86,0.00,,,-99.99,0,WeatherLink 5.4,2013-01-26 04:00:00,
2013-01-26 00:01:00,74.6,70.1,29.95,North,-999,0.0,0.0,86,0.00,,,-99.99,0,WeatherLink 5.4,2013-01-26 04:01:00,
2013-01-26 00:02:00,74.6,70.1,29.95,North,-999,0.0,0.0,86,0.00,,,-99.99,0,WeatherLink 5.4,2013-01-26 04:02:00,
2013-01-26 00:03:00,74.6,70.1,29.95,North,-999,0.0,0.0,86,0.00,,,-99.99,0,WeatherLink 5.4,2013-01-26 04:03:00,
2013-01-26 00:04:00,74.6,70.1,29.95,North,-999,0.0,0.0,86,0.00,,,-99.99,0,WeatherLink 5.4,2013-01-26 04:04:00,
2013-01-26 00:05:00,74.6,70.1,29.95,North,-999,0.0,0.0,86,0.00,,,-99.99,0,WeatherLink 5.4,2013-01-26 04:05:00,
2013-01-26 00:06:00,74.6,70.1,29.95,North,-999,0.0,0.0,86,0.00,,,-99.99,0,WeatherLink 5.4,2013-01-26 04:06:00,
2013-01-26 00:07:00,74.6,70.1,29.95,North,-999,0.0,0.0,86,0.00,,,-99.99,0,WeatherLink 5.4,2013-01-26 04:07:00,
2013-01-26 00:08:00,74.4,69.9,29.95,North,-999,0.0,0.0,86,0.00,,,-99.99,0,WeatherLink 5.4,2013-01-26 04:08:00,
2013-01-26 00:09:00,74.4,69.9,29.95,North,-999,0.0,0.0,86,0.00,,,-99.99,0,WeatherLink 5.4,2013-01-26 04:09:00,
2013-01-26 00:10:00,74.4,69.9,29.95,North,-999,0.0,0.0,86,0.00,,,-99.99,0,WeatherLink 5.4,2013-01-26 04:10:00,
2013-01-26 00:11:00,74.4,69.9,29.95,North,-999,0.0,0.0,86,0.00,,,-99.99,0,WeatherLink 5.4,2013-01-26 04:11:00,
2013-01-26 00:12:00,74.4,69.9,29.95,North,-999,0.0,0.0,86,0.00,,,-99.99,0,WeatherLink 5.4,2013-01-26 04:12:00,
2013-01-26 00:13:00,74.4,69.9,29.95,North,-999,0.0,0.0,86,0.00,,,-99.99,0,WeatherLink 5.4,2013-01-26 04:13:00,
2013-01-26 00:14:00,74.4,69.9,29.95,North,-999,0.0,0.0,86,0.00,,,-99.99,0,WeatherLink 5.4,2013-01-26 04:14:00,
2013-01-26 00:15:00,74.4,69.9,29.94,North,-999,0.0,0.0,86,0.00,,,-99.99,0,WeatherLink 5.4,2013-01-26 04:15:00,
2013-01-26 00:16:00,74.4,69.9,29.94,North,-999,0.0,0.0,86,0.00,,,-99.99,0,WeatherLink 5.4,2013-01-26 04:16:00,
2013-01-26 00:17:00,74.4,69.9,29.94,North,-999,0.0,0.0,86,0.00,,,-99.99,0,WeatherLink 5.4,2013-01-26 04:17:00,
2013-01-26 00:18:00,74.4,69.9,29.94,North,-999,0.0,0.0,86,0.00,,,-99.99,0,WeatherLink 5.4,2013-01-26 04:18:00,
2013-01-26 00:19:00,74.4,69.9,29.94,North,-999,0.0,0.0,86,0.00,,,-99.99,0,WeatherLink 5.4,2013-01-26 04:19:00,
2013-01-26 00:20:00,74.4,70.3,29.94,North,-999,0.0,0.0,87,0.00,,,-99.99,0,WeatherLink 5.4,2013-01-26 04:20:00,
2013-01-26 00:21:00,74.4,70.3,29.94,North,-999,0.0,0.0,87,0.00,,,-99.99,0,WeatherLink 5.4,2013-01-26 04:21:00,
2013-01-26 00:22:00,74.3,70.2,29.94,North,-999,0.0,0.0,87,0.00,,,-99.99,0,WeatherLink 5.4,2013-01-26 04:22:00,
2013-01-26 00:23:00,74.2,70.1,29.94,North,-999,0.0,0.0,87,0.00,,,-99.99,0,WeatherLink 5.4,2013-01-26 04:23:00,
2013-01-26 00:24:00,74.2,70.1,29.94,North,-999,0.0,0.0,87,0.00,,,-99.99,0,WeatherLink 5.4,2013-01-26 04:24:00,
2013-01-26 00:25:00,74.2,70.1,29.94,North,-999,0.0,0.0,87,0.00,,,-99.99,0,WeatherLink 5.4,2013-01-26 04:25:00,
2013-01-26 00:26:00,74.2,70.1,29.94,North,-999,0.0,0.0,87,0.00,,,-99.99,0,WeatherLink 5.4,2013-01-26 04:26:00,
2013-01-26 00:27:00,74.2,70.1,29.94,North,-999,0.0,0.0,87,0.00,,,-99.99,0,WeatherLink 5.4,2013-01-26 04:27:00,
2013-01-26 00:28:00,74.2,70.1,29.94,North,-999,0.0,0.0,87,0.00,,,-99.99,0,WeatherLink 5.4,2013-01-26 04:28:00,
2013-01-26 00:29:00,74.2,70.1,29.94,North,-999,0.0,0.0,87,0.00,,,-99.99,0,WeatherLink 5.4,2013-01-26 04:29:00,
2013-01-26 00:30:00,74.2,70.1,29.95,North,-999,0.0,0.0,87,0.00,,,-99.99,0,WeatherLink 5.4,2013-01-26 04:30:00,
2013-01-26 00:31:00,74.2,70.1,29.95,North,-999,0.0,0.0,87,0.00,,,-99.99,0,WeatherLink 5.4,2013-01-26 04:31:00,
2013-01-26 00:32:00,74.2,70.1,29.95,North,-999,0.0,0.0,87,0.00,,,-99.99,0,WeatherLink 5.4,2013-01-26 04:32:00,
2013-01-26 00:33:00,74.1,70.0,29.95,ESE,112,0.0,1.0,87,0.01,,,-99.99,0,WeatherLink 5.4,2013-01-26 04:33:00,
2013-01-26 00:34:00,74.0,69.9,29.95,ESE,112,5.0,10.0,87,0.02,,,-99.99,0,WeatherLink 5.4,2013-01-26 04:34:00,
2013-01-26 00:35:00,74.0,69.9,29.95,ESE,112,1.0,8.0,87,0.03,,,-99.99,0,WeatherLink 5.4,2013-01-26 04:35:00,
2013-01-26 00:36:00,74.0,69.9,29.95,ESE,112,8.0,19.0,87,0.03,,,-99.99,0,WeatherLink 5.4,2013-01-26 04:36:00,
2013-01-26 00:37:00,73.9,69.8,29.95,East,90,3.0,11.0,87,0.03,,,-99.99,0,WeatherLink 5.4,2013-01-26 04:37:00,
2013-01-26 00:38:00,73.9,69.8,29.95,SE,135,4.0,7.0,87,0.04,,,-99.99,0,WeatherLink 5.4,2013-01-26 04:38:00,
2013-01-26 00:39:00,73.9,70.1,29.95,SE,135,2.0,8.0,88,0.04,,,-99.99,0,WeatherLink 5.4,2013-01-26 04:39:00,
2013-01-26 00:40:00,73.8,70.0,29.95,ESE,112,0.0,1.0,88,0.04,,,-99.99,0,WeatherLink 5.4,2013-01-26 04:40:00,
2013-01-26 00:41:00,73.7,69.9,29.95,East,90,1.0,7.0,88,0.04,,,-99.99,0,WeatherLink 5.4,2013-01-26 04:41:00,
2013-01-26 00:42:00,73.7,69.9,29.95,East,90,3.0,9.0,88,0.04,,,-99.99,0,WeatherLink 5.4,2013-01-26 04:42:00,
2013-01-26 00:43:00,73.7,69.9,29.95,North,-999,0.0,0.0,88,0.04,,,-99.99,0,WeatherLink 5.4,2013-01-26 04:43:00,
2013-01-26 00:44:00,73.6,69.8,29.95,SE,135,2.0,7.0,88,0.04,,,-99.99,0,WeatherLink 5.4,2013-01-26 04:44:00,
2013-01-26 00:45:00,73.5,69.7,29.95,SE,135,0.0,2.0,88,0.04,,,-99.99,0,WeatherLink 5.4,2013-01-26 04:45:00,
2013-01-26 00:46:00,73.5,69.7,29.95,North,-999,0.0,0.0,88,0.04,,,-99.99,0,WeatherLink 5.4,2013-01-26 04:46:00,
2013-01-26 00:47:00,73.5,69.7,29.95,East,90,1.0,5.0,88,0.04,,,-99.99,0,WeatherLink 5.4,2013-01-26 04:47:00,
2013-01-26 00:48:00,73.5,69.7,29.95,North,-999,0.0,0.0,88,0.04,,,-99.99,0,WeatherLink 5.4,2013-01-26 04:48:00,
2013-01-26 00:49:00,73.5,69.7,29.95,East,90,3.0,7.0,88,0.04,,,-99.99,0,WeatherLink 5.4,2013-01-26 04:49:00,
2013-01-26 00:50:00,73.5,69.7,29.95,East,90,6.0,10.0,88,0.04,,,-99.99,0,WeatherLink 5.4,2013-01-26 04:50:00,
2013-01-26 00:51:00,73.4,69.6,29.95,ESE,112,1.0,5.0,88,0.04,,,-99.99,0,WeatherLink 5.4,2013-01-26 04:51:00,
2013-01-26 00:52:00,73.3,69.9,29.95,East,90,3.0,6.0,89,0.04,,,-99.99,0,WeatherLink 5.4,2013-01-26 04:52:00,
2013-01-26 00:53:00,73.3,69.9,29.95,ESE,112,4.0,7.0,89,0.04,,,-99.99,0,WeatherLink 5.4,2013-01-26 04:53:00,
2013-01-26 00:54:00,73.3,69.9,29.95,East,90,1.0,5.0,89,0.04,,,-99.99,0,WeatherLink 5.4,2013-01-26 04:54:00,
2013-01-26 00:55:00,73.3,69.9,29.95,ESE,112,5.0,7.0,89,0.04,,,-99.99,0,WeatherLink 5.4,2013-01-26 04:55:00,
2013-01-26 00:56:00,73.2,69.8,29.95,ESE,112,3.0,6.0,89,0.04,,,-99.99,0,WeatherLink 5.4,2013-01-26 04:56:00,
2013-01-26 00:57:00,73.2,69.8,29.95,ESE,112,1.0,3.0,89,0.04,,,-99.99,0,WeatherLink 5.4,2013-01-26 04:57:00,
2013-01-26 00:58:00,73.2,69.8,29.95,ESE,112,0.0,2.0,89,0.04,,,-99.99,0,WeatherLink 5.4,2013-01-26 04:58:00,
2013-01-26 00:59:00,73.2,69.8,29.95,ESE,112,0.0,1.0,89,0.04,,,-99.99,0,WeatherLink 5.4,2013-01-26 04:59:00,
2013-01-26 01:00:00,73.2,69.8,29.95,ESE,112,1.0,3.0,89,0.04,,,-99.99,0,WeatherLink 5.4,2013-01-26 05:00:00,
2013-01-26 01:01:00,73.2,69.8,29.95,North,-999,0.0,0.0,89,0.04,,,-99.99,0,WeatherLink 5.4,2013-01-26 05:01:00,
2013-01-26 01:02:00,73.2,69.8,29.95,North,-999,0.0,0.0,89,0.04,,,-99.99,0,WeatherLink 5.4,2013-01-26 05:02:00,
2013-01-26 01:03:00,73.2,69.8,29.95,North,-999,0.0,0.0,89,0.04,,,-99.99,0,WeatherLink 5.4,2013-01-26 05:03:00,
2013-01-26 01:04:00,73.2,69.8,29.95,North,-999,0.0,0.0,89,0.04,,,-99.99,0,WeatherLink 5.4,2013-01-26 05:04:00,
2013-01-26 01:05:00,73.2,69.8,29.95,North,-999,0.0,0.0,89,0.04,,,-99.99,0,WeatherLink 5.4,2013-01-26 05:05:00,
2013-01-26 01:06:00,73.1,69.7,29.95,North,-999,0.0,0.0,89,0.04,,,-99.99,0,WeatherLink 5.4,2013-01-26 05:06:00,
2013-01-26 01:07:00,73.0,69.6,29.95,North,-999,0.0,0.0,89,0.04,,,-99.99,0,WeatherLink 5.4,2013-01-26 05:07:00,
2013-01-26 01:08:00,73.0,69.6,29.95,North,-999,0.0,0.0,89,0.04,,,-99.99,0,WeatherLink 5.4,2013-01-26 05:08:00,
2013-01-26 01:09:00,73.0,69.6,29.95,North,-999,0.0,0.0,89,0.04,,,-99.99,0,WeatherLink 5.4,2013-01-26 05:09:00,
2013-01-26 01:10:00,73.0,69.6,29.95,North,-999,0.0,0.0,89,0.04,,,-99.99,0,WeatherLink 5.4,2013-01-26 05:10:00,
2013-01-26 01:11:00,73.0,69.6,29.95,North,-999,0.0,0.0,89,0.04,,,-99.99,0,WeatherLink 5.4,2013-01-26 05:11:00,
2013-01-26 01:12:00,73.0,69.6,29.95,North,-999,0.0,0.0,89,0.04,,,-99.99,0,WeatherLink 5.4,2013-01-26 05:12:00,
2013-01-26 01:13:00,73.0,69.6,29.95,North,-999,0.0,0.0,89,0.04,,,-99.99,0,WeatherLink 5.4,2013-01-26 05:13:00,
2013-01-26 01:14:00,73.0,69.6,29.95,North,-999,0.0,0.0,89,0.04,,,-99.99,0,WeatherLink 5.4,2013-01-26 05:14:00,
2013-01-26 01:15:00,73.0,69.9,29.95,North,-999,0.0,0.0,90,0.04,,,-99.99,0,WeatherLink 5.4,2013-01-26 05:15:00,
2013-01-26 01:16:00,73.0,69.9,29.95,North,-999,0.0,0.0,90,0.04,,,-99.99,0,WeatherLink 5.4,2013-01-26 05:16:00,
2013-01-26 01:17:00,73.0,69.9,29.95,North,-999,0.0,0.0,90,0.04,,,-99.99,0,WeatherLink 5.4,2013-01-26 05:17:00,
2013-01-26 01:18:00,73.2,70.1,29.95,North,-999,0.0,0.0,90,0.04,,,-99.99,0,WeatherLink 5.4,2013-01-26 05:18:00,
2013-01-26 01:19:00,73.2,70.1,29.95,North,-999,0.0,0.0,90,0.04,,,-99.99,0,WeatherLink 5.4,2013-01-26 05:19:00,
2013-01-26 01:20:00,73.2,70.1,29.95,North,-999,0.0,0.0,90,0.04,,,-99.99,0,WeatherLink 5.4,2013-01-26 05:20:00,
2013-01-26 01:21:00,73.2,70.1,29.95,North,-999,0.0,0.0,90,0.04,,,-99.99,0,WeatherLink 5.4,2013-01-26 05:21:00,
2013-01-26 01:22:00,73.2,70.1,29.95,North,-999,0.0,0.0,90,0.04,,,-99.99,0,WeatherLink 5.4,2013-01-26 05:22:00,
2013-01-26 01:23:00,73.2,70.1,29.95,North,-999,0.0,0.0,90,0.04,,,-99.99,0,WeatherLink 5.4,2013-01-26 05:23:00,
2013-01-26 01:24:00,73.2,70.1,29.95,North,-999,0.0,0.0,90,0.04,,,-99.99,0,WeatherLink 5.4,2013-01-26 05:24:00,
2013-01-26 01:25:00,73.2,70.1,29.95,North,-999,0.0,0.0,90,0.04,,,-99.99,0,WeatherLink 5.4,2013-01-26 05:25:00,
2013-01-26 01:26:00,73.2,70.1,29.95,North,-999,0.0,0.0,90,0.04,,,-99.99,0,WeatherLink 5.4,2013-01-26 05:26:00,
2013-01-26 01:27:00,73.2,70.1,29.95,North,-999,0.0,0.0,90,0.04,,,-99.99,0,WeatherLink 5.4,2013-01-26 05:27:00,
2013-01-26 01:28:00,73.2,70.1,29.95,North,-999,0.0,0.0,90,0.04,,,-99.99,0,WeatherLink 5.4,2013-01-26 05:28:00,
2013-01-26 01:29:00,73.2,70.1,29.95,North,-999,0.0,0.0,90,0.04,,,-99.99,0,WeatherLink 5.4,2013-01-26 05:29:00,
2013-01-26 01:30:00,73.2,70.1,29.94,North,-999,0.0,0.0,90,0.04,,,-99.99,0,WeatherLink 5.4,2013-01-26 05:30:00,
2013-01-26 01:31:00,73.2,70.1,29.94,North,-999,0.0,0.0,90,0.04,,,-99.99,0,WeatherLink 5.4,2013-01-26 05:31:00,
2013-01-26 01:32:00,73.2,70.1,29.94,North,-999,0.0,0.0,90,0.04,,,-99.99,0,WeatherLink 5.4,2013-01-26 05:32:00,
2013-01-26 01:33:00,73.2,70.1,29.94,North,-999,0.0,0.0,90,0.03,,,-99.99,0,WeatherLink 5.4,2013-01-26 05:33:00,
2013-01-26 01:34:00,73.2,70.1,29.94,North,-999,0.0,0.0,90,0.02,,,-99.99,0,WeatherLink 5.4,2013-01-26 05:34:00,
2013-01-26 01:35:00,73.2,70.1,29.94,North,-999,0.0,0.0,90,0.01,,,-99.99,0,WeatherLink 5.4,2013-01-26 05:35:00,
2013-01-26 01:36:00,73.2,70.1,29.94,North,-999,0.0,0.0,90,0.01,,,-99.99,0,WeatherLink 5.4,2013-01-26 05:36:00,
2013-01-26 01:37:00,73.2,70.1,29.94,North,-999,0.0,0.0,90,0.01,,,-99.99,0,WeatherLink 5.4,2013-01-26 05:37:00,
2013-01-26 01:38:00,73.2,70.1,29.94,North,-999,0.0,0.0,90,0.00,,,-99.99,0,WeatherLink 5.4,2013-01-26 05:38:00,
2013-01-26 01:39:00,73.2,70.1,29.94,North,-999,0.0,0.0,90,0.00,,,-99.99,0,WeatherLink 5.4,2013-01-26 05:39:00,
2013-01-26 01:40:00,73.2,70.1,29.94,North,-999,0.0,0.0,90,0.00,,,-99.99,0,WeatherLink 5.4,2013-01-26 05:40:00,
2013-01-26 01:41:00,73.3,70.2,29.94,North,-999,0.0,0.0,90,0.00,,,-99.99,0,WeatherLink 5.4,2013-01-26 05:41:00,
2013-01-26 01:42:00,73.3,70.2,29.94,North,-999,0.0,0.0,90,0.00,,,-99.99,0,WeatherLink 5.4,2013-01-26 05:42:00,
2013-01-26 01:43:00,73.3,70.2,29.94,North,-999,0.0,0.0,90,0.00,,,-99.99,0,WeatherLink 5.4,2013-01-26 05:43:00,
2013-01-26 01:44:00,73.3,70.2,29.94,North,-999,0.0,0.0,90,0.00,,,-99.99,0,WeatherLink 5.4,2013-01-26 05:44:00,
2013-01-26 01:45:00,73.3,70.2,29.94,North,-999,0.0,0.0,90,0.00,,,-99.99,0,WeatherLink 5.4,2013-01-26 05:45:00,
2013-01-26 01:46:00,73.3,70.2,29.94,North,-999,0.0,0.0,90,0.00,,,-99.99,0,WeatherLink 5.4,2013-01-26 05:46:00,
2013-01-26 01:47:00,73.3,70.2,29.94,North,-999,0.0,0.0,90,0.00,,,-99.99,0,WeatherLink 5.4,2013-01-26 05:47:00,
2013-01-26 01:48:00,73.2,70.1,29.94,North,-999,0.0,0.0,90,0.00,,,-99.99,0,WeatherLink 5.4,2013-01-26 05:48:00,
2013-01-26 01:49:00,73.2,70.1,29.94,North,-999,0.0,0.0,90,0.00,,,-99.99,0,WeatherLink 5.4,2013-01-26 05:49:00,
2013-01-26 01:50:00,73.2,70.1,29.94,North,-999,0.0,0.0,90,0.00,,,-99.99,0,WeatherLink 5.4,2013-01-26 05:50:00,
2013-01-26 01:51:00,73.2,70.1,29.94,North,-999,0.0,0.0,90,0.00,,,-99.99,0,WeatherLink 5.4,2013-01-26 05:51:00,
2013-01-26 01:52:00,73.2,70.1,29.94,North,-999,0.0,0.0,90,0.00,,,-99.99,0,WeatherLink 5.4,2013-01-26 05:52:00,
2013-01-26 01:53:00,73.2,70.1,29.94,North,-999,0.0,0.0,90,0.00,,,-99.99,0,WeatherLink 5.4,2013-01-26 05:53:00,
2013-01-26 01:54:00,73.2,70.1,29.94,North,-999,0.0,0.0,90,0.00,,,-99.99,0,WeatherLink 5.4,2013-01-26 05:54:00,
2013-01-26 01:55:00,73.2,70.1,29.94,North,-999,0.0,0.0,90,0.00,,,-99.99,0,WeatherLink 5.4,2013-01-26 05:55:00,
2013-01-26 01:56:00,73.2,70.1,29.94,North,-999,0.0,0.0,90,0.00,,,-99.99,0,WeatherLink 5.4,2013-01-26 05:56:00,
2013-01-26 01:57:00,73.2,70.1,29.94,North,-999,0.0,0.0,90,0.00,,,-99.99,0,WeatherLink 5.4,2013-01-26 05:57:00,
2013-01-26 01:58:00,73.2,70.1,29.94,North,-999,0.0,0.0,90,0.00,,,-99.99,0,WeatherLink 5.4,2013-01-26 05:58:00,
2013-01-26 01:59:00,73.2,70.1,29.94,North,-999,0.0,0.0,90,0.00,,,-99.99,0,WeatherLink 5.4,2013-01-26 05:59:00,
2013-01-26 02:00:00,73.2,70.1,29.94,North,-999,0.0,0.0,90,0.00,,,-99.99,0,WeatherLink 5.4,2013-01-26 06:00:00,
2013-01-26 02:01:00,73.2,70.1,29.94,North,-999,0.0,0.0,90,0.00,,,-99.99,0,WeatherLink 5.4,2013-01-26 06:01:00,
2013-01-26 02:02:00,73.2,70.1,29.94,North,-999,0.0,0.0,90,0.00,,,-99.99,0,WeatherLink 5.4,2013-01-26 06:02:00,
2013-01-26 02:03:00,73.2,70.1,29.94,North,-999,0.0,0.0,90,0.00,,,-99.99,0,WeatherLink 5.4,2013-01-26 06:03:00,
2013-01-26 02:04:00,73.2,70.1,29.94,North,-999,0.0,0.0,90,0.00,,,-99.99,0,WeatherLink 5.4,2013-01-26 06:04:00,
2013-01-26 02:05:00,73.2,70.1,29.94,North,-999,0.0,0.0,90,0.00,,,-99.99,0,WeatherLink 5.4,2013-01-26 06:05:00,
2013-01-26 02:06:00,73.2,70.1,29.94,North,-999,0.0,0.0,90,0.00,,,-99.99,0,WeatherLink 5.4,2013-01-26 06:06:00,
2013-01-26 02:07:00,73.2,70.1,29.94,North,-999,0.0,0.0,90,0.00,,,-99.99,0,WeatherLink 5.4,2013-01-26 06:07:00,
2013-01-26 02:08:00,73.2,70.1,29.94,North,-999,0.0,0.0,90,0.01,,,-99.99,0,WeatherLink 5.4,2013-01-26 06:08:00,
2013-01-26 02:09:00,73.2,70.1,29.94,North,-999,0.0,0.0,90,0.01,,,-99.99,0,WeatherLink 5.4,2013-01-26 06:09:00,
2013-01-26 02:10:00,73.2,70.1,29.94,North,-999,0.0,0.0,90,0.02,,,-99.99,0,WeatherLink 5.4,2013-01-26 06:10:00,
2013-01-26 02:11:00,73.2,70.1,29.94,North,-999,0.0,0.0,90,0.02,,,-99.99,0,WeatherLink 5.4,2013-01-26 06:11:00,
2013-01-26 02:12:00,73.2,70.1,29.94,North,-999,0.0,0.0,90,0.02,,,-99.99,0,WeatherLink 5.4,2013-01-26 06:12:00,
2013-01-26 02:13:00,73.2,70.1,29.94,North,-999,0.0,0.0,90,0.02,,,-99.99,0,WeatherLink 5.4,2013-01-26 06:13:00,
2013-01-26 02:14:00,73.2,70.1,29.94,North,-999,0.0,0.0,90,0.03,,,-99.99,0,WeatherLink 5.4,2013-01-26 06:14:00,
2013-01-26 02:15:00,73.2,70.4,29.94,North,-999,0.0,0.0,91,0.03,,,-99.99,0,WeatherLink 5.4,2013-01-26 06:15:00,
2013-01-26 02:16:00,73.2,70.4,29.94,North,-999,0.0,0.0,91,0.03,,,-99.99,0,WeatherLink 5.4,2013-01-26 06:16:00,
2013-01-26 02:17:00,73.2,70.4,29.94,North,-999,0.0,0.0,91,0.03,,,-99.99,0,WeatherLink 5.4,2013-01-26 06:17:00,
2013-01-26 02:18:00,73.2,70.4,29.94,North,-999,0.0,0.0,91,0.03,,,-99.99,0,WeatherLink 5.4,2013-01-26 06:18:00,
2013-01-26 02:19:00,73.2,70.4,29.94,North,-999,0.0,0.0,91,0.03,,,-99.99,0,WeatherLink 5.4,2013-01-26 06:19:00,
2013-01-26 02:20:00,73.2,70.4,29.94,North,-999,0.0,0.0,91,0.03,,,-99.99,0,WeatherLink 5.4,2013-01-26 06:20:00,
2013-01-26 02:21:00,73.2,70.4,29.94,North,-999,0.0,0.0,91,0.03,,,-99.99,0,WeatherLink 5.4,2013-01-26 06:21:00,
2013-01-26 02:22:00,73.2,70.4,29.94,North,-999,0.0,0.0,91,0.03,,,-99.99,0,WeatherLink 5.4,2013-01-26 06:22:00,
2013-01-26 02:23:00,73.2,70.4,29.94,North,-999,0.0,0.0,91,0.03,,,-99.99,0,WeatherLink 5.4,2013-01-26 06:23:00,
2013-01-26 02:24:00,73.2,70.4,29.94,North,-999,0.0,0.0,91,0.03,,,-99.99,0,WeatherLink 5.4,2013-01-26 06:24:00,
2013-01-26 02:25:00,73.2,70.4,29.94,North,-999,0.0,0.0,91,0.03,,,-99.99,0,WeatherLink 5.4,2013-01-26 06:25:00,
2013-01-26 02:26:00,73.2,70.4,29.94,North,-999,0.0,0.0,91,0.03,,,-99.99,0,WeatherLink 5.4,2013-01-26 06:26:00,
2013-01-26 02:27:00,73.2,70.4,29.94,North,-999,0.0,0.0,91,0.03,,,-99.99,0,WeatherLink 5.4,2013-01-26 06:27:00,
2013-01-26 02:28:00,73.2,70.4,29.94,North,-999,0.0,0.0,91,0.03,,,-99.99,0,WeatherLink 5.4,2013-01-26 06:28:00,
2013-01-26 02:29:00,73.2,70.4,29.94,North,-999,0.0,0.0,91,0.03,,,-99.99,0,WeatherLink 5.4,2013-01-26 06:29:00,
2013-01-26 02:30:00,73.2,70.4,29.93,North,-999,0.0,0.0,91,0.03,,,-99.99,0,WeatherLink 5.4,2013-01-26 06:30:00,
2013-01-26 02:31:00,73.2,70.4,29.93,North,-999,0.0,0.0,91,0.03,,,-99.99,0,WeatherLink 5.4,2013-01-26 06:31:00,
2013-01-26 02:32:00,73.2,70.4,29.93,North,-999,0.0,0.0,91,0.03,,,-99.99,0,WeatherLink 5.4,2013-01-26 06:32:00,
2013-01-26 02:33:00,73.2,70.4,29.93,North,-999,0.0,0.0,91,0.03,,,-99.99,0,WeatherLink 5.4,2013-01-26 06:33:00,
2013-01-26 02:34:00,73.2,70.4,29.93,North,-999,0.0,0.0,91,0.03,,,-99.99,0,WeatherLink 5.4,2013-01-26 06:34:00,
2013-01-26 02:35:00,73.2,70.4,29.93,North,-999,0.0,0.0,91,0.03,,,-99.99,0,WeatherLink 5.4,2013-01-26 06:35:00,
2013-01-26 02:36:00,73.2,70.4,29.93,North,-999,0.0,0.0,91,0.04,,,-99.99,0,WeatherLink 5.4,2013-01-26 06:36:00,
2013-01-26 02:37:00,73.2,70.4,29.93,North,-999,0.0,0.0,91,0.05,,,-99.99,0,WeatherLink 5.4,2013-01-26 06:37:00,
2013-01-26 02:38:00,73.2,70.4,29.93,North,-999,0.0,0.0,91,0.05,,,-99.99,0,WeatherLink 5.4,2013-01-26 06:38:00,
2013-01-26 02:39:00,73.2,70.4,29.93,North,-999,0.0,0.0,91,0.05,,,-99.99,0,WeatherLink 5.4,2013-01-26 06:39:00,
2013-01-26 02:40:00,73.2,70.4,29.93,North,-999,0.0,0.0,91,0.06,,,-99.99,0,WeatherLink 5.4,2013-01-26 06:40:00,
2013-01-26 02:41:00,73.2,70.4,29.93,North,-999,0.0,0.0,91,0.06,,,-99.99,0,WeatherLink 5.4,2013-01-26 06:41:00,
2013-01-26 02:42:00,73.2,70.4,29.93,North,-999,0.0,0.0,91,0.07,,,-99.99,0,WeatherLink 5.4,2013-01-26 06:42:00,
2013-01-26 02:43:00,73.2,70.4,29.93,North,-999,0.0,0.0,91,0.08,,,-99.99,0,WeatherLink 5.4,2013-01-26 06:43:00,
2013-01-26 02:44:00,73.0,70.2,29.93,North,-999,0.0,0.0,91,0.08,,,-99.99,0,WeatherLink 5.4,2013-01-26 06:44:00,
2013-01-26 02:45:00,73.0,70.2,29.92,North,-999,0.0,0.0,91,0.09,,,-99.99,0,WeatherLink 5.4,2013-01-26 06:45:00,
2013-01-26 02:46:00,73.0,70.2,29.92,North,-999,0.0,0.0,91,0.09,,,-99.99,0,WeatherLink 5.4,2013-01-26 06:46:00,
2013-01-26 02:47:00,73.0,70.2,29.92,North,-999,0.0,0.0,91,0.10,,,-99.99,0,WeatherLink 5.4,2013-01-26 06:47:00,
2013-01-26 02:48:00,73.0,70.2,29.92,North,-999,0.0,0.0,91,0.10,,,-99.99,0,WeatherLink 5.4,2013-01-26 06:48:00,
2013-01-26 02:49:00,73.0,70.2,29.92,North,-999,0.0,0.0,91,0.10,,,-99.99,0,WeatherLink 5.4,2013-01-26 06:49:00,
2013-01-26 02:50:00,73.0,70.2,29.92,North,-999,0.0,0.0,91,0.10,,,-99.99,0,WeatherLink 5.4,2013-01-26 06:50:00,
2013-01-26 02:51:00,73.0,70.2,29.92,North,-999,0.0,0.0,91,0.10,,,-99.99,0,WeatherLink 5.4,2013-01-26 06:51:00,
2013-01-26 02:52:00,73.0,70.2,29.92,North,-999,0.0,0.0,91,0.10,,,-99.99,0,WeatherLink 5.4,2013-01-26 06:52:00,
2013-01-26 02:53:00,73.0,70.2,29.92,North,-999,0.0,0.0,91,0.10,,,-99.99,0,WeatherLink 5.4,2013-01-26 06:53:00,
2013-01-26 02:54:00,73.0,70.2,29.92,North,-999,0.0,0.0,91,0.10,,,-99.99,0,WeatherLink 5.4,2013-01-26 06:54:00,
2013-01-26 02:55:00,73.0,70.2,29.92,North,-999,0.0,0.0,91,0.10,,,-99.99,0,WeatherLink 5.4,2013-01-26 06:55:00,
2013-01-26 02:56:00,73.0,70.2,29.92,North,-999,0.0,0.0,91,0.10,,,-99.99,0,WeatherLink 5.4,2013-01-26 06:56:00,
2013-01-26 02:57:00,73.0,70.2,29.92,North,-999,0.0,0.0,91,0.10,,,-99.99,0,WeatherLink 5.4,2013-01-26 06:57:00,
2013-01-26 02:58:00,73.0,70.2,29.92,North,-999,0.0,0.0,91,0.10,,,-99.99,0,WeatherLink 5.4,2013-01-26 06:58:00,
2013-01-26 02:59:00,73.0,70.2,29.92,North,-999,0.0,0.0,91,0.10,,,-99.99,0,WeatherLink 5.4,2013-01-26 06:59:00,
2013-01-26 03:00:00,73.0,70.2,29.92,North,-999,0.0,0.0,91,0.10,,,-99.99,0,WeatherLink 5.4,2013-01-26 07:00:00,
2013-01-26 03:01:00,73.0,70.2,29.92,North,-999,0.0,0.0,91,0.10,,,-99.99,0,WeatherLink 5.4,2013-01-26 07:01:00,
2013-01-26 03:02:00,73.0,70.2,29.92,North,-999,0.0,0.0,91,0.10,,,-99.99,0,WeatherLink 5.4,2013-01-26 07:02:00,
2013-01-26 03:03:00,73.0,70.2,29.92,North,-999,0.0,0.0,91,0.10,,,-99.99,0,WeatherLink 5.4,2013-01-26 07:03:00,
2013-01-26 03:04:00,73.0,70.2,29.92,North,-999,0.0,0.0,91,0.10,,,-99.99,0,WeatherLink 5.4,2013-01-26 07:04:00,
2013-01-26 03:05:00,73.0,70.5,29.92,North,-999,0.0,0.0,92,0.10,,,-99.99,0,WeatherLink 5.4,2013-01-26 07:05:00,
2013-01-26 03:06:00,73.1,70.6,29.92,North,-999,0.0,0.0,92,0.10,,,-99.99,0,WeatherLink 5.4,2013-01-26 07:06:00,
2013-01-26 03:07:00,73.2,70.7,29.92,North,-999,0.0,0.0,92,0.10,,,-99.99,0,WeatherLink 5.4,2013-01-26 07:07:00,
2013-01-26 03:08:00,73.2,70.7,29.92,North,-999,0.0,0.0,92,0.09,,,-99.99,0,WeatherLink 5.4,2013-01-26 07:08:00,
2013-01-26 03:09:00,73.2,70.7,29.92,North,-999,0.0,0.0,92,0.09,,,-99.99,0,WeatherLink 5.4,2013-01-26 07:09:00,
2013-01-26 03:10:00,73.2,70.7,29.92,North,-999,0.0,0.0,92,0.08,,,-99.99,0,WeatherLink 5.4,2013-01-26 07:10:00,
2013-01-26 03:11:00,73.2,70.7,29.92,North,-999,0.0,0.0,92,0.08,,,-99.99,0,WeatherLink 5.4,2013-01-26 07:11:00,
2013-01-26 03:12:00,73.2,70.7,29.92,North,-999,0.0,0.0,92,0.08,,,-99.99,0,WeatherLink 5.4,2013-01-26 07:12:00,
2013-01-26 03:13:00,73.2,70.7,29.92,North,-999,0.0,0.0,92,0.08,,,-99.99,0,WeatherLink 5.4,2013-01-26 07:13:00,
2013-01-26 03:14:00,73.2,70.7,29.92,North,-999,0.0,0.0,92,0.08,,,-99.99,0,WeatherLink 5.4,2013-01-26 07:14:00,
2013-01-26 03:15:00,73.2,70.7,29.92,North,-999,0.0,0.0,92,0.08,,,-99.99,0,WeatherLink 5.4,2013-01-26 07:15:00,
2013-01-26 03:16:00,73.2,70.7,29.92,North,-999,0.0,0.0,92,0.08,,,-99.99,0,WeatherLink 5.4,2013-01-26 07:16:00,
2013-01-26 03:17:00,73.2,70.7,29.92,North,-999,0.0,0.0,92,0.08,,,-99.99,0,WeatherLink 5.4,2013-01-26 07:17:00,
2013-01-26 03:18:00,73.2,70.7,29.92,North,-999,0.0,0.0,92,0.08,,,-99.99,0,WeatherLink 5.4,2013-01-26 07:18:00,
2013-01-26 03:19:00,73.2,70.7,29.92,North,-999,0.0,0.0,92,0.09,,,-99.99,0,WeatherLink 5.4,2013-01-26 07:19:00,
2013-01-26 03:20:00,73.2,70.7,29.92,ESE,112,0.0,1.0,92,0.09,,,-99.99,0,WeatherLink 5.4,2013-01-26 07:20:00,
2013-01-26 03:21:00,73.2,70.7,29.92,North,-999,0.0,0.0,92,0.09,,,-99.99,0,WeatherLink 5.4,2013-01-26 07:21:00,
2013-01-26 03:22:00,73.2,70.7,29.92,North,-999,0.0,0.0,92,0.09,,,-99.99,0,WeatherLink 5.4,2013-01-26 07:22:00,
2013-01-26 03:23:00,73.2,70.7,29.92,North,-999,0.0,0.0,92,0.09,,,-99.99,0,WeatherLink 5.4,2013-01-26 07:23:00,
2013-01-26 03:24:00,73.2,70.7,29.92,North,-999,0.0,0.0,92,0.09,,,-99.99,0,WeatherLink 5.4,2013-01-26 07:24:00,
2013-01-26 03:25:00,73.2,70.7,29.92,North,-999,0.0,0.0,92,0.09,,,-99.99,0,WeatherLink 5.4,2013-01-26 07:25:00,
2013-01-26 03:26:00,73.2,70.7,29.92,North,-999,0.0,0.0,92,0.09,,,-99.99,0,WeatherLink 5.4,2013-01-26 07:26:00,
2013-01-26 03:27:00,73.2,70.7,29.92,North,-999,0.0,0.0,92,0.09,,,-99.99,0,WeatherLink 5.4,2013-01-26 07:27:00,
2013-01-26 03:28:00,73.2,70.7,29.92,North,-999,0.0,0.0,92,0.09,,,-99.99,0,WeatherLink 5.4,2013-01-26 07:28:00,
2013-01-26 03:29:00,73.2,70.7,29.92,North,-999,0.0,0.0,92,0.09,,,-99.99,0,WeatherLink 5.4,2013-01-26 07:29:00,
2013-01-26 03:30:00,73.2,70.7,29.91,North,-999,0.0,0.0,92,0.09,,,-99.99,0,WeatherLink 5.4,2013-01-26 07:30:00,
2013-01-26 03:31:00,73.2,70.7,29.91,North,-999,0.0,0.0,92,0.09,,,-99.99,0,WeatherLink 5.4,2013-01-26 07:31:00,
2013-01-26 03:32:00,73.2,70.7,29.91,North,-999,0.0,0.0,92,0.09,,,-99.99,0,WeatherLink 5.4,2013-01-26 07:32:00,
2013-01-26 03:33:00,73.2,70.7,29.91,North,-999,0.0,0.0,92,0.09,,,-99.99,0,WeatherLink 5.4,2013-01-26 07:33:00,
2013-01-26 03:34:00,73.2,70.7,29.91,North,-999,0.0,0.0,92,0.09,,,-99.99,0,WeatherLink 5.4,2013-01-26 07:34:00,
2013-01-26 03:35:00,73.2,70.7,29.91,North,-999,0.0,0.0,92,0.09,,,-99.99,0,WeatherLink 5.4,2013-01-26 07:35:00,
2013-01-26 03:36:00,73.2,70.7,29.91,North,-999,0.0,0.0,92,0.08,,,-99.99,0,WeatherLink 5.4,2013-01-26 07:36:00,
2013-01-26 03:37:00,73.2,70.7,29.91,North,-999,0.0,0.0,92,0.07,,,-99.99,0,WeatherLink 5.4,2013-01-26 07:37:00,
2013-01-26 03:38:00,73.2,70.7,29.91,North,-999,0.0,0.0,92,0.07,,,-99.99,0,WeatherLink 5.4,2013-01-26 07:38:00,
2013-01-26 03:39:00,73.2,70.7,29.91,North,-999,0.0,0.0,92,0.07,,,-99.99,0,WeatherLink 5.4,2013-01-26 07:39:00,
2013-01-26 03:40:00,73.2,70.7,29.91,North,-999,0.0,0.0,92,0.06,,,-99.99,0,WeatherLink 5.4,2013-01-26 07:40:00,
2013-01-26 03:41:00,73.2,70.7,29.91,North,-999,0.0,0.0,92,0.06,,,-99.99,0,WeatherLink 5.4,2013-01-26 07:41:00,
2013-01-26 03:42:00,73.2,70.7,29.91,North,-999,0.0,0.0,92,0.05,,,-99.99,0,WeatherLink 5.4,2013-01-26 07:42:00,
2013-01-26 03:43:00,73.2,70.7,29.91,North,-999,0.0,0.0,92,0.04,,,-99.99,0,WeatherLink 5.4,2013-01-26 07:43:00,
2013-01-26 03:44:00,73.2,70.7,29.91,North,-999,0.0,0.0,92,0.04,,,-99.99,0,WeatherLink 5.4,2013-01-26 07:44:00,
2013-01-26 03:45:00,73.2,70.7,29.91,North,-999,0.0,0.0,92,0.03,,,-99.99,0,WeatherLink 5.4,2013-01-26 07:45:00,
2013-01-26 03:46:00,73.2,70.7,29.91,North,-999,0.0,0.0,92,0.03,,,-99.99,0,WeatherLink 5.4,2013-01-26 07:46:00,
2013-01-26 03:47:00,73.1,70.6,29.91,North,-999,0.0,0.0,92,0.02,,,-99.99,0,WeatherLink 5.4,2013-01-26 07:47:00,
2013-01-26 03:48:00,73.0,70.5,29.91,North,-999,0.0,0.0,92,0.02,,,-99.99,0,WeatherLink 5.4,2013-01-26 07:48:00,
2013-01-26 03:49:00,73.0,70.5,29.91,North,-999,0.0,0.0,92,0.02,,,-99.99,0,WeatherLink 5.4,2013-01-26 07:49:00,
2013-01-26 03:50:00,73.0,70.5,29.91,North,-999,0.0,0.0,92,0.02,,,-99.99,0,WeatherLink 5.4,2013-01-26 07:50:00,
2013-01-26 03:51:00,73.0,70.5,29.91,North,-999,0.0,0.0,92,0.02,,,-99.99,0,WeatherLink 5.4,2013-01-26 07:51:00,
2013-01-26 03:52:00,73.0,70.5,29.91,North,-999,0.0,0.0,92,0.02,,,-99.99,0,WeatherLink 5.4,2013-01-26 07:52:00,
2013-01-26 03:53:00,72.9,70.4,29.91,North,-999,0.0,0.0,92,0.02,,,-99.99,0,WeatherLink 5.4,2013-01-26 07:53:00,
2013-01-26 03:54:00,72.8,70.3,29.91,North,-999,0.0,0.0,92,0.02,,,-99.99,0,WeatherLink 5.4,2013-01-26 07:54:00,
2013-01-26 03:55:00,72.8,70.3,29.91,North,-999,0.0,0.0,92,0.02,,,-99.99,0,WeatherLink 5.4,2013-01-26 07:55:00,
2013-01-26 03:56:00,72.8,70.3,29.91,North,-999,0.0,0.0,92,0.02,,,-99.99,0,WeatherLink 5.4,2013-01-26 07:56:00,
2013-01-26 03:57:00,72.8,70.3,29.91,North,-999,0.0,0.0,92,0.02,,,-99.99,0,WeatherLink 5.4,2013-01-26 07:57:00,
2013-01-26 03:58:00,73.0,70.5,29.91,North,-999,0.0,0.0,92,0.02,,,-99.99,0,WeatherLink 5.4,2013-01-26 07:58:00,
2013-01-26 03:59:00,73.0,70.5,29.91,North,-999,0.0,0.0,92,0.02,,,-99.99,0,WeatherLink 5.4,2013-01-26 07:59:00,
2013-01-26 04:00:00,73.0,70.5,29.91,North,-999,0.0,0.0,92,0.02,,,-99.99,0,WeatherLink 5.4,2013-01-26 08:00:00,
2013-01-26 04:01:00,73.0,70.5,29.91,North,-999,0.0,0.0,92,0.02,,,-99.99,0,WeatherLink 5.4,2013-01-26 08:01:00,
2013-01-26 04:02:00,73.0,70.5,29.91,North,-999,0.0,0.0,92,0.02,,,-99.99,0,WeatherLink 5.4,2013-01-26 08:02:00,
2013-01-26 04:03:00,73.0,70.5,29.91,North,-999,0.0,0.0,92,0.03,,,-99.99,0,WeatherLink 5.4,2013-01-26 08:03:00,
2013-01-26 04:04:00,73.0,70.5,29.91,North,-999,0.0,0.0,92,0.03,,,-99.99,0,WeatherLink 5.4,2013-01-26 08:04:00,
2013-01-26 04:05:00,73.0,70.5,29.91,North,-999,0.0,0.0,92,0.03,,,-99.99,0,WeatherLink 5.4,2013-01-26 08:05:00,
2013-01-26 04:06:00,73.0,70.5,29.91,North,-999,0.0,0.0,92,0.03,,,-99.99,0,WeatherLink 5.4,2013-01-26 08:06:00,
2013-01-26 04:07:00,73.0,70.5,29.91,North,-999,0.0,0.0,92,0.03,,,-99.99,0,WeatherLink 5.4,2013-01-26 08:07:00,
2013-01-26 04:08:00,73.0,70.5,29.91,North,-999,0.0,0.0,92,0.04,,,-99.99,0,WeatherLink 5.4,2013-01-26 08:08:00,
2013-01-26 04:09:00,73.0,70.5,29.91,North,-999,0.0,0.0,92,0.05,,,-99.99,0,WeatherLink 5.4,2013-01-26 08:09:00,
2013-01-26 04:10:00,72.9,70.4,29.91,North,-999,0.0,0.0,92,0.06,,,-99.99,0,WeatherLink 5.4,2013-01-26 08:10:00,
2013-01-26 04:11:00,72.8,70.3,29.91,North,-999,0.0,0.0,92,0.06,,,-99.99,0,WeatherLink 5.4,2013-01-26 08:11:00,
2013-01-26 04:12:00,72.8,70.3,29.91,North,-999,0.0,0.0,92,0.06,,,-99.99,0,WeatherLink 5.4,2013-01-26 08:12:00,
2013-01-26 04:13:00,72.8,70.3,29.91,North,-999,0.0,0.0,92,0.07,,,-99.99,0,WeatherLink 5.4,2013-01-26 08:13:00,
2013-01-26 04:14:00,72.8,70.3,29.91,North,-999,0.0,0.0,92,0.06,,,-99.99,0,WeatherLink 5.4,2013-01-26 08:14:00,
2013-01-26 04:15:00,72.8,70.3,29.91,North,-999,0.0,0.0,92,0.06,,,-99.99,0,WeatherLink 5.4,2013-01-26 08:15:00,
2013-01-26 04:16:00,72.8,70.3,29.91,North,-999,0.0,0.0,92,0.06,,,-99.99,0,WeatherLink 5.4,2013-01-26 08:16:00,
2013-01-26 04:17:00,72.8,70.3,29.91,North,-999,0.0,0.0,92,0.07,,,-99.99,0,WeatherLink 5.4,2013-01-26 08:17:00,
2013-01-26 04:18:00,72.8,70.3,29.91,North,-999,0.0,0.0,92,0.07,,,-99.99,0,WeatherLink 5.4,2013-01-26 08:18:00,
2013-01-26 04:19:00,72.8,70.3,29.91,North,-999,0.0,0.0,92,0.07,,,-99.99,0,WeatherLink 5.4,2013-01-26 08:19:00,
2013-01-26 04:20:00,72.8,70.3,29.91,North,-999,0.0,0.0,92,0.07,,,-99.99,0,WeatherLink 5.4,2013-01-26 08:20:00,
2013-01-26 04:21:00,72.8,70.3,29.91,North,-999,0.0,0.0,92,0.07,,,-99.99,0,WeatherLink 5.4,2013-01-26 08:21:00,
2013-01-26 04:22:00,72.8,70.3,29.91,North,-999,0.0,0.0,92,0.07,,,-99.99,0,WeatherLink 5.4,2013-01-26 08:22:00,
2013-01-26 04:23:00,72.8,70.3,29.91,North,-999,0.0,0.0,92,0.08,,,-99.99,0,WeatherLink 5.4,2013-01-26 08:23:00,
2013-01-26 04:24:00,72.8,70.3,29.91,North,-999,0.0,0.0,92,0.08,,,-99.99,0,WeatherLink 5.4,2013-01-26 08:24:00,
2013-01-26 04:25:00,72.8,70.3,29.91,North,-999,0.0,0.0,92,0.08,,,-99.99,0,WeatherLink 5.4,2013-01-26 08:25:00,
2013-01-26 04:26:00,72.8,70.3,29.91,North,-999,0.0,0.0,92,0.08,,,-99.99,0,WeatherLink 5.4,2013-01-26 08:26:00,
2013-01-26 04:27:00,72.8,70.3,29.91,North,-999,0.0,0.0,92,0.08,,,-99.99,0,WeatherLink 5.4,2013-01-26 08:27:00,
2013-01-26 04:28:00,72.8,70.3,29.91,North,-999,0.0,0.0,92,0.08,,,-99.99,0,WeatherLink 5.4,2013-01-26 08:28:00,
2013-01-26 04:29:00,72.7,70.2,29.91,North,-999,0.0,0.0,92,0.08,,,-99.99,0,WeatherLink 5.4,2013-01-26 08:29:00,
2013-01-26 04:30:00,72.8,70.3,29.91,North,-999,0.0,0.0,92,0.08,,,-99.99,0,WeatherLink 5.4,2013-01-26 08:30:00,
2013-01-26 04:31:00,72.8,70.3,29.91,North,-999,0.0,0.0,92,0.08,,,-99.99,0,WeatherLink 5.4,2013-01-26 08:31:00,
2013-01-26 04:32:00,72.8,70.3,29.91,North,-999,0.0,0.0,92,0.09,,,-99.99,0,WeatherLink 5.4,2013-01-26 08:32:00,
2013-01-26 04:33:00,72.7,70.2,29.91,North,-999,0.0,0.0,92,0.09,,,-99.99,0,WeatherLink 5.4,2013-01-26 08:33:00,
2013-01-26 04:34:00,72.8,70.3,29.91,North,-999,0.0,0.0,92,0.09,,,-99.99,0,WeatherLink 5.4,2013-01-26 08:34:00,
2013-01-26 04:35:00,72.8,70.3,29.91,North,-999,0.0,0.0,92,0.09,,,-99.99,0,WeatherLink 5.4,2013-01-26 08:35:00,
2013-01-26 04:36:00,72.8,70.3,29.91,North,-999,0.0,0.0,92,0.09,,,-99.99,0,WeatherLink 5.4,2013-01-26 08:36:00,
2013-01-26 04:37:00,72.8,70.3,29.91,North,-999,0.0,0.0,92,0.09,,,-99.99,0,WeatherLink 5.4,2013-01-26 08:37:00,
2013-01-26 04:38:00,72.8,70.3,29.91,North,-999,0.0,0.0,92,0.09,,,-99.99,0,WeatherLink 5.4,2013-01-26 08:38:00,
2013-01-26 04:39:00,72.8,70.3,29.91,North,-999,0.0,0.0,92,0.09,,,-99.99,0,WeatherLink 5.4,2013-01-26 08:39:00,
2013-01-26 04:40:00,72.8,70.3,29.91,North,-999,0.0,0.0,92,0.09,,,-99.99,0,WeatherLink 5.4,2013-01-26 08:40:00,
2013-01-26 04:41:00,72.8,70.3,29.91,North,-999,0.0,0.0,92,0.09,,,-99.99,0,WeatherLink 5.4,2013-01-26 08:41:00,
2013-01-26 04:42:00,72.8,70.3,29.91,North,-999,0.0,0.0,92,0.09,,,-99.99,0,WeatherLink 5.4,2013-01-26 08:42:00,
2013-01-26 04:43:00,72.8,70.3,29.91,North,-999,0.0,0.0,92,0.09,,,-99.99,0,WeatherLink 5.4,2013-01-26 08:43:00,
2013-01-26 04:44:00,72.8,70.3,29.91,North,-999,0.0,0.0,92,0.09,,,-99.99,0,WeatherLink 5.4,2013-01-26 08:44:00,
2013-01-26 04:45:00,72.8,70.3,29.91,North,-999,0.0,0.0,92,0.09,,,-99.99,0,WeatherLink 5.4,2013-01-26 08:45:00,
2013-01-26 04:46:00,72.8,70.3,29.91,North,-999,0.0,0.0,92,0.09,,,-99.99,0,WeatherLink 5.4,2013-01-26 08:46:00,
2013-01-26 04:47:00,72.8,70.3,29.91,North,-999,0.0,0.0,92,0.09,,,-99.99,0,WeatherLink 5.4,2013-01-26 08:47:00,
2013-01-26 04:48:00,72.8,70.3,29.91,North,-999,0.0,0.0,92,0.09,,,-99.99,0,WeatherLink 5.4,2013-01-26 08:48:00,
2013-01-26 04:49:00,72.8,70.3,29.91,North,-999,0.0,0.0,92,0.09,,,-99.99,0,WeatherLink 5.4,2013-01-26 08:49:00,
2013-01-26 04:50:00,72.7,70.2,29.91,North,-999,0.0,0.0,92,0.09,,,-99.99,0,WeatherLink 5.4,2013-01-26 08:50:00,
2013-01-26 04:51:00,72.7,70.2,29.91,North,-999,0.0,0.0,92,0.09,,,-99.99,0,WeatherLink 5.4,2013-01-26 08:51:00,
2013-01-26 04:52:00,72.7,70.2,29.91,North,-999,0.0,0.0,92,0.09,,,-99.99,0,WeatherLink 5.4,2013-01-26 08:52:00,
2013-01-26 04:53:00,72.7,70.2,29.91,North,-999,0.0,0.0,92,0.09,,,-99.99,0,WeatherLink 5.4,2013-01-26 08:53:00,
2013-01-26 04:54:00,72.7,70.2,29.91,North,-999,0.0,0.0,92,0.09,,,-99.99,0,WeatherLink 5.4,2013-01-26 08:54:00,
2013-01-26 04:55:00,72.7,70.2,29.91,North,-999,0.0,0.0,92,0.09,,,-99.99,0,WeatherLink 5.4,2013-01-26 08:55:00,
2013-01-26 04:56:00,72.7,70.2,29.91,North,-999,0.0,0.0,92,0.09,,,-99.99,0,WeatherLink 5.4,2013-01-26 08:56:00,
2013-01-26 04:57:00,72.7,70.2,29.91,North,-999,0.0,0.0,92,0.09,,,-99.99,0,WeatherLink 5.4,2013-01-26 08:57:00,
2013-01-26 04:58:00,72.7,70.2,29.91,North,-999,0.0,0.0,92,0.09,,,-99.99,0,WeatherLink 5.4,2013-01-26 08:58:00,
2013-01-26 04:59:00,72.7,70.2,29.91,North,-999,0.0,0.0,92,0.09,,,-99.99,0,WeatherLink 5.4,2013-01-26 08:59:00,
2013-01-26 05:00:00,72.7,70.2,29.91,North,-999,0.0,0.0,92,0.09,,,-99.99,0,WeatherLink 5.4,2013-01-26 09:00:00,
2013-01-26 05:01:00,72.7,70.2,29.91,North,-999,0.0,0.0,92,0.09,,,-99.99,0,WeatherLink 5.4,2013-01-26 09:01:00,
2013-01-26 05:02:00,72.7,70.6,29.91,North,-999,0.0,0.0,93,0.09,,,-99.99,0,WeatherLink 5.4,2013-01-26 09:02:00,
2013-01-26 05:03:00,72.7,70.6,29.91,North,-999,0.0,0.0,93,0.08,,,-99.99,0,WeatherLink 5.4,2013-01-26 09:03:00,
2013-01-26 05:04:00,72.7,70.6,29.91,North,-999,0.0,0.0,93,0.08,,,-99.99,0,WeatherLink 5.4,2013-01-26 09:04:00,
2013-01-26 05:05:00,72.8,70.7,29.91,North,-999,0.0,0.0,93,0.08,,,-99.99,0,WeatherLink 5.4,2013-01-26 09:05:00,
2013-01-26 05:06:00,72.8,70.7,29.91,North,-999,0.0,0.0,93,0.08,,,-99.99,0,WeatherLink 5.4,2013-01-26 09:06:00,
2013-01-26 05:07:00,72.8,70.7,29.91,North,-999,0.0,0.0,93,0.08,,,-99.99,0,WeatherLink 5.4,2013-01-26 09:07:00,
2013-01-26 05:08:00,72.8,70.7,29.91,North,-999,0.0,0.0,93,0.08,,,-99.99,0,WeatherLink 5.4,2013-01-26 09:08:00,
2013-01-26 05:09:00,72.8,70.7,29.91,North,-999,0.0,0.0,93,0.08,,,-99.99,0,WeatherLink 5.4,2013-01-26 09:09:00,
2013-01-26 05:10:00,72.8,70.7,29.91,North,-999,0.0,0.0,93,0.07,,,-99.99,0,WeatherLink 5.4,2013-01-26 09:10:00,
2013-01-26 05:11:00,72.8,70.7,29.91,North,-999,0.0,0.0,93,0.08,,,-99.99,0,WeatherLink 5.4,2013-01-26 09:11:00,
2013-01-26 05:12:00,72.8,70.7,29.91,North,-999,0.0,0.0,93,0.08,,,-99.99,0,WeatherLink 5.4,2013-01-26 09:12:00,
2013-01-26 05:13:00,72.8,70.7,29.91,North,-999,0.0,0.0,93,0.07,,,-99.99,0,WeatherLink 5.4,2013-01-26 09:13:00,
2013-01-26 05:14:00,72.8,70.7,29.91,North,-999,0.0,0.0,93,0.07,,,-99.99,0,WeatherLink 5.4,2013-01-26 09:14:00,
2013-01-26 05:15:00,72.8,70.7,29.91,North,-999,0.0,0.0,93,0.07,,,-99.99,0,WeatherLink 5.4,2013-01-26 09:15:00,
2013-01-26 05:16:00,72.8,70.7,29.91,North,-999,0.0,0.0,93,0.07,,,-99.99,0,WeatherLink 5.4,2013-01-26 09:16:00,
2013-01-26 05:17:00,72.8,70.7,29.91,North,-999,0.0,0.0,93,0.06,,,-99.99,0,WeatherLink 5.4,2013-01-26 09:17:00,
2013-01-26 05:18:00,72.8,70.7,29.91,North,-999,0.0,0.0,93,0.06,,,-99.99,0,WeatherLink 5.4,2013-01-26 09:18:00,
2013-01-26 05:19:00,72.8,70.7,29.91,North,-999,0.0,0.0,93,0.05,,,-99.99,0,WeatherLink 5.4,2013-01-26 09:19:00,
2013-01-26 05:20:00,72.8,70.7,29.91,North,-999,0.0,0.0,93,0.05,,,-99.99,0,WeatherLink 5.4,2013-01-26 09:20:00,
2013-01-26 05:21:00,72.8,70.7,29.91,North,-999,0.0,0.0,93,0.05,,,-99.99,0,WeatherLink 5.4,2013-01-26 09:21:00,
2013-01-26 05:22:00,72.9,70.8,29.91,North,-999,0.0,0.0,93,0.05,,,-99.99,0,WeatherLink 5.4,2013-01-26 09:22:00,
2013-01-26 05:23:00,73.0,70.9,29.91,North,-999,0.0,0.0,93,0.04,,,-99.99,0,WeatherLink 5.4,2013-01-26 09:23:00,
2013-01-26 05:24:00,73.0,70.9,29.91,North,-999,0.0,0.0,93,0.04,,,-99.99,0,WeatherLink 5.4,2013-01-26 09:24:00,
2013-01-26 05:25:00,73.0,70.9,29.91,North,-999,0.0,0.0,93,0.04,,,-99.99,0,WeatherLink 5.4,2013-01-26 09:25:00,
2013-01-26 05:26:00,73.0,70.9,29.91,North,-999,0.0,0.0,93,0.04,,,-99.99,0,WeatherLink 5.4,2013-01-26 09:26:00,
2013-01-26 05:27:00,73.0,70.9,29.91,ESE,112,0.0,1.0,93,0.04,,,-99.99,0,WeatherLink 5.4,2013-01-26 09:27:00,
2013-01-26 05:28:00,73.0,70.9,29.91,North,-999,0.0,0.0,93,0.04,,,-99.99,0,WeatherLink 5.4,2013-01-26 09:28:00,
2013-01-26 05:29:00,73.0,70.9,29.91,North,-999,0.0,0.0,93,0.04,,,-99.99,0,WeatherLink 5.4,2013-01-26 09:29:00,
2013-01-26 05:30:00,73.0,70.9,29.91,North,-999,0.0,0.0,93,0.04,,,-99.99,0,WeatherLink 5.4,2013-01-26 09:30:00,
2013-01-26 05:31:00,73.0,70.9,29.91,North,-999,0.0,0.0,93,0.04,,,-99.99,0,WeatherLink 5.4,2013-01-26 09:31:00,
2013-01-26 05:32:00,73.0,70.9,29.91,North,-999,0.0,0.0,93,0.03,,,-99.99,0,WeatherLink 5.4,2013-01-26 09:32:00,
2013-01-26 05:33:00,73.0,70.9,29.91,North,-999,0.0,0.0,93,0.04,,,-99.99,0,WeatherLink 5.4,2013-01-26 09:33:00,
2013-01-26 05:34:00,73.0,70.9,29.91,North,-999,0.0,0.0,93,0.04,,,-99.99,0,WeatherLink 5.4,2013-01-26 09:34:00,
2013-01-26 05:35:00,73.0,70.9,29.91,North,-999,0.0,0.0,93,0.04,,,-99.99,0,WeatherLink 5.4,2013-01-26 09:35:00,
2013-01-26 05:36:00,73.0,70.9,29.91,North,-999,0.0,0.0,93,0.04,,,-99.99,0,WeatherLink 5.4,2013-01-26 09:36:00,
2013-01-26 05:37:00,73.0,70.9,29.91,North,-999,0.0,0.0,93,0.04,,,-99.99,0,WeatherLink 5.4,2013-01-26 09:37:00,
2013-01-26 05:38:00,73.0,70.9,29.91,North,-999,0.0,0.0,93,0.04,,,-99.99,0,WeatherLink 5.4,2013-01-26 09:38:00,
2013-01-26 05:39:00,73.0,70.9,29.91,East,90,2.0,7.0,93,0.04,,,-99.99,0,WeatherLink 5.4,2013-01-26 09:39:00,
2013-01-26 05:40:00,73.0,70.9,29.91,East,90,0.0,1.0,93,0.04,,,-99.99,0,WeatherLink 5.4,2013-01-26 09:40:00,
2013-01-26 05:41:00,73.0,70.9,29.91,North,-999,0.0,0.0,93,0.04,,,-99.99,0,WeatherLink 5.4,2013-01-26 09:41:00,
2013-01-26 05:42:00,-999.0,-99.9,29.91,North,-999,0.0,0.0,93,0.04,,,-99.99,0,WeatherLink 5.4,2013-01-26 09:42:00,
2013-01-26 05:43:00,73.0,70.9,29.91,North,-999,0.0,0.0,93,0.04,,,-99.99,0,WeatherLink 5.4,2013-01-26 09:43:00,
2013-01-26 05:44:00,73.0,70.9,29.91,North,-999,0.0,0.0,93,0.04,,,-99.99,0,WeatherLink 5.4,2013-01-26 09:44:00,
2013-01-26 05:45:00,73.0,70.9,29.92,North,-999,0.0,0.0,93,0.04,,,-99.99,0,WeatherLink 5.4,2013-01-26 09:45:00,
2013-01-26 05:46:00,73.0,70.9,29.92,North,-999,0.0,0.0,93,0.04,,,-99.99,0,WeatherLink 5.4,2013-01-26 09:46:00,
2013-01-26 05:47:00,73.0,70.9,29.92,North,-999,0.0,0.0,93,0.04,,,-99.99,0,WeatherLink 5.4,2013-01-26 09:47:00,
2013-01-26 05:48:00,73.0,70.9,29.92,North,-999,0.0,0.0,93,0.04,,,-99.99,0,WeatherLink 5.4,2013-01-26 09:48:00,
2013-01-26 05:49:00,73.0,70.9,29.92,North,-999,0.0,0.0,93,0.04,,,-99.99,0,WeatherLink 5.4,2013-01-26 09:49:00,
2013-01-26 05:50:00,73.0,70.9,29.92,North,-999,0.0,0.0,93,0.04,,,-99.99,0,WeatherLink 5.4,2013-01-26 09:50:00,
2013-01-26 05:51:00,73.0,70.9,29.92,North,-999,0.0,0.0,93,0.04,,,-99.99,0,WeatherLink 5.4,2013-01-26 09:51:00,
2013-01-26 05:52:00,73.0,70.9,29.92,North,-999,0.0,0.0,93,0.04,,,-99.99,0,WeatherLink 5.4,2013-01-26 09:52:00,
2013-01-26 05:53:00,73.0,70.9,29.92,North,-999,0.0,0.0,93,0.04,,,-99.99,0,WeatherLink 5.4,2013-01-26 09:53:00,
2013-01-26 05:54:00,73.0,70.9,29.92,North,-999,0.0,0.0,93,0.04,,,-99.99,0,WeatherLink 5.4,2013-01-26 09:54:00,
2013-01-26 05:55:00,73.0,70.9,29.92,East,90,4.0,6.0,93,0.04,,,-99.99,0,WeatherLink 5.4,2013-01-26 09:55:00,
2013-01-26 05:56:00,73.0,70.9,29.92,East,90,3.0,4.0,93,0.04,,,-99.99,0,WeatherLink 5.4,2013-01-26 09:56:00,
2013-01-26 05:57:00,73.0,70.9,29.92,ESE,112,0.0,1.0,93,0.04,,,-99.99,0,WeatherLink 5.4,2013-01-26 09:57:00,
2013-01-26 05:58:00,73.0,70.9,29.92,North,-999,0.0,0.0,93,0.04,,,-99.99,0,WeatherLink 5.4,2013-01-26 09:58:00,
2013-01-26 05:59:00,73.0,70.9,29.92,ESE,112,0.0,1.0,93,0.04,,,-99.99,0,WeatherLink 5.4,2013-01-26 09:59:00,
2013-01-26 06:00:00,73.0,70.9,29.92,North,-999,0.0,0.0,93,0.04,,,-99.99,0,WeatherLink 5.4,2013-01-26 10:00:00,
2013-01-26 06:01:00,73.0,70.9,29.92,North,-999,0.0,0.0,93,0.04,,,-99.99,0,WeatherLink 5.4,2013-01-26 10:01:00,
2013-01-26 06:02:00,73.0,70.9,29.92,North,-999,0.0,0.0,93,0.04,,,-99.99,0,WeatherLink 5.4,2013-01-26 10:02:00,
2013-01-26 06:03:00,73.0,70.9,29.92,North,-999,0.0,0.0,93,0.04,,,-99.99,0,WeatherLink 5.4,2013-01-26 10:03:00,
2013-01-26 06:04:00,73.0,70.9,29.92,North,-999,0.0,0.0,93,0.04,,,-99.99,0,WeatherLink 5.4,2013-01-26 10:04:00,
2013-01-26 06:05:00,73.0,70.9,29.92,North,-999,0.0,0.0,93,0.04,,,-99.99,0,WeatherLink 5.4,2013-01-26 10:05:00,
2013-01-26 06:06:00,73.1,71.0,29.92,North,-999,0.0,0.0,93,0.04,,,-99.99,0,WeatherLink 5.4,2013-01-26 10:06:00,
2013-01-26 06:07:00,73.2,71.1,29.92,North,-999,0.0,0.0,93,0.04,,,-99.99,0,WeatherLink 5.4,2013-01-26 10:07:00,
2013-01-26 06:08:00,73.2,71.1,29.92,North,-999,0.0,0.0,93,0.03,,,-99.99,0,WeatherLink 5.4,2013-01-26 10:08:00,
2013-01-26 06:09:00,73.2,71.1,29.92,North,-999,0.0,0.0,93,0.03,,,-99.99,0,WeatherLink 5.4,2013-01-26 10:09:00,
2013-01-26 06:10:00,73.2,71.1,29.92,East,90,1.0,5.0,93,0.03,,,-99.99,0,WeatherLink 5.4,2013-01-26 10:10:00,
2013-01-26 06:11:00,73.2,71.1,29.92,East,90,0.0,2.0,93,0.02,,,-99.99,0,WeatherLink 5.4,2013-01-26 10:11:00,
2013-01-26 06:12:00,73.2,71.1,29.92,North,-999,0.0,0.0,93,0.02,,,-99.99,0,WeatherLink 5.4,2013-01-26 10:12:00,
2013-01-26 06:13:00,73.0,70.9,29.92,North,-999,0.0,0.0,93,0.02,,,-99.99,0,WeatherLink 5.4,2013-01-26 10:13:00,
2013-01-26 06:14:00,73.0,70.9,29.92,ESE,112,1.0,4.0,93,0.02,,,-99.99,0,WeatherLink 5.4,2013-01-26 10:14:00,
2013-01-26 06:15:00,73.0,70.9,29.92,SE,135,0.0,1.0,93,0.02,,,-99.99,0,WeatherLink 5.4,2013-01-26 10:15:00,
2013-01-26 06:16:00,73.0,70.9,29.92,North,-999,0.0,0.0,93,0.03,,,-99.99,0,WeatherLink 5.4,2013-01-26 10:16:00,
2013-01-26 06:17:00,73.0,70.9,29.92,East,90,3.0,7.0,93,0.03,,,-99.99,0,WeatherLink 5.4,2013-01-26 10:17:00,
2013-01-26 06:18:00,73.0,70.9,29.92,ESE,112,4.0,7.0,93,0.03,,,-99.99,0,WeatherLink 5.4,2013-01-26 10:18:00,
2013-01-26 06:19:00,73.0,70.9,29.92,SE,135,2.0,4.0,93,0.03,,,-99.99,0,WeatherLink 5.4,2013-01-26 10:19:00,
2013-01-26 06:20:00,73.0,70.9,29.92,East,90,0.0,3.0,93,0.03,,,-99.99,0,WeatherLink 5.4,2013-01-26 10:20:00,
2013-01-26 06:21:00,73.0,70.9,29.92,North,-999,0.0,0.0,93,0.03,,,-99.99,0,WeatherLink 5.4,2013-01-26 10:21:00,
2013-01-26 06:22:00,73.0,70.9,29.92,SE,135,0.0,1.0,93,0.03,,,-99.99,0,WeatherLink 5.4,2013-01-26 10:22:00,
2013-01-26 06:23:00,73.0,70.9,29.92,North,-999,0.0,0.0,93,0.03,,,-99.99,0,WeatherLink 5.4,2013-01-26 10:23:00,
2013-01-26 06:24:00,73.0,70.9,29.92,North,-999,0.0,0.0,93,0.03,,,-99.99,0,WeatherLink 5.4,2013-01-26 10:24:00,
2013-01-26 06:25:00,73.0,70.9,29.92,SE,135,1.0,4.0,93,0.03,,,-99.99,0,WeatherLink 5.4,2013-01-26 10:25:00,
2013-01-26 06:26:00,73.0,70.9,29.92,SE,135,2.0,5.0,93,0.04,,,-99.99,0,WeatherLink 5.4,2013-01-26 10:26:00,
2013-01-26 06:27:00,73.0,70.9,29.92,SE,135,0.0,2.0,93,0.04,,,-99.99,0,WeatherLink 5.4,2013-01-26 10:27:00,
2013-01-26 06:37:00,73.0,70.9,29.92,North,-999,0.0,0.0,93,0.04,,,-99.99,0,WeatherLink 5.4,2013-01-26 10:37:00,
2013-01-26 06:43:00,73.0,70.9,29.92,North,-999,0.0,0.0,93,0.04,,,-99.99,0,WeatherLink 5.4,2013-01-26 10:43:00,
2013-01-26 06:50:00,73.0,70.9,29.92,North,-999,0.0,0.0,93,0.04,,,-99.99,0,WeatherLink 5.4,2013-01-26 10:50:00,
2013-01-26 06:56:00,73.0,70.9,29.92,North,-999,0.0,0.0,93,0.04,,,-99.99,0,WeatherLink 5.4,2013-01-26 10:56:00,
2013-01-26 07:01:00,73.0,70.9,29.92,North,-999,0.0,0.0,93,0.04,,,-99.99,5,WeatherLink 5.4,2013-01-26 11:01:00,
2013-01-26 07:07:00,73.0,70.9,29.92,North,-999,0.0,0.0,93,0.04,,,-99.99,7,WeatherLink 5.4,2013-01-26 11:07:00,
2013-01-26 07:13:00,73.0,70.9,29.92,North,-999,0.0,0.0,93,0.03,,,-99.99,9,WeatherLink 5.4,2013-01-26 11:13:00,
2013-01-26 07:19:00,73.0,70.9,29.93,North,-999,0.0,0.0,93,0.02,,,-99.99,11,WeatherLink 5.4,2013-01-26 11:19:00,
2013-01-26 07:24:00,73.0,70.9,29.93,North,-999,0.0,0.0,93,0.02,,,-99.99,12,WeatherLink 5.4,2013-01-26 11:24:00,
2013-01-26 07:30:00,73.0,71.2,29.93,North,-999,0.0,0.0,94,0.02,,,-99.99,16,WeatherLink 5.4,2013-01-26 11:30:00,
2013-01-26 07:35:00,73.2,71.4,29.94,North,-999,0.0,0.0,94,0.03,,,-99.99,19,WeatherLink 5.4,2013-01-26 11:35:00,
2013-01-26 07:40:00,73.2,71.4,29.94,North,-999,0.0,0.0,94,0.03,,,-99.99,33,WeatherLink 5.4,2013-01-26 11:40:00,
2013-01-26 07:41:00,73.2,71.4,29.94,North,-999,0.0,0.0,94,0.03,,,-99.99,32,WeatherLink 5.4,2013-01-26 11:41:00,
2013-01-26 07:42:00,73.2,71.4,29.94,North,-999,0.0,0.0,94,0.03,,,-99.99,40,WeatherLink 5.4,2013-01-26 11:42:00,
2013-01-26 07:43:00,73.2,71.4,29.94,North,-999,0.0,0.0,94,0.03,,,-99.99,44,WeatherLink 5.4,2013-01-26 11:43:00,
2013-01-26 07:44:00,73.2,71.4,29.94,North,-999,0.0,0.0,94,0.03,,,-99.99,46,WeatherLink 5.4,2013-01-26 11:44:00,
2013-01-26 07:45:00,73.2,71.4,29.94,North,-999,0.0,0.0,94,0.03,,,-99.99,48,WeatherLink 5.4,2013-01-26 11:45:00,
2013-01-26 07:46:00,73.2,71.4,29.94,North,-999,0.0,0.0,94,0.03,,,-99.99,48,WeatherLink 5.4,2013-01-26 11:46:00,
2013-01-26 07:47:00,73.2,71.4,29.94,North,-999,0.0,0.0,94,0.03,,,-99.99,48,WeatherLink 5.4,2013-01-26 11:47:00,
2013-01-26 07:48:00,73.2,71.4,29.94,North,-999,0.0,0.0,94,0.03,,,-99.99,46,WeatherLink 5.4,2013-01-26 11:48:00,
2013-01-26 07:49:00,73.2,71.4,29.94,North,-999,0.0,0.0,94,0.03,,,-99.99,46,WeatherLink 5.4,2013-01-26 11:49:00,
2013-01-26 07:50:00,73.2,71.4,29.94,North,-999,0.0,0.0,94,0.03,,,-99.99,46,WeatherLink 5.4,2013-01-26 11:50:00,
2013-01-26 07:51:00,73.2,71.4,29.94,North,-999,0.0,0.0,94,0.03,,,-99.99,46,WeatherLink 5.4,2013-01-26 11:51:00,
2013-01-26 07:52:00,73.2,71.4,29.94,North,-999,0.0,0.0,94,0.03,,,-99.99,48,WeatherLink 5.4,2013-01-26 11:52:00,
2013-01-26 07:53:00,73.2,71.4,29.94,North,-999,0.0,0.0,94,0.03,,,-99.99,49,WeatherLink 5.4,2013-01-26 11:53:00,
2013-01-26 07:54:00,73.2,71.1,29.94,North,-999,0.0,0.0,93,0.03,,,-99.99,51,WeatherLink 5.4,2013-01-26 11:54:00,
2013-01-26 07:55:00,73.2,71.1,29.94,North,-999,0.0,0.0,93,0.03,,,-99.99,53,WeatherLink 5.4,2013-01-26 11:55:00,
2013-01-26 07:56:00,73.0,70.9,29.94,North,-999,0.0,0.0,93,0.03,,,-99.99,57,WeatherLink 5.4,2013-01-26 11:56:00,
2013-01-26 07:57:00,73.0,70.9,29.94,North,-999,0.0,0.0,93,0.03,,,-99.99,60,WeatherLink 5.4,2013-01-26 11:57:00,
2013-01-26 07:58:00,73.0,70.9,29.94,North,-999,0.0,0.0,93,0.03,,,-99.99,62,WeatherLink 5.4,2013-01-26 11:58:00,
2013-01-26 07:59:00,73.0,70.9,29.94,North,-999,0.0,0.0,93,0.03,,,-99.99,63,WeatherLink 5.4,2013-01-26 11:59:00,
2013-01-26 08:00:00,73.0,70.9,29.94,North,-999,0.0,0.0,93,0.03,,,-99.99,67,WeatherLink 5.4,2013-01-26 12:00:00,
2013-01-26 08:01:00,73.0,70.9,29.94,North,-999,0.0,0.0,93,0.03,,,-99.99,69,WeatherLink 5.4,2013-01-26 12:01:00,
2013-01-26 08:02:00,73.0,70.9,29.94,North,-999,0.0,0.0,93,0.03,,,-99.99,69,WeatherLink 5.4,2013-01-26 12:02:00,
2013-01-26 08:03:00,73.0,70.9,29.94,North,-999,0.0,0.0,93,0.03,,,-99.99,70,WeatherLink 5.4,2013-01-26 12:03:00,
2013-01-26 08:04:00,72.9,70.8,29.94,North,-999,0.0,0.0,93,0.03,,,-99.99,72,WeatherLink 5.4,2013-01-26 12:04:00,
2013-01-26 08:05:00,72.8,70.7,29.94,North,-999,0.0,0.0,93,0.03,,,-99.99,74,WeatherLink 5.4,2013-01-26 12:05:00,
2013-01-26 08:06:00,72.8,70.7,29.94,North,-999,0.0,0.0,93,0.03,,,-99.99,79,WeatherLink 5.4,2013-01-26 12:06:00,
2013-01-26 08:07:00,72.8,70.7,29.94,North,-999,0.0,0.0,93,0.03,,,-99.99,88,WeatherLink 5.4,2013-01-26 12:07:00,
2013-01-26 08:08:00,72.8,70.7,29.94,North,-999,0.0,0.0,93,0.03,,,-99.99,97,WeatherLink 5.4,2013-01-26 12:08:00,
2013-01-26 08:09:00,72.8,70.7,29.94,North,-999,0.0,0.0,93,0.04,,,-99.99,106,WeatherLink 5.4,2013-01-26 12:09:00,
2013-01-26 08:10:00,72.8,70.7,29.94,North,-999,0.0,0.0,93,0.04,,,-99.99,118,WeatherLink 5.4,2013-01-26 12:10:00,
2013-01-26 08:11:00,72.8,70.7,29.94,North,-999,0.0,0.0,93,0.04,,,-99.99,147,WeatherLink 5.4,2013-01-26 12:11:00,
2013-01-26 08:12:00,72.8,70.7,29.94,North,-999,0.0,0.0,93,0.04,,,-99.99,190,WeatherLink 5.4,2013-01-26 12:12:00,
2013-01-26 08:13:00,72.8,70.7,29.94,North,-999,0.0,0.0,93,0.04,,,-99.99,181,WeatherLink 5.4,2013-01-26 12:13:00,
2013-01-26 08:14:00,72.8,71.0,29.94,North,-999,0.0,0.0,94,0.04,,,-99.99,183,WeatherLink 5.4,2013-01-26 12:14:00,
2013-01-26 08:15:00,72.8,70.7,29.95,North,-999,0.0,0.0,93,0.04,,,-99.99,206,WeatherLink 5.4,2013-01-26 12:15:00,
2013-01-26 08:16:00,72.8,71.0,29.95,North,-999,0.0,0.0,94,0.04,,,-99.99,211,WeatherLink 5.4,2013-01-26 12:16:00,
2013-01-26 08:17:00,72.8,71.0,29.95,North,-999,0.0,0.0,94,0.04,,,-99.99,204,WeatherLink 5.4,2013-01-26 12:17:00,
2013-01-26 08:18:00,72.8,71.0,29.95,North,-999,0.0,0.0,94,0.04,,,-99.99,204,WeatherLink 5.4,2013-01-26 12:18:00,
2013-01-26 08:19:00,73.0,71.2,29.95,North,-999,0.0,0.0,94,0.04,,,-99.99,262,WeatherLink 5.4,2013-01-26 12:19:00,
2013-01-26 08:20:00,73.0,71.2,29.95,North,-999,0.0,0.0,94,0.04,,,-99.99,252,WeatherLink 5.4,2013-01-26 12:20:00,
2013-01-26 08:21:00,73.0,71.2,29.95,North,-999,0.0,0.0,94,0.04,,,-99.99,280,WeatherLink 5.4,2013-01-26 12:21:00,
2013-01-26 08:22:00,73.1,71.3,29.95,North,-999,0.0,0.0,94,0.04,,,-99.99,329,WeatherLink 5.4,2013-01-26 12:22:00,
2013-01-26 08:23:00,73.2,71.4,29.95,North,-999,0.0,0.0,94,0.04,,,-99.99,290,WeatherLink 5.4,2013-01-26 12:23:00,
2013-01-26 08:24:00,73.2,71.4,29.95,North,-999,0.0,0.0,94,0.04,,,-99.99,290,WeatherLink 5.4,2013-01-26 12:24:00,
2013-01-26 08:25:00,73.2,71.1,29.95,North,-999,0.0,0.0,93,0.04,,,-99.99,187,WeatherLink 5.4,2013-01-26 12:25:00,
2013-01-26 08:26:00,73.0,70.9,29.95,ESE,112,0.0,1.0,93,0.04,,,-99.99,190,WeatherLink 5.4,2013-01-26 12:26:00,
2013-01-26 08:27:00,73.0,70.9,29.95,North,-999,0.0,0.0,93,0.03,,,-99.99,192,WeatherLink 5.4,2013-01-26 12:27:00,
2013-01-26 08:28:00,73.0,70.9,29.95,North,-999,0.0,0.0,93,0.03,,,-99.99,187,WeatherLink 5.4,2013-01-26 12:28:00,
2013-01-26 08:29:00,73.0,70.9,29.95,North,-999,0.0,0.0,93,0.03,,,-99.99,183,WeatherLink 5.4,2013-01-26 12:29:00,
2013-01-26 08:30:00,73.2,71.1,29.95,North,-999,0.0,0.0,93,0.03,,,-99.99,171,WeatherLink 5.4,2013-01-26 12:30:00,
2013-01-26 08:31:00,73.1,71.0,29.95,North,-999,0.0,0.0,93,0.03,,,-99.99,152,WeatherLink 5.4,2013-01-26 12:31:00,
2013-01-26 08:32:00,73.0,70.9,29.95,North,-999,0.0,0.0,93,0.02,,,-99.99,151,WeatherLink 5.4,2013-01-26 12:32:00,
2013-01-26 08:33:00,73.0,70.9,29.95,North,-999,0.0,0.0,93,0.02,,,-99.99,162,WeatherLink 5.4,2013-01-26 12:33:00,
2013-01-26 08:34:00,73.0,70.9,29.95,North,-999,0.0,0.0,93,0.02,,,-99.99,158,WeatherLink 5.4,2013-01-26 12:34:00,
2013-01-26 08:35:00,73.0,70.9,29.95,North,-999,0.0,0.0,93,0.02,,,-99.99,137,WeatherLink 5.4,2013-01-26 12:35:00,
2013-01-26 08:36:00,73.0,70.9,29.95,North,-999,0.0,0.0,93,0.02,,,-99.99,117,WeatherLink 5.4,2013-01-26 12:36:00,
2013-01-26 08:37:00,73.0,70.9,29.95,North,-999,0.0,0.0,93,0.02,,,-99.99,107,WeatherLink 5.4,2013-01-26 12:37:00,
2013-01-26 08:38:00,73.0,70.9,29.95,North,-999,0.0,0.0,93,0.01,,,-99.99,111,WeatherLink 5.4,2013-01-26 12:38:00,
2013-01-26 08:39:00,73.0,70.9,29.95,North,-999,0.0,0.0,93,0.01,,,-99.99,120,WeatherLink 5.4,2013-01-26 12:39:00,
2013-01-26 08:40:00,73.0,70.9,29.95,North,-999,0.0,0.0,93,0.01,,,-99.99,121,WeatherLink 5.4,2013-01-26 12:40:00,
2013-01-26 08:41:00,73.0,70.9,29.95,North,-999,0.0,0.0,93,0.01,,,-99.99,123,WeatherLink 5.4,2013-01-26 12:41:00,
2013-01-26 08:42:00,73.0,70.9,29.95,North,-999,0.0,0.0,93,0.01,,,-99.99,116,WeatherLink 5.4,2013-01-26 12:42:00,
2013-01-26 08:43:00,73.0,70.9,29.95,North,-999,0.0,0.0,93,0.01,,,-99.99,121,WeatherLink 5.4,2013-01-26 12:43:00,
2013-01-26 08:44:00,73.0,70.9,29.95,North,-999,0.0,0.0,93,0.01,,,-99.99,125,WeatherLink 5.4,2013-01-26 12:44:00,
2013-01-26 08:45:00,73.0,70.9,29.96,North,-999,0.0,0.0,93,0.01,,,-99.99,127,WeatherLink 5.4,2013-01-26 12:45:00,
2013-01-26 08:46:00,73.0,70.9,29.96,North,-999,0.0,0.0,93,0.01,,,-99.99,130,WeatherLink 5.4,2013-01-26 12:46:00,
2013-01-26 08:47:00,73.0,70.9,29.96,North,-999,0.0,0.0,93,0.01,,,-99.99,121,WeatherLink 5.4,2013-01-26 12:47:00,
2013-01-26 08:48:00,73.0,70.9,29.96,North,-999,0.0,0.0,93,0.01,,,-99.99,113,WeatherLink 5.4,2013-01-26 12:48:00,
2013-01-26 08:49:00,73.2,71.1,29.96,North,-999,0.0,0.0,93,0.01,,,-99.99,109,WeatherLink 5.4,2013-01-26 12:49:00,
2013-01-26 08:50:00,73.2,71.1,29.96,North,-999,0.0,0.0,93,0.01,,,-99.99,114,WeatherLink 5.4,2013-01-26 12:50:00,
2013-01-26 08:51:00,73.2,71.1,29.96,North,-999,0.0,0.0,93,0.01,,,-99.99,122,WeatherLink 5.4,2013-01-26 12:51:00,
2013-01-26 08:52:00,73.2,71.1,29.96,North,-999,0.0,0.0,93,0.01,,,-99.99,128,WeatherLink 5.4,2013-01-26 12:52:00,
2013-01-26 08:53:00,73.2,71.1,29.96,North,-999,0.0,0.0,93,0.01,,,-99.99,130,WeatherLink 5.4,2013-01-26 12:53:00,
2013-01-26 08:54:00,73.2,71.1,29.96,North,-999,0.0,0.0,93,0.01,,,-99.99,132,WeatherLink 5.4,2013-01-26 12:54:00,
2013-01-26 08:55:00,73.2,71.1,29.96,North,-999,0.0,0.0,93,0.01,,,-99.99,148,WeatherLink 5.4,2013-01-26 12:55:00,
2013-01-26 08:56:00,73.2,71.1,29.96,North,-999,0.0,0.0,93,0.01,,,-99.99,170,WeatherLink 5.4,2013-01-26 12:56:00,
2013-01-26 08:57:00,73.3,71.2,29.96,North,-999,0.0,0.0,93,0.01,,,-99.99,181,WeatherLink 5.4,2013-01-26 12:57:00,
2013-01-26 08:58:00,73.3,71.2,29.96,North,-999,0.0,0.0,93,0.01,,,-99.99,283,WeatherLink 5.4,2013-01-26 12:58:00,
2013-01-26 08:59:00,73.3,71.2,29.96,North,-999,0.0,0.0,93,0.01,,,-99.99,283,WeatherLink 5.4,2013-01-26 12:59:00,
2013-01-26 09:00:00,73.5,71.4,29.97,North,-999,0.0,0.0,93,0.01,,,-99.99,178,WeatherLink 5.4,2013-01-26 13:00:00,
2013-01-26 09:01:00,73.5,71.4,29.97,North,-999,0.0,0.0,93,0.01,,,-99.99,126,WeatherLink 5.4,2013-01-26 13:01:00,
2013-01-26 09:02:00,73.5,71.4,29.97,North,-999,0.0,0.0,93,0.01,,,-99.99,114,WeatherLink 5.4,2013-01-26 13:02:00,
2013-01-26 09:03:00,73.5,71.4,29.97,North,-999,0.0,0.0,93,0.01,,,-99.99,121,WeatherLink 5.4,2013-01-26 13:03:00,
2013-01-26 09:04:00,73.5,71.4,29.97,North,-999,0.0,0.0,93,0.01,,,-99.99,125,WeatherLink 5.4,2013-01-26 13:04:00,
2013-01-26 09:05:00,73.5,71.4,29.97,North,-999,0.0,0.0,93,0.01,,,-99.99,127,WeatherLink 5.4,2013-01-26 13:05:00,
2013-01-26 09:06:00,73.5,71.4,29.97,North,-999,0.0,0.0,93,0.01,,,-99.99,125,WeatherLink 5.4,2013-01-26 13:06:00,
2013-01-26 09:07:00,73.5,71.4,29.97,North,-999,0.0,0.0,93,0.01,,,-99.99,125,WeatherLink 5.4,2013-01-26 13:07:00,
2013-01-26 09:08:00,73.5,71.4,29.97,North,-999,0.0,0.0,93,0.01,,,-99.99,125,WeatherLink 5.4,2013-01-26 13:08:00,
2013-01-26 09:09:00,73.5,71.4,29.97,North,-999,0.0,0.0,93,0.00,,,-99.99,121,WeatherLink 5.4,2013-01-26 13:09:00,
2013-01-26 09:10:00,73.5,71.4,29.97,North,-999,0.0,0.0,93,0.00,,,-99.99,120,WeatherLink 5.4,2013-01-26 13:10:00,
2013-01-26 09:11:00,73.5,71.4,29.97,North,-999,0.0,0.0,93,0.00,,,-99.99,142,WeatherLink 5.4,2013-01-26 13:11:00,
2013-01-26 09:12:00,73.5,71.4,29.97,North,-999,0.0,0.0,93,0.00,,,-99.99,171,WeatherLink 5.4,2013-01-26 13:12:00,
2013-01-26 09:13:00,73.5,71.4,29.97,North,-999,0.0,0.0,93,0.00,,,-99.99,192,WeatherLink 5.4,2013-01-26 13:13:00,
2013-01-26 09:14:00,73.5,71.4,29.97,North,-999,0.0,0.0,93,0.00,,,-99.99,234,WeatherLink 5.4,2013-01-26 13:14:00,
2013-01-26 09:15:00,73.5,71.4,29.98,North,-999,0.0,0.0,93,0.00,,,-99.99,234,WeatherLink 5.4,2013-01-26 13:15:00,
2013-01-26 09:16:00,73.6,71.4,29.98,North,-999,0.0,0.0,93,0.00,,,-99.99,332,WeatherLink 5.4,2013-01-26 13:16:00,
2013-01-26 09:17:00,73.7,71.5,29.98,North,-999,0.0,0.0,93,0.00,,,-99.99,378,WeatherLink 5.4,2013-01-26 13:17:00,
2013-01-26 09:18:00,73.7,71.5,29.98,North,-999,0.0,0.0,93,0.00,,,-99.99,399,WeatherLink 5.4,2013-01-26 13:18:00,
2013-01-26 09:19:00,73.8,71.6,29.98,North,-999,0.0,0.0,93,0.00,,,-99.99,401,WeatherLink 5.4,2013-01-26 13:19:00,
2013-01-26 09:20:00,73.9,71.7,29.98,North,-999,0.0,0.0,93,0.00,,,-99.99,377,WeatherLink 5.4,2013-01-26 13:20:00,
2013-01-26 09:21:00,73.9,71.7,29.98,North,-999,0.0,0.0,93,0.00,,,-99.99,331,WeatherLink 5.4,2013-01-26 13:21:00,
2013-01-26 09:22:00,73.9,71.7,29.98,North,-999,0.0,0.0,93,0.00,,,-99.99,292,WeatherLink 5.4,2013-01-26 13:22:00,
2013-01-26 09:23:00,73.9,71.7,29.98,North,-999,0.0,0.0,93,0.00,,,-99.99,289,WeatherLink 5.4,2013-01-26 13:23:00,
2013-01-26 09:24:00,73.9,71.7,29.98,North,-999,0.0,0.0,93,0.00,,,-99.99,292,WeatherLink 5.4,2013-01-26 13:24:00,
2013-01-26 09:25:00,73.9,71.7,29.98,North,-999,0.0,0.0,93,0.00,,,-99.99,296,WeatherLink 5.4,2013-01-26 13:25:00,
2013-01-26 09:26:00,73.9,71.7,29.98,North,-999,0.0,0.0,93,0.00,,,-99.99,314,WeatherLink 5.4,2013-01-26 13:26:00,
2013-01-26 09:27:00,74.0,71.8,29.98,North,-999,0.0,0.0,93,0.00,,,-99.99,326,WeatherLink 5.4,2013-01-26 13:27:00,
2013-01-26 09:28:00,74.0,71.8,29.98,North,-999,0.0,0.0,93,0.00,,,-99.99,582,WeatherLink 5.4,2013-01-26 13:28:00,
2013-01-26 09:29:00,74.0,71.8,29.98,North,-999,0.0,0.0,93,0.00,,,-99.99,582,WeatherLink 5.4,2013-01-26 13:29:00,
2013-01-26 09:30:00,74.1,71.9,29.97,North,-999,0.0,0.0,93,0.00,,,-99.99,442,WeatherLink 5.4,2013-01-26 13:30:00,
2013-01-26 09:31:00,74.2,72.0,29.97,North,-999,0.0,0.0,93,0.00,,,-99.99,366,WeatherLink 5.4,2013-01-26 13:31:00,
2013-01-26 09:32:00,74.2,71.7,29.97,North,-999,0.0,0.0,92,0.00,,,-99.99,366,WeatherLink 5.4,2013-01-26 13:32:00,
2013-01-26 09:33:00,74.4,72.2,29.97,North,-999,0.0,0.0,93,0.00,,,-99.99,366,WeatherLink 5.4,2013-01-26 13:33:00,
2013-01-26 09:34:00,74.6,72.4,29.97,North,-999,0.0,0.0,93,0.00,,,-99.99,366,WeatherLink 5.4,2013-01-26 13:34:00,
2013-01-26 09:35:00,74.6,72.1,29.97,North,-999,0.0,0.0,92,0.00,,,-99.99,744,WeatherLink 5.4,2013-01-26 13:35:00,
2013-01-26 09:36:00,74.6,72.1,29.97,North,-999,0.0,0.0,92,0.00,,,-99.99,707,WeatherLink 5.4,2013-01-26 13:36:00,
2013-01-26 09:37:00,74.7,72.2,29.97,North,-999,0.0,0.0,92,0.00,,,-99.99,709,WeatherLink 5.4,2013-01-26 13:37:00,
2013-01-26 09:38:00,75.0,72.5,29.97,North,-999,0.0,0.0,92,0.00,,,-99.99,709,WeatherLink 5.4,2013-01-26 13:38:00,
2013-01-26 09:39:00,75.1,72.6,29.97,North,-999,0.0,0.0,92,0.00,,,-99.99,709,WeatherLink 5.4,2013-01-26 13:39:00,
2013-01-26 09:40:00,75.1,72.6,29.97,North,-999,0.0,0.0,92,0.00,,,-99.99,709,WeatherLink 5.4,2013-01-26 13:40:00,
2013-01-26 09:41:00,75.1,72.6,29.97,North,-999,0.0,0.0,92,0.00,,,-99.99,597,WeatherLink 5.4,2013-01-26 13:41:00,
2013-01-26 09:42:00,75.3,72.8,29.97,North,-999,0.0,0.0,92,0.00,,,-99.99,604,WeatherLink 5.4,2013-01-26 13:42:00,
2013-01-26 09:43:00,75.3,72.8,29.97,North,-999,0.0,0.0,92,0.00,,,-99.99,604,WeatherLink 5.4,2013-01-26 13:43:00,
2013-01-26 09:44:00,75.4,72.6,29.97,North,-999,0.0,0.0,91,0.00,,,-99.99,604,WeatherLink 5.4,2013-01-26 13:44:00,
2013-01-26 09:45:00,75.4,72.6,29.98,North,-999,0.0,0.0,91,0.00,,,-99.99,604,WeatherLink 5.4,2013-01-26 13:45:00,
2013-01-26 09:46:00,75.6,72.5,29.98,North,-999,0.0,0.0,90,0.00,,,-99.99,297,WeatherLink 5.4,2013-01-26 13:46:00,
2013-01-26 09:47:00,75.6,72.5,29.98,ESE,112,3.0,6.0,90,0.00,,,-99.99,297,WeatherLink 5.4,2013-01-26 13:47:00,
2013-01-26 09:48:00,75.6,72.5,29.98,ESE,112,5.0,8.0,90,0.00,,,-99.99,216,WeatherLink 5.4,2013-01-26 13:48:00,
2013-01-26 09:49:00,75.6,72.1,29.98,ESE,112,4.0,8.0,89,0.00,,,-99.99,206,WeatherLink 5.4,2013-01-26 13:49:00,
2013-01-26 09:50:00,75.7,72.2,29.98,ESE,112,3.0,6.0,89,0.00,,,-99.99,206,WeatherLink 5.4,2013-01-26 13:50:00,
2013-01-26 09:51:00,75.8,72.0,29.98,ESE,112,2.0,5.0,88,0.00,,,-99.99,206,WeatherLink 5.4,2013-01-26 13:51:00,
2013-01-26 09:52:00,75.9,72.1,29.98,North,-999,0.0,0.0,88,0.00,,,-99.99,206,WeatherLink 5.4,2013-01-26 13:52:00,
2013-01-26 09:53:00,76.0,72.2,29.98,ESE,112,1.0,7.0,88,0.00,,,-99.99,206,WeatherLink 5.4,2013-01-26 13:53:00,
2013-01-26 09:54:00,76.0,72.2,29.98,SE,135,6.0,8.0,88,0.00,,,-99.99,206,WeatherLink 5.4,2013-01-26 13:54:00,
2013-01-26 09:55:00,76.1,71.9,29.98,SE,135,1.0,3.0,87,0.00,,,-99.99,206,WeatherLink 5.4,2013-01-26 13:55:00,
2013-01-26 09:56:00,76.1,71.6,29.98,SE,135,4.0,7.0,86,0.00,,,-99.99,206,WeatherLink 5.4,2013-01-26 13:56:00,
2013-01-26 09:57:00,76.3,71.8,29.98,SE,135,4.0,7.0,86,0.00,,,-99.99,206,WeatherLink 5.4,2013-01-26 13:57:00,
2013-01-26 09:58:00,76.3,71.5,29.98,SE,135,5.0,6.0,85,0.00,,,-99.99,206,WeatherLink 5.4,2013-01-26 13:58:00,
2013-01-26 09:59:00,76.5,71.7,29.98,ESE,112,2.0,6.0,85,0.00,,,-99.99,206,WeatherLink 5.4,2013-01-26 13:59:00,
2013-01-26 10:00:00,76.6,71.7,29.98,SE,135,4.0,6.0,85,0.00,,,-99.99,255,WeatherLink 5.4,2013-01-26 14:00:00,
2013-01-26 10:01:00,76.7,71.5,29.98,SE,135,5.0,8.0,84,0.00,,,-99.99,263,WeatherLink 5.4,2013-01-26 14:01:00,
2013-01-26 10:02:00,76.7,71.1,29.98,ESE,112,4.0,7.0,83,0.00,,,-99.99,252,WeatherLink 5.4,2013-01-26 14:02:00,
2013-01-26 10:03:00,76.8,71.2,29.98,ESE,112,0.0,2.0,83,0.00,,,-99.99,267,WeatherLink 5.4,2013-01-26 14:03:00,
2013-01-26 10:04:00,76.9,71.3,29.98,North,-999,0.0,0.0,83,0.00,,,-99.99,276,WeatherLink 5.4,2013-01-26 14:04:00,
2013-01-26 10:05:00,77.0,71.4,29.98,North,-999,0.0,0.0,83,0.00,,,-99.99,289,WeatherLink 5.4,2013-01-26 14:05:00,
2013-01-26 10:06:00,77.1,71.5,29.98,ESE,112,0.0,1.0,83,0.00,,,-99.99,283,WeatherLink 5.4,2013-01-26 14:06:00,
2013-01-26 10:07:00,77.2,71.3,29.98,North,-999,0.0,0.0,82,0.00,,,-99.99,294,WeatherLink 5.4,2013-01-26 14:07:00,
2013-01-26 10:08:00,77.2,71.3,29.98,SSE,157,3.0,6.0,82,0.00,,,-99.99,310,WeatherLink 5.4,2013-01-26 14:08:00,
2013-01-26 10:09:00,77.2,71.3,29.98,North,-999,0.0,0.0,82,0.00,,,-99.99,324,WeatherLink 5.4,2013-01-26 14:09:00,
2013-01-26 10:10:00,77.4,71.1,29.98,SSE,157,0.0,3.0,81,0.00,,,-99.99,324,WeatherLink 5.4,2013-01-26 14:10:00,
2013-01-26 10:11:00,77.4,71.1,29.98,ESE,112,1.0,6.0,81,0.00,,,-99.99,324,WeatherLink 5.4,2013-01-26 14:11:00,
2013-01-26 10:12:00,77.4,70.7,29.98,East,90,3.0,10.0,80,0.00,,,-99.99,324,WeatherLink 5.4,2013-01-26 14:12:00,
2013-01-26 10:13:00,77.6,70.9,29.98,ESE,112,5.0,10.0,80,0.00,,,-99.99,324,WeatherLink 5.4,2013-01-26 14:13:00,
2013-01-26 10:14:00,77.6,70.9,29.98,SE,135,4.0,10.0,80,0.00,,,-99.99,324,WeatherLink 5.4,2013-01-26 14:14:00,
2013-01-26 10:15:00,77.7,70.7,29.99,SSE,157,5.0,9.0,79,0.00,,,-99.99,324,WeatherLink 5.4,2013-01-26 14:15:00,
2013-01-26 10:16:00,77.7,70.7,29.99,SE,135,1.0,6.0,79,0.00,,,-99.99,324,WeatherLink 5.4,2013-01-26 14:16:00,
2013-01-26 10:17:00,77.9,70.9,29.99,SE,135,2.0,8.0,79,0.00,,,-99.99,324,WeatherLink 5.4,2013-01-26 14:17:00,
2013-01-26 10:18:00,78.0,70.6,29.99,SE,135,0.0,3.0,78,0.00,,,-99.99,230,WeatherLink 5.4,2013-01-26 14:18:00,
2013-01-26 10:19:00,78.1,70.7,29.99,SE,135,2.0,6.0,78,0.00,,,-99.99,230,WeatherLink 5.4,2013-01-26 14:19:00,
2013-01-26 10:20:00,78.3,70.9,29.99,ESE,112,5.0,8.0,78,0.00,,,-99.99,764,WeatherLink 5.4,2013-01-26 14:20:00,
2013-01-26 10:21:00,78.4,71.0,29.99,ESE,112,5.0,8.0,78,0.00,,,-99.99,723,WeatherLink 5.4,2013-01-26 14:21:00,
2013-01-26 10:22:00,78.5,71.1,29.99,SE,135,2.0,4.0,78,0.00,,,-99.99,704,WeatherLink 5.4,2013-01-26 14:22:00,
2013-01-26 10:23:00,78.6,71.2,29.99,SE,135,0.0,2.0,78,0.00,,,-99.99,691,WeatherLink 5.4,2013-01-26 14:23:00,
2013-01-26 10:24:00,78.7,70.9,29.99,North,-999,0.0,0.0,77,0.00,,,-99.99,684,WeatherLink 5.4,2013-01-26 14:24:00,
2013-01-26 10:25:00,78.9,71.1,29.99,North,-999,0.0,0.0,77,0.00,,,-99.99,697,WeatherLink 5.4,2013-01-26 14:25:00,
2013-01-26 10:26:00,79.0,70.8,29.99,SE,135,6.0,12.0,76,0.00,,,-99.99,157,WeatherLink 5.4,2013-01-26 14:26:00,
2013-01-26 10:28:00,79.0,70.4,29.99,SE,135,5.0,8.0,75,0.00,,,-99.99,157,WeatherLink 5.4,2013-01-26 14:28:00,
2013-01-26 10:29:00,79.2,70.6,29.99,SSE,157,5.0,8.0,75,0.00,,,-99.99,758,WeatherLink 5.4,2013-01-26 14:29:00,
2013-01-26 10:30:00,79.2,71.0,29.99,SE,135,1.0,3.0,76,0.00,,,-99.99,720,WeatherLink 5.4,2013-01-26 14:30:00,
2013-01-26 10:31:00,79.3,71.1,29.99,North,-999,0.0,0.0,76,0.00,,,-99.99,720,WeatherLink 5.4,2013-01-26 14:31:00,
2013-01-26 10:32:00,79.4,71.2,29.99,SSE,157,3.0,12.0,76,0.00,,,-99.99,723,WeatherLink 5.4,2013-01-26 14:32:00,
2013-01-26 10:33:00,79.4,70.8,29.99,SSE,157,5.0,12.0,75,0.00,,,-99.99,695,WeatherLink 5.4,2013-01-26 14:33:00,
2013-01-26 10:34:00,79.6,70.6,29.99,SE,135,3.0,10.0,74,0.00,,,-99.99,683,WeatherLink 5.4,2013-01-26 14:34:00,
2013-01-26 10:35:00,79.6,71.0,29.99,SSE,157,0.0,1.0,75,0.00,,,-99.99,679,WeatherLink 5.4,2013-01-26 14:35:00,
2013-01-26 10:36:00,79.8,70.8,29.99,SE,135,3.0,8.0,74,0.00,,,-99.99,689,WeatherLink 5.4,2013-01-26 14:36:00,
2013-01-26 10:37:00,79.8,70.0,29.99,SE,135,4.0,8.0,72,0.00,,,-99.99,693,WeatherLink 5.4,2013-01-26 14:37:00,
2013-01-26 10:38:00,79.8,70.4,29.99,SSE,157,0.0,1.0,73,0.00,,,-99.99,706,WeatherLink 5.4,2013-01-26 14:38:00,
2013-01-26 10:39:00,79.9,70.5,29.99,SSE,157,0.0,2.0,73,0.00,,,-99.99,709,WeatherLink 5.4,2013-01-26 14:39:00,
2013-01-26 10:40:00,80.0,70.6,29.99,SSE,157,0.0,1.0,73,0.00,,,-99.99,699,WeatherLink 5.4,2013-01-26 14:40:00,
2013-01-26 10:41:00,80.1,70.3,29.99,SSE,157,6.0,10.0,72,0.00,,,-99.99,696,WeatherLink 5.4,2013-01-26 14:41:00,
2013-01-26 10:42:00,80.1,70.3,29.99,SSE,157,2.0,8.0,72,0.00,,,-99.99,700,WeatherLink 5.4,2013-01-26 14:42:00,
2013-01-26 10:43:00,80.3,70.4,29.99,ESE,112,5.0,12.0,72,0.00,,,-99.99,706,WeatherLink 5.4,2013-01-26 14:43:00,
2013-01-26 10:44:00,80.3,70.4,29.99,ESE,112,3.0,7.0,72,0.00,,,-99.99,716,WeatherLink 5.4,2013-01-26 14:44:00,
2013-01-26 10:45:00,80.4,70.5,29.98,SSE,157,5.0,12.0,72,0.00,,,-99.99,730,WeatherLink 5.4,2013-01-26 14:45:00,
2013-01-26 10:46:00,80.5,70.2,29.98,SE,135,6.0,8.0,71,0.00,,,-99.99,722,WeatherLink 5.4,2013-01-26 14:46:00,
2013-01-26 10:47:00,80.5,70.6,29.98,SE,135,5.0,7.0,72,0.00,,,-99.99,711,WeatherLink 5.4,2013-01-26 14:47:00,
2013-01-26 10:48:00,80.5,70.2,29.98,ESE,112,3.0,7.0,71,0.00,,,-99.99,713,WeatherLink 5.4,2013-01-26 14:48:00,
2013-01-26 10:49:00,80.6,70.3,29.98,ESE,112,5.0,10.0,71,0.00,,,-99.99,716,WeatherLink 5.4,2013-01-26 14:49:00,
2013-01-26 10:50:00,80.7,70.4,29.98,ESE,112,4.0,8.0,71,0.00,,,-99.99,728,WeatherLink 5.4,2013-01-26 14:50:00,
2013-01-26 10:51:00,80.7,70.0,29.98,ESE,112,2.0,5.0,70,0.00,,,-99.99,731,WeatherLink 5.4,2013-01-26 14:51:00,
2013-01-26 10:52:00,80.7,70.0,29.98,ESE,112,2.0,9.0,70,0.00,,,-99.99,730,WeatherLink 5.4,2013-01-26 14:52:00,
2013-01-26 10:53:00,80.7,70.4,29.98,ESE,112,3.0,6.0,71,0.00,,,-99.99,730,WeatherLink 5.4,2013-01-26 14:53:00,
2013-01-26 10:54:00,80.9,70.2,29.98,ESE,112,0.0,1.0,70,0.00,,,-99.99,681,WeatherLink 5.4,2013-01-26 14:54:00,
2013-01-26 10:55:00,80.9,70.2,29.98,ESE,112,1.0,8.0,70,0.00,,,-99.99,681,WeatherLink 5.4,2013-01-26 14:55:00,
2013-01-26 10:56:00,80.9,70.2,29.98,SE,135,1.0,7.0,70,0.00,,,-99.99,384,WeatherLink 5.4,2013-01-26 14:56:00,
2013-01-26 10:57:00,80.9,69.8,29.98,North,-999,0.0,0.0,69,0.00,,,-99.99,823,WeatherLink 5.4,2013-01-26 14:57:00,
2013-01-26 10:58:00,80.9,69.8,29.98,SSE,157,1.0,7.0,69,0.00,,,-99.99,809,WeatherLink 5.4,2013-01-26 14:58:00,
2013-01-26 10:59:00,81.1,70.0,29.98,ESE,112,5.0,8.0,69,0.00,,,-99.99,779,WeatherLink 5.4,2013-01-26 14:59:00,
2013-01-26 11:00:00,81.1,69.5,29.98,ESE,112,6.0,7.0,68,0.00,,,-99.99,794,WeatherLink 5.4,2013-01-26 15:00:00,
2013-01-26 11:01:00,81.1,69.5,29.98,SE,135,2.0,7.0,68,0.00,,,-99.99,829,WeatherLink 5.4,2013-01-26 15:01:00,
2013-01-26 11:02:00,81.1,70.0,29.98,SE,135,4.0,10.0,69,0.00,,,-99.99,855,WeatherLink 5.4,2013-01-26 15:02:00,
2013-01-26 11:03:00,81.2,69.6,29.98,ESE,112,7.0,11.0,68,0.00,,,-99.99,897,WeatherLink 5.4,2013-01-26 15:03:00,
2013-01-26 11:04:00,81.2,69.6,29.98,SE,135,4.0,6.0,68,0.00,,,-99.99,897,WeatherLink 5.4,2013-01-26 15:04:00,
2013-01-26 11:05:00,81.2,69.6,29.98,ESE,112,3.0,8.0,68,0.00,,,-99.99,897,WeatherLink 5.4,2013-01-26 15:05:00,
2013-01-26 11:06:00,81.2,69.6,29.98,SSW,202,4.0,11.0,68,0.00,,,-99.99,375,WeatherLink 5.4,2013-01-26 15:06:00,
2013-01-26 11:07:00,81.2,69.6,29.98,SE,135,2.0,6.0,68,0.00,,,-99.99,375,WeatherLink 5.4,2013-01-26 15:07:00,
2013-01-26 11:08:00,81.2,70.1,29.98,ESE,112,4.0,8.0,69,0.00,,,-99.99,375,WeatherLink 5.4,2013-01-26 15:08:00,
2013-01-26 11:09:00,81.2,69.6,29.98,ESE,112,4.0,12.0,68,0.00,,,-99.99,296,WeatherLink 5.4,2013-01-26 15:09:00,
2013-01-26 11:10:00,81.2,69.6,29.98,ESE,112,4.0,6.0,68,0.00,,,-99.99,296,WeatherLink 5.4,2013-01-26 15:10:00,
2013-01-26 11:11:00,81.1,69.5,29.98,North,-999,0.0,0.0,68,0.00,,,-99.99,296,WeatherLink 5.4,2013-01-26 15:11:00,
2013-01-26 11:12:00,81.1,70.0,29.98,North,-999,0.0,0.0,69,0.00,,,-99.99,296,WeatherLink 5.4,2013-01-26 15:12:00,
2013-01-26 11:13:00,81.1,69.5,29.98,SE,135,0.0,1.0,68,0.00,,,-99.99,296,WeatherLink 5.4,2013-01-26 15:13:00,
2013-01-26 11:14:00,81.1,70.0,29.98,North,-999,0.0,0.0,69,0.00,,,-99.99,296,WeatherLink 5.4,2013-01-26 15:14:00,
2013-01-26 11:15:00,81.1,70.0,29.97,SE,135,2.0,7.0,69,0.00,,,-99.99,296,WeatherLink 5.4,2013-01-26 15:15:00,
2013-01-26 11:16:00,81.1,69.5,29.97,North,-999,0.0,0.0,68,0.00,,,-99.99,296,WeatherLink 5.4,2013-01-26 15:16:00,
2013-01-26 11:17:00,81.1,70.0,29.97,North,-999,0.0,0.0,69,0.00,,,-99.99,308,WeatherLink 5.4,2013-01-26 15:17:00,
2013-01-26 11:18:00,81.1,70.0,29.97,North,-999,0.0,0.0,69,0.00,,,-99.99,287,WeatherLink 5.4,2013-01-26 15:18:00,
2013-01-26 11:19:00,81.1,70.0,29.97,SE,135,3.0,7.0,69,0.00,,,-99.99,289,WeatherLink 5.4,2013-01-26 15:19:00,
2013-01-26 11:20:00,81.1,70.0,29.97,SSE,157,3.0,8.0,69,0.00,,,-99.99,278,WeatherLink 5.4,2013-01-26 15:20:00,
2013-01-26 11:21:00,81.1,70.0,29.97,SE,135,3.0,7.0,69,0.00,,,-99.99,277,WeatherLink 5.4,2013-01-26 15:21:00,
2013-01-26 11:22:00,81.1,70.0,29.97,ESE,112,1.0,3.0,69,0.00,,,-99.99,289,WeatherLink 5.4,2013-01-26 15:22:00,
2013-01-26 11:23:00,81.1,70.0,29.97,North,-999,0.0,0.0,69,0.00,,,-99.99,289,WeatherLink 5.4,2013-01-26 15:23:00,
2013-01-26 11:24:00,81.1,70.4,29.97,North,-999,0.0,0.0,70,0.00,,,-99.99,362,WeatherLink 5.4,2013-01-26 15:24:00,
2013-01-26 11:25:00,81.1,70.0,29.97,SE,135,0.0,1.0,69,0.00,,,-99.99,357,WeatherLink 5.4,2013-01-26 15:25:00,
2013-01-26 11:26:00,81.1,70.0,29.97,North,-999,0.0,0.0,69,0.00,,,-99.99,357,WeatherLink 5.4,2013-01-26 15:26:00,
2013-01-26 11:27:00,81.1,70.0,29.97,ESE,112,1.0,7.0,69,0.00,,,-99.99,494,WeatherLink 5.4,2013-01-26 15:27:00,
2013-01-26 11:28:00,81.1,70.0,29.97,ESE,112,2.0,7.0,69,0.00,,,-99.99,494,WeatherLink 5.4,2013-01-26 15:28:00,
2013-01-26 11:29:00,81.1,70.0,29.97,SE,135,2.0,6.0,69,0.00,,,-99.99,494,WeatherLink 5.4,2013-01-26 15:29:00,
2013-01-26 11:30:00,81.1,69.5,29.97,SE,135,4.0,10.0,68,0.00,,,-99.99,494,WeatherLink 5.4,2013-01-26 15:30:00,
2013-01-26 11:31:00,81.1,69.5,29.97,ESE,112,8.0,10.0,68,0.00,,,-99.99,225,WeatherLink 5.4,2013-01-26 15:31:00,
2013-01-26 11:32:00,81.1,69.5,29.97,ESE,112,5.0,9.0,68,0.00,,,-99.99,238,WeatherLink 5.4,2013-01-26 15:32:00,
2013-01-26 11:33:00,81.1,69.5,29.97,SE,135,3.0,8.0,68,0.00,,,-99.99,230,WeatherLink 5.4,2013-01-26 15:33:00,
2013-01-26 11:34:00,81.0,69.4,29.97,North,-999,0.0,0.0,68,0.00,,,-99.99,209,WeatherLink 5.4,2013-01-26 15:34:00,
2013-01-26 11:35:00,80.9,69.3,29.97,ESE,112,2.0,8.0,68,0.00,,,-99.99,188,WeatherLink 5.4,2013-01-26 15:35:00,
2013-01-26 11:36:00,80.9,69.3,29.97,ESE,112,5.0,10.0,68,0.00,,,-99.99,173,WeatherLink 5.4,2013-01-26 15:36:00,
2013-01-26 11:37:00,80.9,69.3,29.97,SE,135,6.0,8.0,68,0.00,,,-99.99,179,WeatherLink 5.4,2013-01-26 15:37:00,
2013-01-26 11:38:00,80.9,69.3,29.97,SE,135,3.0,7.0,68,0.00,,,-99.99,194,WeatherLink 5.4,2013-01-26 15:38:00,
2013-01-26 11:39:00,80.7,69.2,29.97,SE,135,2.0,5.0,68,0.00,,,-99.99,208,WeatherLink 5.4,2013-01-26 15:39:00,
2013-01-26 11:40:00,80.7,69.6,29.97,SE,135,0.0,2.0,69,0.00,,,-99.99,220,WeatherLink 5.4,2013-01-26 15:40:00,
2013-01-26 11:41:00,80.7,69.2,29.97,SE,135,0.0,1.0,68,0.00,,,-99.99,236,WeatherLink 5.4,2013-01-26 15:41:00,
2013-01-26 11:42:00,80.7,69.6,29.97,North,-999,0.0,0.0,69,0.00,,,-99.99,253,WeatherLink 5.4,2013-01-26 15:42:00,
2013-01-26 11:43:00,80.7,69.6,29.97,North,-999,0.0,0.0,69,0.00,,,-99.99,273,WeatherLink 5.4,2013-01-26 15:43:00,
2013-01-26 11:44:00,80.7,69.6,29.97,North,-999,0.0,0.0,69,0.00,,,-99.99,294,WeatherLink 5.4,2013-01-26 15:44:00,
2013-01-26 11:45:00,80.7,69.6,29.97,SE,135,1.0,6.0,69,0.00,,,-99.99,313,WeatherLink 5.4,2013-01-26 15:45:00,
2013-01-26 11:46:00,80.7,69.6,29.97,SE,135,1.0,4.0,69,0.00,,,-99.99,332,WeatherLink 5.4,2013-01-26 15:46:00,
2013-01-26 11:47:00,80.8,69.7,29.97,SE,135,0.0,1.0,69,0.00,,,-99.99,341,WeatherLink 5.4,2013-01-26 15:47:00,
2013-01-26 11:48:00,80.9,70.2,29.97,North,-999,0.0,0.0,70,0.00,,,-99.99,352,WeatherLink 5.4,2013-01-26 15:48:00,
2013-01-26 11:49:00,80.9,70.2,29.97,ESE,112,2.0,7.0,70,0.00,,,-99.99,373,WeatherLink 5.4,2013-01-26 15:49:00,
2013-01-26 11:50:00,80.9,69.8,29.97,ESE,112,1.0,6.0,69,0.00,,,-99.99,387,WeatherLink 5.4,2013-01-26 15:50:00,
2013-01-26 11:51:00,80.9,69.8,29.97,SSE,157,1.0,7.0,69,0.00,,,-99.99,385,WeatherLink 5.4,2013-01-26 15:51:00,
2013-01-26 11:52:00,80.9,69.8,29.97,ESE,112,1.0,5.0,69,0.00,,,-99.99,362,WeatherLink 5.4,2013-01-26 15:52:00,
2013-01-26 11:53:00,80.9,69.3,29.97,ESE,112,5.0,8.0,68,0.00,,,-99.99,355,WeatherLink 5.4,2013-01-26 15:53:00,
2013-01-26 11:54:00,80.9,68.9,29.97,East,90,5.0,7.0,67,0.00,,,-99.99,357,WeatherLink 5.4,2013-01-26 15:54:00,
2013-01-26 11:55:00,80.9,68.9,29.97,ESE,112,4.0,6.0,67,0.00,,,-99.99,364,WeatherLink 5.4,2013-01-26 15:55:00,
2013-01-26 11:56:00,80.9,68.9,29.97,ESE,112,0.0,3.0,67,0.00,,,-99.99,358,WeatherLink 5.4,2013-01-26 15:56:00,
2013-01-26 11:57:00,80.9,69.3,29.97,North,-999,0.0,0.0,68,0.00,,,-99.99,338,WeatherLink 5.4,2013-01-26 15:57:00,
2013-01-26 11:58:00,80.9,69.3,29.97,North,-999,0.0,0.0,68,0.00,,,-99.99,329,WeatherLink 5.4,2013-01-26 15:58:00,
2013-01-26 11:59:00,80.9,69.3,29.97,North,-999,0.0,0.0,68,0.00,,,-99.99,336,WeatherLink 5.4,2013-01-26 15:59:00,
2013-01-26 12:00:00,80.9,68.9,29.97,SE,135,3.0,8.0,67,0.00,,,-99.99,355,WeatherLink 5.4,2013-01-26 16:00:00,
2013-01-26 12:01:00,80.9,68.9,29.97,South,180,2.0,6.0,67,0.00,,,-99.99,375,WeatherLink 5.4,2013-01-26 16:01:00,
2013-01-26 12:02:00,81.1,69.1,29.97,North,-999,0.0,0.0,67,0.00,,,-99.99,350,WeatherLink 5.4,2013-01-26 16:02:00,
2013-01-26 12:03:00,81.1,69.1,29.97,North,-999,0.0,0.0,67,0.00,,,-99.99,324,WeatherLink 5.4,2013-01-26 16:03:00,
2013-01-26 12:04:00,81.1,69.1,29.97,North,-999,0.0,0.0,67,0.00,,,-99.99,308,WeatherLink 5.4,2013-01-26 16:04:00,
2013-01-26 12:05:00,81.1,69.1,29.97,North,-999,0.0,0.0,67,0.00,,,-99.99,304,WeatherLink 5.4,2013-01-26 16:05:00,
2013-01-26 12:06:00,81.1,69.1,29.97,SSE,157,0.0,1.0,67,0.00,,,-99.99,321,WeatherLink 5.4,2013-01-26 16:06:00,
2013-01-26 12:07:00,81.1,69.1,29.97,North,-999,0.0,0.0,67,0.00,,,-99.99,352,WeatherLink 5.4,2013-01-26 16:07:00,
2013-01-26 12:08:00,81.1,69.1,29.97,North,-999,0.0,0.0,67,0.00,,,-99.99,378,WeatherLink 5.4,2013-01-26 16:08:00,
2013-01-26 12:09:00,81.1,68.7,29.97,North,-999,0.0,0.0,66,0.00,,,-99.99,410,WeatherLink 5.4,2013-01-26 16:09:00,
2013-01-26 12:10:00,81.2,68.8,29.97,North,-999,0.0,0.0,66,0.00,,,-99.99,450,WeatherLink 5.4,2013-01-26 16:10:00,
2013-01-26 12:11:00,81.2,68.8,29.97,SE,135,0.0,1.0,66,0.00,,,-99.99,450,WeatherLink 5.4,2013-01-26 16:11:00,
2013-01-26 12:12:00,81.2,68.3,29.97,ESE,112,4.0,10.0,65,0.00,,,-99.99,450,WeatherLink 5.4,2013-01-26 16:12:00,
2013-01-26 12:13:00,81.2,68.3,29.97,SE,135,7.0,10.0,65,0.00,,,-99.99,523,WeatherLink 5.4,2013-01-26 16:13:00,
2013-01-26 12:14:00,81.2,67.9,29.97,SE,135,2.0,5.0,64,0.00,,,-99.99,491,WeatherLink 5.4,2013-01-26 16:14:00,
2013-01-26 12:15:00,81.2,67.9,29.96,SE,135,3.0,6.0,64,0.00,,,-99.99,491,WeatherLink 5.4,2013-01-26 16:15:00,
2013-01-26 12:16:00,81.3,68.0,29.96,ESE,112,0.0,2.0,64,0.00,,,-99.99,348,WeatherLink 5.4,2013-01-26 16:16:00,
2013-01-26 12:17:00,81.4,68.1,29.96,North,-999,0.0,0.0,64,0.00,,,-99.99,341,WeatherLink 5.4,2013-01-26 16:17:00,
2013-01-26 12:18:00,81.4,68.1,29.96,North,-999,0.0,0.0,64,0.00,,,-99.99,364,WeatherLink 5.4,2013-01-26 16:18:00,
2013-01-26 12:19:00,81.4,68.1,29.96,North,-999,0.0,0.0,64,0.00,,,-99.99,364,WeatherLink 5.4,2013-01-26 16:19:00,
2013-01-26 12:20:00,81.4,68.1,29.96,North,-999,0.0,0.0,64,0.00,,,-99.99,435,WeatherLink 5.4,2013-01-26 16:20:00,
2013-01-26 12:21:00,81.4,68.1,29.96,ESE,112,1.0,4.0,64,0.00,,,-99.99,398,WeatherLink 5.4,2013-01-26 16:21:00,
2013-01-26 12:22:00,81.6,68.2,29.96,SE,135,5.0,7.0,64,0.00,,,-99.99,410,WeatherLink 5.4,2013-01-26 16:22:00,
2013-01-26 12:23:00,81.6,68.2,29.96,ESE,112,3.0,8.0,64,0.00,,,-99.99,389,WeatherLink 5.4,2013-01-26 16:23:00,
2013-01-26 12:24:00,81.6,68.2,29.96,North,-999,0.0,0.0,64,0.00,,,-99.99,361,WeatherLink 5.4,2013-01-26 16:24:00,
2013-01-26 12:25:00,81.6,68.2,29.96,ESE,112,1.0,12.0,64,0.00,,,-99.99,333,WeatherLink 5.4,2013-01-26 16:25:00,
2013-01-26 12:26:00,81.6,68.2,29.96,ESE,112,6.0,11.0,64,0.00,,,-99.99,302,WeatherLink 5.4,2013-01-26 16:26:00,
2013-01-26 12:27:00,81.6,68.7,29.96,ESE,112,4.0,10.0,65,0.00,,,-99.99,283,WeatherLink 5.4,2013-01-26 16:27:00,
2013-01-26 12:28:00,81.5,68.6,29.96,North,-999,0.0,0.0,65,0.00,,,-99.99,283,WeatherLink 5.4,2013-01-26 16:28:00,
2013-01-26 12:29:00,81.4,68.9,29.96,North,-999,0.0,0.0,66,0.00,,,-99.99,274,WeatherLink 5.4,2013-01-26 16:29:00,
2013-01-26 12:30:00,81.4,69.4,29.96,North,-999,0.0,0.0,67,0.00,,,-99.99,259,WeatherLink 5.4,2013-01-26 16:30:00,
2013-01-26 12:31:00,81.2,69.6,29.96,North,-999,0.0,0.0,68,0.00,,,-99.99,256,WeatherLink 5.4,2013-01-26 16:31:00,
2013-01-26 12:32:00,81.2,69.6,29.96,North,-999,0.0,0.0,68,0.00,,,-99.99,269,WeatherLink 5.4,2013-01-26 16:32:00,
2013-01-26 12:33:00,81.2,70.1,29.96,North,-999,0.0,0.0,69,0.00,,,-99.99,283,WeatherLink 5.4,2013-01-26 16:33:00,
2013-01-26 12:34:00,81.1,70.0,29.96,North,-999,0.0,0.0,69,0.00,,,-99.99,313,WeatherLink 5.4,2013-01-26 16:34:00,
2013-01-26 12:35:00,81.0,70.3,29.96,North,-999,0.0,0.0,70,0.00,,,-99.99,313,WeatherLink 5.4,2013-01-26 16:35:00,
2013-01-26 12:36:00,80.9,70.2,29.96,North,-999,0.0,0.0,70,0.00,,,-99.99,313,WeatherLink 5.4,2013-01-26 16:36:00,
2013-01-26 12:37:00,80.7,70.4,29.96,North,-999,0.0,0.0,71,0.00,,,-99.99,487,WeatherLink 5.4,2013-01-26 16:37:00,
2013-01-26 12:38:00,80.7,70.4,29.96,North,-999,0.0,0.0,71,0.00,,,-99.99,487,WeatherLink 5.4,2013-01-26 16:38:00,
2013-01-26 12:39:00,80.5,70.2,29.96,North,-999,0.0,0.0,71,0.00,,,-99.99,487,WeatherLink 5.4,2013-01-26 16:39:00,
2013-01-26 12:40:00,80.4,70.1,29.96,North,-999,0.0,0.0,71,0.00,,,-99.99,487,WeatherLink 5.4,2013-01-26 16:40:00,
2013-01-26 12:41:00,80.3,70.0,29.96,North,-999,0.0,0.0,71,0.00,,,-99.99,303,WeatherLink 5.4,2013-01-26 16:41:00,
2013-01-26 12:42:00,80.3,70.4,29.96,North,-999,0.0,0.0,72,0.00,,,-99.99,274,WeatherLink 5.4,2013-01-26 16:42:00,
2013-01-26 12:43:00,80.2,70.4,29.96,East,90,1.0,7.0,72,0.00,,,-99.99,264,WeatherLink 5.4,2013-01-26 16:43:00,
2013-01-26 12:44:00,80.1,70.3,29.96,East,90,1.0,5.0,72,0.00,,,-99.99,271,WeatherLink 5.4,2013-01-26 16:44:00,
2013-01-26 12:45:00,80.1,70.7,29.96,North,-999,0.0,0.0,73,0.00,,,-99.99,299,WeatherLink 5.4,2013-01-26 16:45:00,
2013-01-26 12:46:00,80.1,71.1,29.96,North,-999,0.0,0.0,74,0.00,,,-99.99,299,WeatherLink 5.4,2013-01-26 16:46:00,
2013-01-26 12:47:00,80.1,71.5,29.96,ESE,112,0.0,1.0,75,0.00,,,-99.99,586,WeatherLink 5.4,2013-01-26 16:47:00,
2013-01-26 12:48:00,79.9,71.7,29.96,North,-999,0.0,0.0,76,0.00,,,-99.99,586,WeatherLink 5.4,2013-01-26 16:48:00,
2013-01-26 12:49:00,79.9,71.7,29.96,North,-999,0.0,0.0,76,0.00,,,-99.99,586,WeatherLink 5.4,2013-01-26 16:49:00,
2013-01-26 12:50:00,79.9,72.0,29.96,North,-999,0.0,0.0,77,0.00,,,-99.99,586,WeatherLink 5.4,2013-01-26 16:50:00,
2013-01-26 12:51:00,79.9,72.4,29.96,North,-999,0.0,0.0,78,0.00,,,-99.99,586,WeatherLink 5.4,2013-01-26 16:51:00,
2013-01-26 12:52:00,79.8,72.3,29.96,North,-999,0.0,0.0,78,0.00,,,-99.99,721,WeatherLink 5.4,2013-01-26 16:52:00,
2013-01-26 12:53:00,79.8,72.3,29.96,East,90,4.0,10.0,78,0.00,,,-99.99,721,WeatherLink 5.4,2013-01-26 16:53:00,
2013-01-26 12:54:00,79.6,72.1,29.96,ENE,67,2.0,7.0,78,0.00,,,-99.99,721,WeatherLink 5.4,2013-01-26 16:54:00,
2013-01-26 12:55:00,79.6,72.5,29.96,North,-999,0.0,0.0,79,0.00,,,-99.99,721,WeatherLink 5.4,2013-01-26 16:55:00,
2013-01-26 12:56:00,79.6,72.5,29.96,ENE,67,1.0,6.0,79,0.00,,,-99.99,1050,WeatherLink 5.4,2013-01-26 16:56:00,
2013-01-26 12:57:00,79.6,72.9,29.96,North,-999,0.0,0.0,80,0.00,,,-99.99,1035,WeatherLink 5.4,2013-01-26 16:57:00,
2013-01-26 12:58:00,79.6,72.9,29.96,East,90,0.0,1.0,80,0.00,,,-99.99,1035,WeatherLink 5.4,2013-01-26 16:58:00,
2013-01-26 12:59:00,79.6,72.9,29.96,East,90,2.0,6.0,80,0.00,,,-99.99,1035,WeatherLink 5.4,2013-01-26 16:59:00,
2013-01-26 13:00:00,79.6,72.5,29.95,East,90,4.0,8.0,79,0.00,,,-99.99,1035,WeatherLink 5.4,2013-01-26 17:00:00,
2013-01-26 13:01:00,79.6,72.1,29.95,ESE,112,6.0,11.0,78,0.00,,,-99.99,354,WeatherLink 5.4,2013-01-26 17:01:00,
2013-01-26 13:02:00,79.5,72.0,29.95,East,90,6.0,12.0,78,0.00,,,-99.99,359,WeatherLink 5.4,2013-01-26 17:02:00,
2013-01-26 13:03:00,79.4,71.9,29.95,ESE,112,0.0,4.0,78,0.00,,,-99.99,354,WeatherLink 5.4,2013-01-26 17:03:00,
2013-01-26 13:04:00,79.4,71.9,29.95,North,-999,0.0,0.0,78,0.00,,,-99.99,350,WeatherLink 5.4,2013-01-26 17:04:00,
2013-01-26 13:05:00,79.2,71.4,29.95,ESE,112,3.0,11.0,77,0.00,,,-99.99,359,WeatherLink 5.4,2013-01-26 17:05:00,
2013-01-26 13:06:00,79.1,71.3,29.95,ESE,112,8.0,11.0,77,0.00,,,-99.99,368,WeatherLink 5.4,2013-01-26 17:06:00,
2013-01-26 13:07:00,79.0,70.8,29.95,East,90,4.0,10.0,76,0.00,,,-99.99,373,WeatherLink 5.4,2013-01-26 17:07:00,
2013-01-26 13:08:00,78.8,70.6,29.95,North,-999,0.0,0.0,76,0.00,,,-99.99,384,WeatherLink 5.4,2013-01-26 17:08:00,
2013-01-26 13:09:00,78.8,71.0,29.95,North,-999,0.0,0.0,77,0.00,,,-99.99,396,WeatherLink 5.4,2013-01-26 17:09:00,
2013-01-26 13:10:00,78.8,71.4,29.95,North,-999,0.0,0.0,78,0.00,,,-99.99,396,WeatherLink 5.4,2013-01-26 17:10:00,
2013-01-26 13:11:00,78.8,71.0,29.95,North,-999,0.0,0.0,77,0.00,,,-99.99,670,WeatherLink 5.4,2013-01-26 17:11:00,
2013-01-26 13:12:00,78.8,71.0,29.95,North,-999,0.0,0.0,77,0.00,,,-99.99,670,WeatherLink 5.4,2013-01-26 17:12:00,
2013-01-26 13:13:00,78.8,71.0,29.95,North,-999,0.0,0.0,77,0.00,,,-99.99,670,WeatherLink 5.4,2013-01-26 17:13:00,
2013-01-26 13:14:00,78.9,71.5,29.95,North,-999,0.0,0.0,78,0.00,,,-99.99,670,WeatherLink 5.4,2013-01-26 17:14:00,
2013-01-26 13:15:00,79.0,71.6,29.94,North,-999,0.0,0.0,78,0.00,,,-99.99,940,WeatherLink 5.4,2013-01-26 17:15:00,
2013-01-26 13:16:00,79.1,71.6,29.94,North,-999,0.0,0.0,78,0.00,,,-99.99,940,WeatherLink 5.4,2013-01-26 17:16:00,
2013-01-26 13:17:00,79.2,71.7,29.94,North,-999,0.0,0.0,78,0.00,,,-99.99,340,WeatherLink 5.4,2013-01-26 17:17:00,
2013-01-26 13:18:00,79.3,71.8,29.94,North,-999,0.0,0.0,78,0.00,,,-99.99,334,WeatherLink 5.4,2013-01-26 17:18:00,
2013-01-26 13:19:00,79.4,71.9,29.94,North,-999,0.0,0.0,78,0.00,,,-99.99,334,WeatherLink 5.4,2013-01-26 17:19:00,
2013-01-26 13:20:00,79.4,71.9,29.94,North,-999,0.0,0.0,78,0.00,,,-99.99,289,WeatherLink 5.4,2013-01-26 17:20:00,
2013-01-26 13:21:00,79.6,71.8,29.94,ESE,112,4.0,11.0,77,0.00,,,-99.99,264,WeatherLink 5.4,2013-01-26 17:21:00,
2013-01-26 13:22:00,79.6,71.4,29.94,East,90,4.0,8.0,76,0.00,,,-99.99,255,WeatherLink 5.4,2013-01-26 17:22:00,
2013-01-26 13:23:00,79.6,71.4,29.94,ESE,112,5.0,12.0,76,0.00,,,-99.99,253,WeatherLink 5.4,2013-01-26 17:23:00,
2013-01-26 13:24:00,79.6,71.4,29.94,ENE,67,4.0,8.0,76,0.00,,,-99.99,253,WeatherLink 5.4,2013-01-26 17:24:00,
2013-01-26 13:25:00,79.4,70.8,29.94,ESE,112,7.0,11.0,75,0.00,,,-99.99,253,WeatherLink 5.4,2013-01-26 17:25:00,
2013-01-26 13:26:00,79.4,71.2,29.94,East,90,0.0,2.0,76,0.00,,,-99.99,249,WeatherLink 5.4,2013-01-26 17:26:00,
2013-01-26 13:27:00,79.4,71.2,29.94,ESE,112,3.0,8.0,76,0.00,,,-99.99,225,WeatherLink 5.4,2013-01-26 17:27:00,
2013-01-26 13:28:00,79.4,71.2,29.94,ESE,112,6.0,12.0,76,0.00,,,-99.99,199,WeatherLink 5.4,2013-01-26 17:28:00,
2013-01-26 13:29:00,79.4,71.2,29.94,ESE,112,0.0,1.0,76,0.00,,,-99.99,174,WeatherLink 5.4,2013-01-26 17:29:00,
2013-01-26 13:30:00,79.4,71.2,29.94,North,-999,0.0,0.0,76,0.00,,,-99.99,162,WeatherLink 5.4,2013-01-26 17:30:00,
2013-01-26 13:31:00,79.4,71.2,29.94,North,-999,0.0,0.0,76,0.00,,,-99.99,189,WeatherLink 5.4,2013-01-26 17:31:00,
2013-01-26 13:32:00,79.3,71.1,29.94,North,-999,0.0,0.0,76,0.00,,,-99.99,164,WeatherLink 5.4,2013-01-26 17:32:00,
2013-01-26 13:33:00,79.2,71.0,29.94,ESE,112,5.0,10.0,76,0.00,,,-99.99,160,WeatherLink 5.4,2013-01-26 17:33:00,
2013-01-26 13:34:00,79.2,71.0,29.94,SE,135,0.0,1.0,76,0.00,,,-99.99,169,WeatherLink 5.4,2013-01-26 17:34:00,
2013-01-26 13:35:00,79.2,71.7,29.94,North,-999,0.0,0.0,78,0.00,,,-99.99,194,WeatherLink 5.4,2013-01-26 17:35:00,
2013-01-26 13:36:00,79.2,71.7,29.94,North,-999,0.0,0.0,78,0.00,,,-99.99,220,WeatherLink 5.4,2013-01-26 17:36:00,
2013-01-26 13:37:00,79.1,71.6,29.94,North,-999,0.0,0.0,78,0.00,,,-99.99,220,WeatherLink 5.4,2013-01-26 17:37:00,
2013-01-26 13:38:00,79.0,71.6,29.94,North,-999,0.0,0.0,78,0.00,,,-99.99,413,WeatherLink 5.4,2013-01-26 17:38:00,
2013-01-26 13:39:00,79.0,71.6,29.94,North,-999,0.0,0.0,78,0.00,,,-99.99,410,WeatherLink 5.4,2013-01-26 17:39:00,
2013-01-26 13:40:00,79.0,71.6,29.94,North,-999,0.0,0.0,78,0.00,,,-99.99,410,WeatherLink 5.4,2013-01-26 17:40:00,
2013-01-26 13:41:00,79.0,71.6,29.94,North,-999,0.0,0.0,78,0.00,,,-99.99,618,WeatherLink 5.4,2013-01-26 17:41:00,
2013-01-26 13:42:00,79.0,71.9,29.94,North,-999,0.0,0.0,79,0.00,,,-99.99,618,WeatherLink 5.4,2013-01-26 17:42:00,
2013-01-26 13:43:00,79.2,71.7,29.94,ESE,112,3.0,8.0,78,0.00,,,-99.99,618,WeatherLink 5.4,2013-01-26 17:43:00,
2013-01-26 13:44:00,79.2,71.4,29.94,ESE,112,2.0,7.0,77,0.00,,,-99.99,618,WeatherLink 5.4,2013-01-26 17:44:00,
2013-01-26 13:45:00,79.3,71.5,29.93,North,-999,0.0,0.0,77,0.00,,,-99.99,618,WeatherLink 5.4,2013-01-26 17:45:00,
2013-01-26 13:46:00,79.4,71.2,29.93,North,-999,0.0,0.0,76,0.00,,,-99.99,275,WeatherLink 5.4,2013-01-26 17:46:00,
2013-01-26 13:47:00,79.4,71.2,29.93,North,-999,0.0,0.0,76,0.00,,,-99.99,239,WeatherLink 5.4,2013-01-26 17:47:00,
2013-01-26 13:48:00,79.4,71.2,29.93,North,-999,0.0,0.0,76,0.00,,,-99.99,229,WeatherLink 5.4,2013-01-26 17:48:00,
2013-01-26 13:49:00,79.4,71.2,29.93,North,-999,0.0,0.0,76,0.00,,,-99.99,223,WeatherLink 5.4,2013-01-26 17:49:00,
2013-01-26 13:50:00,79.4,71.2,29.93,North,-999,0.0,0.0,76,0.00,,,-99.99,218,WeatherLink 5.4,2013-01-26 17:50:00,
2013-01-26 13:51:00,79.4,71.2,29.93,North,-999,0.0,0.0,76,0.00,,,-99.99,209,WeatherLink 5.4,2013-01-26 17:51:00,
2013-01-26 13:52:00,79.6,71.4,29.93,North,-999,0.0,0.0,76,0.00,,,-99.99,199,WeatherLink 5.4,2013-01-26 17:52:00,
2013-01-26 13:53:00,79.6,71.4,29.93,North,-999,0.0,0.0,76,0.00,,,-99.99,195,WeatherLink 5.4,2013-01-26 17:53:00,
2013-01-26 13:54:00,79.6,71.4,29.93,North,-999,0.0,0.0,76,0.00,,,-99.99,188,WeatherLink 5.4,2013-01-26 17:54:00,
2013-01-26 13:55:00,79.6,71.4,29.93,North,-999,0.0,0.0,76,0.00,,,-99.99,172,WeatherLink 5.4,2013-01-26 17:55:00,
2013-01-26 13:56:00,79.6,71.4,29.93,East,90,0.0,7.0,76,0.00,,,-99.99,143,WeatherLink 5.4,2013-01-26 17:56:00,
2013-01-26 13:57:00,79.6,71.4,29.93,ESE,112,8.0,13.0,76,0.00,,,-99.99,132,WeatherLink 5.4,2013-01-26 17:57:00,
2013-01-26 13:58:00,79.6,71.4,29.93,East,90,7.0,11.0,76,0.01,,,-99.99,146,WeatherLink 5.4,2013-01-26 17:58:00,
2013-01-26 13:59:00,79.5,71.3,29.93,East,90,7.0,11.0,76,0.01,,,-99.99,162,WeatherLink 5.4,2013-01-26 17:59:00,
2013-01-26 14:00:00,79.4,71.6,29.92,East,90,4.0,8.0,77,0.02,,,-99.99,178,WeatherLink 5.4,2013-01-26 18:00:00,
2013-01-26 14:01:00,79.2,71.7,29.92,ESE,112,5.0,7.0,78,0.02,,,-99.99,173,WeatherLink 5.4,2013-01-26 18:01:00,
2013-01-26 14:02:00,79.0,71.9,29.92,ESE,112,2.0,5.0,79,0.02,,,-99.99,139,WeatherLink 5.4,2013-01-26 18:02:00,
2013-01-26 14:03:00,78.8,72.1,29.92,North,-999,0.0,0.0,80,0.02,,,-99.99,118,WeatherLink 5.4,2013-01-26 18:03:00,
2013-01-26 14:04:00,78.7,72.0,29.92,North,-999,0.0,0.0,80,0.02,,,-99.99,100,WeatherLink 5.4,2013-01-26 18:04:00,
2013-01-26 14:05:00,78.6,71.9,29.92,East,90,4.0,10.0,80,0.03,,,-99.99,102,WeatherLink 5.4,2013-01-26 18:05:00,
2013-01-26 14:06:00,78.5,71.8,29.92,ESE,112,4.0,8.0,80,0.03,,,-99.99,132,WeatherLink 5.4,2013-01-26 18:06:00,
2013-01-26 14:07:00,78.3,71.6,29.92,East,90,2.0,6.0,80,0.03,,,-99.99,164,WeatherLink 5.4,2013-01-26 18:07:00,
2013-01-26 14:08:00,78.1,71.4,29.92,North,-999,0.0,0.0,80,0.04,,,-99.99,181,WeatherLink 5.4,2013-01-26 18:08:00,
2013-01-26 14:09:00,78.0,71.7,29.92,North,-999,0.0,0.0,81,0.04,,,-99.99,195,WeatherLink 5.4,2013-01-26 18:09:00,
2013-01-26 14:10:00,77.9,71.6,29.92,North,-999,0.0,0.0,81,0.04,,,-99.99,208,WeatherLink 5.4,2013-01-26 18:10:00,
2013-01-26 14:11:00,77.9,72.0,29.92,North,-999,0.0,0.0,82,0.04,,,-99.99,236,WeatherLink 5.4,2013-01-26 18:11:00,
2013-01-26 14:12:00,77.7,71.8,29.92,North,-999,0.0,0.0,82,0.04,,,-99.99,269,WeatherLink 5.4,2013-01-26 18:12:00,
2013-01-26 14:13:00,77.7,71.8,29.92,North,-999,0.0,0.0,82,0.04,,,-99.99,232,WeatherLink 5.4,2013-01-26 18:13:00,
2013-01-26 14:14:00,77.7,72.1,29.92,North,-999,0.0,0.0,83,0.04,,,-99.99,209,WeatherLink 5.4,2013-01-26 18:14:00,
2013-01-26 14:15:00,77.6,71.7,29.92,North,-999,0.0,0.0,82,0.04,,,-99.99,192,WeatherLink 5.4,2013-01-26 18:15:00,
2013-01-26 14:16:00,77.5,71.6,29.92,North,-999,0.0,0.0,82,0.04,,,-99.99,189,WeatherLink 5.4,2013-01-26 18:16:00,
2013-01-26 14:17:00,77.4,71.5,29.92,North,-999,0.0,0.0,82,0.04,,,-99.99,172,WeatherLink 5.4,2013-01-26 18:17:00,
2013-01-26 14:18:00,77.4,71.5,29.92,North,-999,0.0,0.0,82,0.04,,,-99.99,178,WeatherLink 5.4,2013-01-26 18:18:00,
2013-01-26 14:19:00,77.3,71.4,29.92,North,-999,0.0,0.0,82,0.04,,,-99.99,183,WeatherLink 5.4,2013-01-26 18:19:00,
2013-01-26 14:20:00,77.2,71.3,29.92,North,-999,0.0,0.0,82,0.04,,,-99.99,187,WeatherLink 5.4,2013-01-26 18:20:00,
2013-01-26 14:21:00,77.2,71.6,29.92,North,-999,0.0,0.0,83,0.04,,,-99.99,188,WeatherLink 5.4,2013-01-26 18:21:00,
2013-01-26 14:22:00,77.2,71.3,29.92,North,-999,0.0,0.0,82,0.04,,,-99.99,185,WeatherLink 5.4,2013-01-26 18:22:00,
2013-01-26 14:23:00,77.2,71.6,29.92,North,-999,0.0,0.0,83,0.04,,,-99.99,187,WeatherLink 5.4,2013-01-26 18:23:00,
2013-01-26 14:24:00,77.2,71.6,29.92,North,-999,0.0,0.0,83,0.04,,,-99.99,195,WeatherLink 5.4,2013-01-26 18:24:00,
2013-01-26 14:25:00,77.2,71.6,29.92,North,-999,0.0,0.0,83,0.04,,,-99.99,206,WeatherLink 5.4,2013-01-26 18:25:00,
2013-01-26 14:26:00,77.2,72.0,29.92,North,-999,0.0,0.0,84,0.04,,,-99.99,219,WeatherLink 5.4,2013-01-26 18:26:00,
2013-01-26 14:27:00,77.2,72.0,29.92,North,-999,0.0,0.0,84,0.04,,,-99.99,230,WeatherLink 5.4,2013-01-26 18:27:00,
2013-01-26 14:28:00,77.2,71.6,29.92,North,-999,0.0,0.0,83,0.04,,,-99.99,238,WeatherLink 5.4,2013-01-26 18:28:00,
2013-01-26 14:29:00,77.2,71.6,29.92,North,-999,0.0,0.0,83,0.04,,,-99.99,250,WeatherLink 5.4,2013-01-26 18:29:00,
2013-01-26 14:30:00,77.2,72.0,29.92,North,-999,0.0,0.0,84,0.04,,,-99.99,266,WeatherLink 5.4,2013-01-26 18:30:00,
2013-01-26 14:31:00,77.2,72.0,29.92,North,-999,0.0,0.0,84,0.04,,,-99.99,298,WeatherLink 5.4,2013-01-26 18:31:00,
2013-01-26 14:32:00,77.4,72.2,29.92,North,-999,0.0,0.0,84,0.04,,,-99.99,308,WeatherLink 5.4,2013-01-26 18:32:00,
2013-01-26 14:33:00,77.4,72.2,29.92,North,-999,0.0,0.0,84,0.04,,,-99.99,419,WeatherLink 5.4,2013-01-26 18:33:00,
2013-01-26 14:34:00,77.4,72.2,29.92,North,-999,0.0,0.0,84,0.04,,,-99.99,419,WeatherLink 5.4,2013-01-26 18:34:00,
2013-01-26 14:35:00,77.4,72.2,29.92,North,-999,0.0,0.0,84,0.04,,,-99.99,419,WeatherLink 5.4,2013-01-26 18:35:00,
2013-01-26 14:36:00,77.4,72.2,29.92,North,-999,0.0,0.0,84,0.04,,,-99.99,403,WeatherLink 5.4,2013-01-26 18:36:00,
2013-01-26 14:37:00,77.6,72.4,29.92,North,-999,0.0,0.0,84,0.04,,,-99.99,406,WeatherLink 5.4,2013-01-26 18:37:00,
2013-01-26 14:38:00,77.6,72.4,29.92,North,-999,0.0,0.0,84,0.04,,,-99.99,406,WeatherLink 5.4,2013-01-26 18:38:00,
2013-01-26 14:39:00,77.6,72.4,29.92,North,-999,0.0,0.0,84,0.04,,,-99.99,340,WeatherLink 5.4,2013-01-26 18:39:00,
2013-01-26 14:40:00,77.6,71.7,29.92,North,-999,0.0,0.0,82,0.04,,,-99.99,368,WeatherLink 5.4,2013-01-26 18:40:00,
2013-01-26 14:41:00,77.6,71.3,29.92,East,90,0.0,1.0,81,0.04,,,-99.99,392,WeatherLink 5.4,2013-01-26 18:41:00,
2013-01-26 14:42:00,77.6,70.9,29.92,ENE,67,2.0,8.0,80,0.04,,,-99.99,436,WeatherLink 5.4,2013-01-26 18:42:00,
2013-01-26 14:43:00,77.6,70.9,29.92,North,-999,0.0,0.0,80,0.04,,,-99.99,463,WeatherLink 5.4,2013-01-26 18:43:00,
2013-01-26 14:44:00,77.7,71.0,29.92,North,-999,0.0,0.0,80,0.04,,,-99.99,463,WeatherLink 5.4,2013-01-26 18:44:00,
2013-01-26 14:45:00,77.7,69.9,29.91,East,90,1.0,10.0,77,0.04,,,-99.99,463,WeatherLink 5.4,2013-01-26 18:45:00,
2013-01-26 14:46:00,77.7,69.9,29.91,SE,135,3.0,6.0,77,0.04,,,-99.99,472,WeatherLink 5.4,2013-01-26 18:46:00,
2013-01-26 14:47:00,77.9,70.1,29.91,North,-999,0.0,0.0,77,0.04,,,-99.99,486,WeatherLink 5.4,2013-01-26 18:47:00,
2013-01-26 14:48:00,78.1,70.3,29.91,North,-999,0.0,0.0,77,0.04,,,-99.99,468,WeatherLink 5.4,2013-01-26 18:48:00,
2013-01-26 14:49:00,78.3,70.5,29.91,North,-999,0.0,0.0,77,0.04,,,-99.99,459,WeatherLink 5.4,2013-01-26 18:49:00,
2013-01-26 14:50:00,78.4,70.2,29.91,North,-999,0.0,0.0,76,0.04,,,-99.99,459,WeatherLink 5.4,2013-01-26 18:50:00,
2013-01-26 14:51:00,78.5,69.9,29.91,North,-999,0.0,0.0,75,0.04,,,-99.99,296,WeatherLink 5.4,2013-01-26 18:51:00,
2013-01-26 14:52:00,78.6,70.4,29.91,North,-999,0.0,0.0,76,0.04,,,-99.99,303,WeatherLink 5.4,2013-01-26 18:52:00,
2013-01-26 14:53:00,78.8,70.6,29.91,North,-999,0.0,0.0,76,0.04,,,-99.99,278,WeatherLink 5.4,2013-01-26 18:53:00,
2013-01-26 14:54:00,79.0,70.4,29.91,North,-999,0.0,0.0,75,0.04,,,-99.99,253,WeatherLink 5.4,2013-01-26 18:54:00,
2013-01-26 14:55:00,79.0,70.4,29.91,North,-999,0.0,0.0,75,0.04,,,-99.99,236,WeatherLink 5.4,2013-01-26 18:55:00,
2013-01-26 14:56:00,79.2,70.2,29.91,North,-999,0.0,0.0,74,0.04,,,-99.99,213,WeatherLink 5.4,2013-01-26 18:56:00,
2013-01-26 14:57:00,79.2,69.8,29.91,ESE,112,3.0,10.0,73,0.04,,,-99.99,199,WeatherLink 5.4,2013-01-26 18:57:00,
2013-01-26 14:58:00,79.3,69.1,29.91,ESE,112,6.0,10.0,71,0.03,,,-99.99,199,WeatherLink 5.4,2013-01-26 18:58:00,
2013-01-26 14:59:00,79.4,69.2,29.91,ESE,112,4.0,6.0,71,0.03,,,-99.99,201,WeatherLink 5.4,2013-01-26 18:59:00,
2013-01-26 15:00:00,79.5,69.3,29.91,ESE,112,6.0,12.0,71,0.02,,,-99.99,199,WeatherLink 5.4,2013-01-26 19:00:00,
2013-01-26 15:01:00,79.6,68.5,29.91,ESE,112,5.0,10.0,69,0.02,,,-99.99,193,WeatherLink 5.4,2013-01-26 19:01:00,
2013-01-26 15:02:00,79.6,69.0,29.91,ESE,112,0.0,2.0,70,0.02,,,-99.99,179,WeatherLink 5.4,2013-01-26 19:02:00,
2013-01-26 15:03:00,79.6,69.0,29.91,North,-999,0.0,0.0,70,0.02,,,-99.99,167,WeatherLink 5.4,2013-01-26 19:03:00,
2013-01-26 15:04:00,79.8,68.7,29.91,North,-999,0.0,0.0,69,0.02,,,-99.99,157,WeatherLink 5.4,2013-01-26 19:04:00,
2013-01-26 15:05:00,79.8,68.7,29.91,North,-999,0.0,0.0,69,0.01,,,-99.99,151,WeatherLink 5.4,2013-01-26 19:05:00,
2013-01-26 15:06:00,79.8,68.7,29.91,North,-999,0.0,0.0,69,0.01,,,-99.99,146,WeatherLink 5.4,2013-01-26 19:06:00,
2013-01-26 15:07:00,79.8,68.7,29.91,North,-999,0.0,0.0,69,0.01,,,-99.99,143,WeatherLink 5.4,2013-01-26 19:07:00,
2013-01-26 15:08:00,79.9,68.8,29.91,North,-999,0.0,0.0,69,0.00,,,-99.99,137,WeatherLink 5.4,2013-01-26 19:08:00,
2013-01-26 15:09:00,79.9,68.8,29.91,North,-999,0.0,0.0,69,0.00,,,-99.99,134,WeatherLink 5.4,2013-01-26 19:09:00,
2013-01-26 15:10:00,79.9,68.8,29.91,North,-999,0.0,0.0,69,0.00,,,-99.99,128,WeatherLink 5.4,2013-01-26 19:10:00,
2013-01-26 15:11:00,79.9,68.4,29.91,East,90,0.0,1.0,68,0.00,,,-99.99,117,WeatherLink 5.4,2013-01-26 19:11:00,
2013-01-26 15:12:00,79.9,68.4,29.91,North,-999,0.0,0.0,68,0.00,,,-99.99,107,WeatherLink 5.4,2013-01-26 19:12:00,
2013-01-26 15:13:00,79.9,68.4,29.91,North,-999,0.0,0.0,68,0.00,,,-99.99,106,WeatherLink 5.4,2013-01-26 19:13:00,
2013-01-26 15:14:00,79.9,68.0,29.91,North,-999,0.0,0.0,67,0.00,,,-99.99,109,WeatherLink 5.4,2013-01-26 19:14:00,
2013-01-26 15:15:00,79.9,67.5,29.91,ESE,112,6.0,12.0,66,0.00,,,-99.99,114,WeatherLink 5.4,2013-01-26 19:15:00,
2013-01-26 15:16:00,79.9,67.5,29.91,East,90,1.0,7.0,66,0.00,,,-99.99,126,WeatherLink 5.4,2013-01-26 19:16:00,
2013-01-26 15:17:00,79.9,68.0,29.91,ESE,112,3.0,6.0,67,0.00,,,-99.99,137,WeatherLink 5.4,2013-01-26 19:17:00,
2013-01-26 15:18:00,79.9,67.5,29.91,East,90,7.0,10.0,66,0.00,,,-99.99,141,WeatherLink 5.4,2013-01-26 19:18:00,
2013-01-26 15:19:00,79.8,67.0,29.91,ESE,112,5.0,8.0,65,0.00,,,-99.99,144,WeatherLink 5.4,2013-01-26 19:19:00,
2013-01-26 15:20:00,79.8,66.5,29.91,East,90,5.0,8.0,64,0.00,,,-99.99,148,WeatherLink 5.4,2013-01-26 19:20:00,
2013-01-26 15:21:00,79.9,67.1,29.91,North,-999,0.0,0.0,65,0.00,,,-99.99,156,WeatherLink 5.4,2013-01-26 19:21:00,
2013-01-26 15:22:00,79.9,67.1,29.91,North,-999,0.0,0.0,65,0.00,,,-99.99,165,WeatherLink 5.4,2013-01-26 19:22:00,
2013-01-26 15:23:00,79.9,67.1,29.91,North,-999,0.0,0.0,65,0.00,,,-99.99,181,WeatherLink 5.4,2013-01-26 19:23:00,
2013-01-26 15:24:00,79.9,67.1,29.91,SE,135,1.0,6.0,65,0.00,,,-99.99,206,WeatherLink 5.4,2013-01-26 19:24:00,
2013-01-26 15:25:00,79.9,67.1,29.91,ESE,112,2.0,6.0,65,0.00,,,-99.99,234,WeatherLink 5.4,2013-01-26 19:25:00,
2013-01-26 15:26:00,79.9,66.6,29.91,North,-999,0.0,0.0,64,0.00,,,-99.99,274,WeatherLink 5.4,2013-01-26 19:26:00,
2013-01-26 15:27:00,80.0,67.6,29.91,North,0,0.0,6.0,66,0.00,,,-99.99,306,WeatherLink 5.4,2013-01-26 19:27:00,
2013-01-26 15:28:00,80.1,67.7,29.91,NNE,22,0.0,5.0,66,0.00,,,-99.99,306,WeatherLink 5.4,2013-01-26 19:28:00,
2013-01-26 15:29:00,80.1,67.7,29.91,East,90,3.0,8.0,66,0.00,,,-99.99,306,WeatherLink 5.4,2013-01-26 19:29:00,
2013-01-26 15:30:00,80.1,67.3,29.91,East,90,0.0,2.0,65,0.00,,,-99.99,326,WeatherLink 5.4,2013-01-26 19:30:00,
2013-01-26 15:31:00,80.1,67.3,29.91,North,-999,0.0,0.0,65,0.00,,,-99.99,326,WeatherLink 5.4,2013-01-26 19:31:00,
2013-01-26 15:32:00,80.1,67.3,29.91,North,-999,0.0,0.0,65,0.00,,,-99.99,326,WeatherLink 5.4,2013-01-26 19:32:00,
2013-01-26 15:33:00,80.1,67.3,29.91,North,-999,0.0,0.0,65,0.00,,,-99.99,313,WeatherLink 5.4,2013-01-26 19:33:00,
2013-01-26 15:34:00,80.1,66.8,29.91,North,-999,0.0,0.0,64,0.00,,,-99.99,303,WeatherLink 5.4,2013-01-26 19:34:00,
2013-01-26 15:35:00,80.1,66.8,29.91,North,-999,0.0,0.0,64,0.00,,,-99.99,304,WeatherLink 5.4,2013-01-26 19:35:00,
2013-01-26 15:36:00,80.1,66.8,29.91,North,-999,0.0,0.0,64,0.00,,,-99.99,321,WeatherLink 5.4,2013-01-26 19:36:00,
2013-01-26 15:37:00,80.3,67.5,29.91,North,-999,0.0,0.0,65,0.00,,,-99.99,336,WeatherLink 5.4,2013-01-26 19:37:00,
2013-01-26 15:38:00,80.3,67.5,29.91,North,-999,0.0,0.0,65,0.00,,,-99.99,336,WeatherLink 5.4,2013-01-26 19:38:00,
2013-01-26 15:39:00,80.3,67.5,29.91,North,-999,0.0,0.0,65,0.00,,,-99.99,336,WeatherLink 5.4,2013-01-26 19:39:00,
2013-01-26 15:40:00,80.3,67.0,29.91,North,-999,0.0,0.0,64,0.00,,,-99.99,336,WeatherLink 5.4,2013-01-26 19:40:00,
2013-01-26 15:41:00,80.5,66.7,29.91,SE,135,2.0,10.0,63,0.00,,,-99.99,336,WeatherLink 5.4,2013-01-26 19:41:00,
2013-01-26 15:42:00,80.6,66.8,29.91,North,-999,0.0,0.0,63,0.00,,,-99.99,364,WeatherLink 5.4,2013-01-26 19:42:00,
2013-01-26 15:43:00,80.7,67.4,29.91,North,-999,0.0,0.0,64,0.00,,,-99.99,362,WeatherLink 5.4,2013-01-26 19:43:00,
2013-01-26 15:44:00,80.9,67.6,29.91,North,-999,0.0,0.0,64,0.00,,,-99.99,377,WeatherLink 5.4,2013-01-26 19:44:00,
2013-01-26 15:45:00,81.0,67.2,29.90,East,90,1.0,8.0,63,0.00,,,-99.99,371,WeatherLink 5.4,2013-01-26 19:45:00,
2013-01-26 15:46:00,81.1,67.3,29.90,East,90,2.0,6.0,63,0.00,,,-99.99,371,WeatherLink 5.4,2013-01-26 19:46:00,
2013-01-26 15:47:00,81.1,66.8,29.90,ENE,67,0.0,1.0,62,0.00,,,-99.99,417,WeatherLink 5.4,2013-01-26 19:47:00,
2013-01-26 15:48:00,81.2,66.9,29.90,North,-999,0.0,0.0,62,0.00,,,-99.99,417,WeatherLink 5.4,2013-01-26 19:48:00,
2013-01-26 15:49:00,81.2,67.4,29.90,East,90,0.0,1.0,63,0.00,,,-99.99,287,WeatherLink 5.4,2013-01-26 19:49:00,
2013-01-26 15:50:00,81.2,67.4,29.90,North,-999,0.0,0.0,63,0.00,,,-99.99,278,WeatherLink 5.4,2013-01-26 19:50:00,
2013-01-26 15:51:00,81.3,67.0,29.90,ESE,112,3.0,7.0,62,0.00,,,-99.99,274,WeatherLink 5.4,2013-01-26 19:51:00,
2013-01-26 15:52:00,81.4,67.1,29.90,ESE,112,5.0,7.0,62,0.00,,,-99.99,274,WeatherLink 5.4,2013-01-26 19:52:00,
2013-01-26 15:53:00,81.4,67.1,29.90,ESE,112,3.0,7.0,62,0.00,,,-99.99,278,WeatherLink 5.4,2013-01-26 19:53:00,
2013-01-26 15:54:00,81.4,67.1,29.90,North,-999,0.0,0.0,62,0.00,,,-99.99,276,WeatherLink 5.4,2013-01-26 19:54:00,
2013-01-26 15:55:00,81.4,67.1,29.90,North,-999,0.0,0.0,62,0.00,,,-99.99,273,WeatherLink 5.4,2013-01-26 19:55:00,
2013-01-26 15:56:00,81.4,67.1,29.90,North,-999,0.0,0.0,62,0.00,,,-99.99,267,WeatherLink 5.4,2013-01-26 19:56:00,
2013-01-26 15:57:00,81.4,67.1,29.90,North,-999,0.0,0.0,62,0.00,,,-99.99,267,WeatherLink 5.4,2013-01-26 19:57:00,
2013-01-26 15:58:00,81.4,67.1,29.90,North,-999,0.0,0.0,62,0.00,,,-99.99,267,WeatherLink 5.4,2013-01-26 19:58:00,
2013-01-26 15:59:00,81.4,67.1,29.90,SE,135,2.0,7.0,62,0.00,,,-99.99,285,WeatherLink 5.4,2013-01-26 19:59:00,
2013-01-26 16:00:00,81.4,67.1,29.91,North,-999,0.0,0.0,62,0.00,,,-99.99,250,WeatherLink 5.4,2013-01-26 20:00:00,
2013-01-26 16:01:00,81.4,67.6,29.91,North,-999,0.0,0.0,63,0.00,,,-99.99,268,WeatherLink 5.4,2013-01-26 20:01:00,
2013-01-26 16:02:00,81.4,67.1,29.91,North,-999,0.0,0.0,62,0.00,,,-99.99,290,WeatherLink 5.4,2013-01-26 20:02:00,
2013-01-26 16:03:00,81.4,67.1,29.91,North,-999,0.0,0.0,62,0.00,,,-99.99,229,WeatherLink 5.4,2013-01-26 20:03:00,
2013-01-26 16:04:00,81.4,66.7,29.91,North,-999,0.0,0.0,61,0.00,,,-99.99,216,WeatherLink 5.4,2013-01-26 20:04:00,
2013-01-26 16:05:00,81.6,67.3,29.91,SSE,157,0.0,5.0,62,0.00,,,-99.99,211,WeatherLink 5.4,2013-01-26 20:05:00,
2013-01-26 16:06:00,81.6,67.3,29.91,ESE,112,4.0,7.0,62,0.00,,,-99.99,208,WeatherLink 5.4,2013-01-26 20:06:00,
2013-01-26 16:07:00,81.6,67.3,29.91,North,-999,0.0,0.0,62,0.00,,,-99.99,209,WeatherLink 5.4,2013-01-26 20:07:00,
2013-01-26 16:08:00,81.6,67.3,29.91,North,-999,0.0,0.0,62,0.00,,,-99.99,209,WeatherLink 5.4,2013-01-26 20:08:00,
2013-01-26 16:09:00,81.6,66.8,29.91,North,-999,0.0,0.0,61,0.00,,,-99.99,209,WeatherLink 5.4,2013-01-26 20:09:00,
2013-01-26 16:10:00,81.6,66.8,29.91,North,-999,0.0,0.0,61,0.00,,,-99.99,206,WeatherLink 5.4,2013-01-26 20:10:00,
2013-01-26 16:11:00,81.6,66.8,29.91,North,-999,0.0,0.0,61,0.00,,,-99.99,199,WeatherLink 5.4,2013-01-26 20:11:00,
2013-01-26 16:12:00,81.6,66.8,29.91,North,-999,0.0,0.0,61,0.00,,,-99.99,190,WeatherLink 5.4,2013-01-26 20:12:00,
2013-01-26 16:13:00,81.6,66.8,29.91,North,-999,0.0,0.0,61,0.00,,,-99.99,194,WeatherLink 5.4,2013-01-26 20:13:00,
2013-01-26 16:14:00,81.6,66.8,29.91,North,-999,0.0,0.0,61,0.00,,,-99.99,176,WeatherLink 5.4,2013-01-26 20:14:00,
2013-01-26 16:15:00,81.5,66.3,29.91,North,-999,0.0,0.0,60,0.00,,,-99.99,164,WeatherLink 5.4,2013-01-26 20:15:00,
2013-01-26 16:16:00,81.4,66.2,29.91,North,-999,0.0,0.0,60,0.00,,,-99.99,154,WeatherLink 5.4,2013-01-26 20:16:00,
2013-01-26 16:17:00,81.4,66.2,29.91,East,90,5.0,12.0,60,0.00,,,-99.99,143,WeatherLink 5.4,2013-01-26 20:17:00,
2013-01-26 16:18:00,81.4,66.2,29.91,ESE,112,4.0,10.0,60,0.00,,,-99.99,143,WeatherLink 5.4,2013-01-26 20:18:00,
2013-01-26 16:19:00,81.4,66.2,29.91,ESE,112,6.0,9.0,60,0.00,,,-99.99,143,WeatherLink 5.4,2013-01-26 20:19:00,
2013-01-26 16:20:00,81.4,66.2,29.91,ESE,112,5.0,12.0,60,0.00,,,-99.99,141,WeatherLink 5.4,2013-01-26 20:20:00,
2013-01-26 16:21:00,81.4,65.7,29.91,SE,135,9.0,12.0,59,0.00,,,-99.99,140,WeatherLink 5.4,2013-01-26 20:21:00,
2013-01-26 16:22:00,81.4,65.7,29.91,ESE,112,6.0,12.0,59,0.00,,,-99.99,139,WeatherLink 5.4,2013-01-26 20:22:00,
2013-01-26 16:23:00,81.4,65.7,29.91,SE,135,5.0,8.0,59,0.00,,,-99.99,141,WeatherLink 5.4,2013-01-26 20:23:00,
2013-01-26 16:24:00,81.4,65.2,29.91,East,90,4.0,7.0,58,0.00,,,-99.99,144,WeatherLink 5.4,2013-01-26 20:24:00,
2013-01-26 16:25:00,81.4,65.2,29.91,East,90,8.0,14.0,58,0.00,,,-99.99,150,WeatherLink 5.4,2013-01-26 20:25:00,
2013-01-26 16:26:00,81.4,65.7,29.91,ESE,112,5.0,8.0,59,0.00,,,-99.99,156,WeatherLink 5.4,2013-01-26 20:26:00,
2013-01-26 16:27:00,81.4,65.2,29.91,East,90,3.0,7.0,58,0.00,,,-99.99,162,WeatherLink 5.4,2013-01-26 20:27:00,
2013-01-26 16:28:00,81.2,65.0,29.91,ESE,112,6.0,10.0,58,0.00,,,-99.99,165,WeatherLink 5.4,2013-01-26 20:28:00,
2013-01-26 16:29:00,81.2,65.0,29.91,ESE,112,2.0,5.0,58,0.00,,,-99.99,167,WeatherLink 5.4,2013-01-26 20:29:00,
2013-01-26 16:30:00,81.2,65.0,29.91,North,-999,0.0,0.0,58,0.00,,,-99.99,169,WeatherLink 5.4,2013-01-26 20:30:00,
2013-01-26 16:31:00,81.2,65.0,29.91,ESE,112,5.0,8.0,58,0.00,,,-99.99,168,WeatherLink 5.4,2013-01-26 20:31:00,
2013-01-26 16:32:00,81.2,65.0,29.91,SE,135,8.0,12.0,58,0.00,,,-99.99,164,WeatherLink 5.4,2013-01-26 20:32:00,
2013-01-26 16:33:00,81.2,65.0,29.91,SE,135,2.0,8.0,58,0.00,,,-99.99,157,WeatherLink 5.4,2013-01-26 20:33:00,
2013-01-26 16:34:00,81.2,65.5,29.91,North,-999,0.0,0.0,59,0.00,,,-99.99,150,WeatherLink 5.4,2013-01-26 20:34:00,
2013-01-26 16:35:00,81.2,65.5,29.91,North,-999,0.0,0.0,59,0.00,,,-99.99,143,WeatherLink 5.4,2013-01-26 20:35:00,
2013-01-26 16:36:00,81.2,65.5,29.91,North,-999,0.0,0.0,59,0.00,,,-99.99,138,WeatherLink 5.4,2013-01-26 20:36:00,
2013-01-26 16:37:00,81.2,65.5,29.91,North,-999,0.0,0.0,59,0.00,,,-99.99,137,WeatherLink 5.4,2013-01-26 20:37:00,
2013-01-26 16:38:00,81.2,65.5,29.91,East,90,4.0,7.0,59,0.00,,,-99.99,134,WeatherLink 5.4,2013-01-26 20:38:00,
2013-01-26 16:39:00,81.2,65.5,29.91,ESE,112,1.0,5.0,59,0.00,,,-99.99,134,WeatherLink 5.4,2013-01-26 20:39:00,
2013-01-26 16:40:00,81.2,65.5,29.91,North,-999,0.0,0.0,59,0.00,,,-99.99,137,WeatherLink 5.4,2013-01-26 20:40:00,
2013-01-26 16:41:00,81.2,66.0,29.91,North,-999,0.0,0.0,60,0.00,,,-99.99,148,WeatherLink 5.4,2013-01-26 20:41:00,
2013-01-26 16:42:00,81.2,65.5,29.91,North,-999,0.0,0.0,59,0.00,,,-99.99,164,WeatherLink 5.4,2013-01-26 20:42:00,
2013-01-26 16:43:00,81.1,65.9,29.91,North,-999,0.0,0.0,60,0.00,,,-99.99,171,WeatherLink 5.4,2013-01-26 20:43:00,
2013-01-26 16:44:00,81.1,65.4,29.91,North,-999,0.0,0.0,59,0.00,,,-99.99,169,WeatherLink 5.4,2013-01-26 20:44:00,
2013-01-26 16:45:00,81.1,65.4,29.92,North,-999,0.0,0.0,59,0.00,,,-99.99,164,WeatherLink 5.4,2013-01-26 20:45:00,
2013-01-26 16:46:00,81.1,65.9,29.92,North,-999,0.0,0.0,60,0.00,,,-99.99,154,WeatherLink 5.4,2013-01-26 20:46:00,
2013-01-26 16:47:00,81.1,65.9,29.92,North,-999,0.0,0.0,60,0.00,,,-99.99,143,WeatherLink 5.4,2013-01-26 20:47:00,
2013-01-26 16:48:00,81.1,65.9,29.92,North,-999,0.0,0.0,60,0.00,,,-99.99,137,WeatherLink 5.4,2013-01-26 20:48:00,
2013-01-26 16:49:00,81.1,65.9,29.92,North,-999,0.0,0.0,60,0.00,,,-99.99,132,WeatherLink 5.4,2013-01-26 20:49:00,
2013-01-26 16:50:00,81.1,65.9,29.92,North,-999,0.0,0.0,60,0.00,,,-99.99,128,WeatherLink 5.4,2013-01-26 20:50:00,
2013-01-26 16:51:00,81.1,65.9,29.92,North,-999,0.0,0.0,60,0.00,,,-99.99,124,WeatherLink 5.4,2013-01-26 20:51:00,
2013-01-26 16:52:00,81.1,66.4,29.92,North,-999,0.0,0.0,61,0.00,,,-99.99,121,WeatherLink 5.4,2013-01-26 20:52:00,
2013-01-26 16:53:00,81.1,66.8,29.92,North,-999,0.0,0.0,62,0.00,,,-99.99,118,WeatherLink 5.4,2013-01-26 20:53:00,
2013-01-26 16:54:00,81.1,66.4,29.92,North,-999,0.0,0.0,61,0.00,,,-99.99,116,WeatherLink 5.4,2013-01-26 20:54:00,
2013-01-26 16:55:00,81.1,66.4,29.92,North,-999,0.0,0.0,61,0.00,,,-99.99,114,WeatherLink 5.4,2013-01-26 20:55:00,
2013-01-26 16:56:00,81.1,66.8,29.92,North,-999,0.0,0.0,62,0.00,,,-99.99,113,WeatherLink 5.4,2013-01-26 20:56:00,
2013-01-26 16:57:00,81.1,66.8,29.92,North,-999,0.0,0.0,62,0.00,,,-99.99,113,WeatherLink 5.4,2013-01-26 20:57:00,
2013-01-26 16:58:00,81.1,66.8,29.92,North,-999,0.0,0.0,62,0.00,,,-99.99,113,WeatherLink 5.4,2013-01-26 20:58:00,
2013-01-26 16:59:00,81.1,66.8,29.92,North,-999,0.0,0.0,62,0.00,,,-99.99,114,WeatherLink 5.4,2013-01-26 20:59:00,
2013-01-26 17:00:00,81.1,66.8,29.92,North,-999,0.0,0.0,62,0.00,,,-99.99,114,WeatherLink 5.4,2013-01-26 21:00:00,
2013-01-26 17:01:00,81.1,66.8,29.92,North,-999,0.0,0.0,62,0.00,,,-99.99,114,WeatherLink 5.4,2013-01-26 21:01:00,
2013-01-26 17:02:00,81.0,66.8,29.92,North,-999,0.0,0.0,62,0.00,,,-99.99,113,WeatherLink 5.4,2013-01-26 21:02:00,
2013-01-26 17:03:00,80.9,66.7,29.92,East,90,2.0,7.0,62,0.00,,,-99.99,113,WeatherLink 5.4,2013-01-26 21:03:00,
2013-01-26 17:04:00,80.9,66.7,29.92,ESE,112,5.0,9.0,62,0.00,,,-99.99,113,WeatherLink 5.4,2013-01-26 21:04:00,
2013-01-26 17:05:00,80.9,67.1,29.92,ESE,112,4.0,7.0,63,0.00,,,-99.99,113,WeatherLink 5.4,2013-01-26 21:05:00,
2013-01-26 17:06:00,80.9,67.1,29.92,ESE,112,6.0,10.0,63,0.00,,,-99.99,114,WeatherLink 5.4,2013-01-26 21:06:00,
2013-01-26 17:07:00,80.9,67.1,29.92,ESE,112,5.0,9.0,63,0.00,,,-99.99,116,WeatherLink 5.4,2013-01-26 21:07:00,
2013-01-26 17:08:00,80.9,67.6,29.92,ESE,112,5.0,9.0,64,0.00,,,-99.99,118,WeatherLink 5.4,2013-01-26 21:08:00,
2013-01-26 17:09:00,80.9,67.6,29.92,ENE,67,1.0,5.0,64,0.00,,,-99.99,120,WeatherLink 5.4,2013-01-26 21:09:00,
2013-01-26 17:10:00,80.9,68.0,29.92,North,-999,0.0,0.0,65,0.00,,,-99.99,121,WeatherLink 5.4,2013-01-26 21:10:00,
2013-01-26 17:11:00,80.7,67.8,29.92,North,-999,0.0,0.0,65,0.00,,,-99.99,127,WeatherLink 5.4,2013-01-26 21:11:00,
2013-01-26 17:12:00,80.7,67.8,29.92,North,-999,0.0,0.0,65,0.00,,,-99.99,132,WeatherLink 5.4,2013-01-26 21:12:00,
2013-01-26 17:13:00,80.7,67.8,29.92,North,-999,0.0,0.0,65,0.00,,,-99.99,132,WeatherLink 5.4,2013-01-26 21:13:00,
2013-01-26 17:14:00,80.7,67.8,29.92,North,-999,0.0,0.0,65,0.00,,,-99.99,134,WeatherLink 5.4,2013-01-26 21:14:00,
2013-01-26 17:15:00,80.7,67.8,29.92,North,-999,0.0,0.0,65,0.00,,,-99.99,134,WeatherLink 5.4,2013-01-26 21:15:00,
2013-01-26 17:16:00,80.7,67.8,29.92,North,-999,0.0,0.0,65,0.00,,,-99.99,132,WeatherLink 5.4,2013-01-26 21:16:00,
2013-01-26 17:17:00,80.7,68.3,29.92,North,-999,0.0,0.0,66,0.00,,,-99.99,128,WeatherLink 5.4,2013-01-26 21:17:00,
2013-01-26 17:18:00,80.7,68.3,29.92,North,-999,0.0,0.0,66,0.00,,,-99.99,125,WeatherLink 5.4,2013-01-26 21:18:00,
2013-01-26 17:19:00,80.7,68.3,29.92,North,-999,0.0,0.0,66,0.00,,,-99.99,121,WeatherLink 5.4,2013-01-26 21:19:00,
2013-01-26 17:20:00,80.7,68.3,29.92,North,-999,0.0,0.0,66,0.00,,,-99.99,120,WeatherLink 5.4,2013-01-26 21:20:00,
2013-01-26 17:21:00,80.7,68.7,29.92,North,-999,0.0,0.0,67,0.00,,,-99.99,117,WeatherLink 5.4,2013-01-26 21:21:00,
2013-01-26 17:22:00,80.7,68.3,29.92,North,-999,0.0,0.0,66,0.00,,,-99.99,116,WeatherLink 5.4,2013-01-26 21:22:00,
2013-01-26 17:23:00,80.5,68.1,29.92,North,-999,0.0,0.0,66,0.00,,,-99.99,114,WeatherLink 5.4,2013-01-26 21:23:00,
2013-01-26 17:24:00,80.5,68.5,29.92,North,-999,0.0,0.0,67,0.00,,,-99.99,116,WeatherLink 5.4,2013-01-26 21:24:00,
2013-01-26 17:25:00,80.5,68.1,29.92,North,-999,0.0,0.0,66,0.00,,,-99.99,111,WeatherLink 5.4,2013-01-26 21:25:00,
2013-01-26 17:26:00,80.5,68.1,29.92,North,-999,0.0,0.0,66,0.00,,,-99.99,108,WeatherLink 5.4,2013-01-26 21:26:00,
2013-01-26 17:27:00,80.5,68.1,29.92,North,-999,0.0,0.0,66,0.00,,,-99.99,102,WeatherLink 5.4,2013-01-26 21:27:00,
2013-01-26 17:28:00,80.3,67.9,29.92,North,-999,0.0,0.0,66,0.00,,,-99.99,95,WeatherLink 5.4,2013-01-26 21:28:00,
2013-01-26 17:29:00,80.3,67.9,29.92,North,-999,0.0,0.0,66,0.00,,,-99.99,90,WeatherLink 5.4,2013-01-26 21:29:00,
2013-01-26 17:30:00,80.3,67.9,29.93,North,-999,0.0,0.0,66,0.00,,,-99.99,84,WeatherLink 5.4,2013-01-26 21:30:00,
2013-01-26 17:31:00,80.3,67.5,29.93,North,-999,0.0,0.0,65,0.00,,,-99.99,79,WeatherLink 5.4,2013-01-26 21:31:00,
2013-01-26 17:32:00,80.3,67.9,29.93,North,-999,0.0,0.0,66,0.00,,,-99.99,72,WeatherLink 5.4,2013-01-26 21:32:00,
2013-01-26 17:33:00,80.3,67.9,29.93,North,-999,0.0,0.0,66,0.00,,,-99.99,69,WeatherLink 5.4,2013-01-26 21:33:00,
2013-01-26 17:34:00,80.3,67.9,29.93,North,-999,0.0,0.0,66,0.00,,,-99.99,63,WeatherLink 5.4,2013-01-26 21:34:00,
2013-01-26 17:35:00,80.2,67.8,29.93,North,-999,0.0,0.0,66,0.00,,,-99.99,60,WeatherLink 5.4,2013-01-26 21:35:00,
2013-01-26 17:36:00,80.1,67.3,29.93,East,90,1.0,4.0,65,0.00,,,-99.99,57,WeatherLink 5.4,2013-01-26 21:36:00,
2013-01-26 17:37:00,80.1,67.7,29.93,North,-999,0.0,0.0,66,0.00,,,-99.99,53,WeatherLink 5.4,2013-01-26 21:37:00,
2013-01-26 17:38:00,80.1,67.7,29.93,North,-999,0.0,0.0,66,0.00,,,-99.99,51,WeatherLink 5.4,2013-01-26 21:38:00,
2013-01-26 17:39:00,80.1,67.7,29.93,North,-999,0.0,0.0,66,0.00,,,-99.99,48,WeatherLink 5.4,2013-01-26 21:39:00,
2013-01-26 17:40:00,80.1,67.7,29.93,North,-999,0.0,0.0,66,0.00,,,-99.99,46,WeatherLink 5.4,2013-01-26 21:40:00,
2013-01-26 17:41:00,80.1,67.7,29.93,North,-999,0.0,0.0,66,0.00,,,-99.99,44,WeatherLink 5.4,2013-01-26 21:41:00,
2013-01-26 17:42:00,79.9,67.5,29.93,ESE,112,1.0,6.0,66,0.00,,,-99.99,42,WeatherLink 5.4,2013-01-26 21:42:00,
2013-01-26 17:43:00,79.9,67.5,29.93,East,90,5.0,10.0,66,0.00,,,-99.99,40,WeatherLink 5.4,2013-01-26 21:43:00,
2013-01-26 17:44:00,79.9,67.5,29.93,East,90,0.0,1.0,66,0.00,,,-99.99,39,WeatherLink 5.4,2013-01-26 21:44:00,
2013-01-26 17:45:00,79.9,68.0,29.93,ESE,112,2.0,4.0,67,0.00,,,-99.99,35,WeatherLink 5.4,2013-01-26 21:45:00,
2013-01-26 17:46:00,79.9,68.0,29.93,ESE,112,4.0,8.0,67,0.00,,,-99.99,32,WeatherLink 5.4,2013-01-26 21:46:00,
2013-01-26 17:47:00,79.9,68.0,29.93,East,90,4.0,7.0,67,0.00,,,-99.99,28,WeatherLink 5.4,2013-01-26 21:47:00,
2013-01-26 17:48:00,79.8,67.9,29.93,ESE,112,1.0,4.0,67,0.00,,,-99.99,26,WeatherLink 5.4,2013-01-26 21:48:00,
2013-01-26 17:49:00,79.8,68.3,29.93,East,90,5.0,10.0,68,0.00,,,-99.99,25,WeatherLink 5.4,2013-01-26 21:49:00,
2013-01-26 17:50:00,79.8,68.3,29.93,ESE,112,3.0,5.0,68,0.00,,,-99.99,25,WeatherLink 5.4,2013-01-26 21:50:00,
2013-01-26 17:51:00,79.8,68.3,29.93,ESE,112,3.0,6.0,68,0.00,,,-99.99,22,WeatherLink 5.4,2013-01-26 21:51:00,
2013-01-26 17:52:00,79.8,68.7,29.93,North,-999,0.0,0.0,69,0.00,,,-99.99,21,WeatherLink 5.4,2013-01-26 21:52:00,
2013-01-26 17:53:00,79.8,68.7,29.93,North,-999,0.0,0.0,69,0.00,,,-99.99,21,WeatherLink 5.4,2013-01-26 21:53:00,
2013-01-26 17:54:00,79.8,68.7,29.93,North,-999,0.0,0.0,69,0.00,,,-99.99,19,WeatherLink 5.4,2013-01-26 21:54:00,
2013-01-26 17:55:00,79.8,68.7,29.93,North,-999,0.0,0.0,69,0.00,,,-99.99,19,WeatherLink 5.4,2013-01-26 21:55:00,
2013-01-26 17:56:00,79.6,68.5,29.93,North,-999,0.0,0.0,69,0.00,,,-99.99,19,WeatherLink 5.4,2013-01-26 21:56:00,
2013-01-26 17:57:00,79.6,69.0,29.93,North,-999,0.0,0.0,70,0.00,,,-99.99,18,WeatherLink 5.4,2013-01-26 21:57:00,
2013-01-26 17:58:00,79.6,69.0,29.93,North,-999,0.0,0.0,70,0.00,,,-99.99,18,WeatherLink 5.4,2013-01-26 21:58:00,
2013-01-26 17:59:00,79.6,69.0,29.93,North,-999,0.0,0.0,70,0.00,,,-99.99,18,WeatherLink 5.4,2013-01-26 21:59:00,
2013-01-26 18:00:00,79.6,69.0,29.93,North,-999,0.0,0.0,70,0.00,,,-99.99,18,WeatherLink 5.4,2013-01-26 22:00:00,
2013-01-26 18:01:00,79.6,69.4,29.93,North,-999,0.0,0.0,71,0.00,,,-99.99,20,WeatherLink 5.4,2013-01-26 22:01:00,
2013-01-26 18:02:00,79.6,69.4,29.93,ESE,112,2.0,6.0,71,0.00,,,-99.99,19,WeatherLink 5.4,2013-01-26 22:02:00,
2013-01-26 18:03:00,79.4,69.2,29.93,ESE,112,0.0,5.0,71,0.00,,,-99.99,18,WeatherLink 5.4,2013-01-26 22:03:00,
2013-01-26 18:04:00,79.4,69.2,29.93,North,-999,0.0,0.0,71,0.00,,,-99.99,18,WeatherLink 5.4,2013-01-26 22:04:00,
2013-01-26 18:05:00,79.4,69.6,29.93,North,-999,0.0,0.0,72,0.00,,,-99.99,18,WeatherLink 5.4,2013-01-26 22:05:00,
2013-01-26 18:06:00,79.4,69.6,29.93,North,-999,0.0,0.0,72,0.00,,,-99.99,17,WeatherLink 5.4,2013-01-26 22:06:00,
2013-01-26 18:07:00,79.4,69.6,29.93,North,-999,0.0,0.0,72,0.00,,,-99.99,12,WeatherLink 5.4,2013-01-26 22:07:00,
2013-01-26 18:08:00,79.4,69.6,29.93,North,-999,0.0,0.0,72,0.00,,,-99.99,12,WeatherLink 5.4,2013-01-26 22:08:00,
2013-01-26 18:09:00,79.4,69.6,29.93,North,-999,0.0,0.0,72,0.00,,,-99.99,11,WeatherLink 5.4,2013-01-26 22:09:00,
2013-01-26 18:10:00,79.3,69.9,29.93,North,-999,0.0,0.0,73,0.00,,,-99.99,11,WeatherLink 5.4,2013-01-26 22:10:00,
2013-01-26 18:11:00,79.2,69.8,29.93,North,-999,0.0,0.0,73,0.00,,,-99.99,9,WeatherLink 5.4,2013-01-26 22:11:00,
2013-01-26 18:12:00,79.2,69.8,29.93,North,-999,0.0,0.0,73,0.00,,,-99.99,7,WeatherLink 5.4,2013-01-26 22:12:00,
2013-01-26 18:13:00,79.2,69.8,29.93,North,-999,0.0,0.0,73,0.00,,,-99.99,7,WeatherLink 5.4,2013-01-26 22:13:00,
2013-01-26 18:14:00,79.2,69.8,29.93,North,-999,0.0,0.0,73,0.00,,,-99.99,5,WeatherLink 5.4,2013-01-26 22:14:00,
2013-01-26 18:15:00,79.1,70.1,29.93,North,-999,0.0,0.0,74,0.00,,,-99.99,5,WeatherLink 5.4,2013-01-26 22:15:00,
2013-01-26 18:16:00,79.0,70.0,29.93,North,-999,0.0,0.0,74,0.00,,,-99.99,5,WeatherLink 5.4,2013-01-26 22:16:00,
2013-01-26 18:17:00,79.0,70.0,29.93,North,-999,0.0,0.0,74,0.00,,,-99.99,5,WeatherLink 5.4,2013-01-26 22:17:00,
2013-01-26 18:18:00,79.0,70.4,29.93,North,-999,0.0,0.0,75,0.00,,,-99.99,5,WeatherLink 5.4,2013-01-26 22:18:00,
2013-01-26 18:19:00,79.0,70.4,29.93,North,-999,0.0,0.0,75,0.00,,,-99.99,5,WeatherLink 5.4,2013-01-26 22:19:00,
2013-01-26 18:20:00,78.9,70.3,29.93,North,-999,0.0,0.0,75,0.00,,,-99.99,0,WeatherLink 5.4,2013-01-26 22:20:00,
2013-01-26 18:21:00,78.8,70.2,29.93,North,-999,0.0,0.0,75,0.00,,,-99.99,0,WeatherLink 5.4,2013-01-26 22:21:00,
2013-01-26 18:22:00,78.8,70.2,29.93,North,-999,0.0,0.0,75,0.00,,,-99.99,0,WeatherLink 5.4,2013-01-26 22:22:00,
2013-01-26 18:23:00,78.8,70.6,29.93,North,-999,0.0,0.0,76,0.00,,,-99.99,0,WeatherLink 5.4,2013-01-26 22:23:00,
2013-01-26 18:24:00,78.8,70.6,29.93,North,-999,0.0,0.0,76,0.00,,,-99.99,0,WeatherLink 5.4,2013-01-26 22:24:00,
2013-01-26 18:25:00,78.8,70.6,29.93,North,-999,0.0,0.0,76,0.00,,,-99.99,0,WeatherLink 5.4,2013-01-26 22:25:00,
2013-01-26 18:26:00,78.6,70.4,29.93,North,-999,0.0,0.0,76,0.00,,,-99.99,0,WeatherLink 5.4,2013-01-26 22:26:00,
2013-01-26 18:27:00,78.6,70.4,29.93,North,-999,0.0,0.0,76,0.00,,,-99.99,0,WeatherLink 5.4,2013-01-26 22:27:00,
2013-01-26 18:28:00,78.6,70.4,29.93,North,-999,0.0,0.0,76,0.00,,,-99.99,0,WeatherLink 5.4,2013-01-26 22:28:00,
2013-01-26 18:29:00,78.6,70.4,29.93,North,-999,0.0,0.0,76,0.00,,,-99.99,0,WeatherLink 5.4,2013-01-26 22:29:00,
2013-01-26 18:30:00,78.6,70.4,29.93,North,-999,0.0,0.0,76,0.00,,,-99.99,0,WeatherLink 5.4,2013-01-26 22:30:00,
2013-01-26 18:31:00,78.5,70.3,29.93,North,-999,0.0,0.0,76,0.00,,,-99.99,0,WeatherLink 5.4,2013-01-26 22:31:00,
2013-01-26 18:32:00,78.5,70.3,29.93,North,-999,0.0,0.0,76,0.00,,,-99.99,0,WeatherLink 5.4,2013-01-26 22:32:00,
2013-01-26 18:33:00,78.5,70.3,29.93,North,-999,0.0,0.0,76,0.00,,,-99.99,0,WeatherLink 5.4,2013-01-26 22:33:00,
2013-01-26 18:34:00,78.5,70.3,29.93,North,-999,0.0,0.0,76,0.00,,,-99.99,0,WeatherLink 5.4,2013-01-26 22:34:00,
2013-01-26 18:35:00,78.5,70.7,29.93,North,-999,0.0,0.0,77,0.00,,,-99.99,0,WeatherLink 5.4,2013-01-26 22:35:00,
2013-01-26 18:36:00,78.3,70.5,29.93,North,-999,0.0,0.0,77,0.00,,,-99.99,0,WeatherLink 5.4,2013-01-26 22:36:00,
2013-01-26 18:37:00,78.3,70.5,29.93,North,-999,0.0,0.0,77,0.00,,,-99.99,0,WeatherLink 5.4,2013-01-26 22:37:00,
2013-01-26 18:38:00,78.3,70.5,29.93,North,-999,0.0,0.0,77,0.00,,,-99.99,0,WeatherLink 5.4,2013-01-26 22:38:00,
2013-01-26 18:39:00,78.3,70.5,29.93,North,-999,0.0,0.0,77,0.00,,,-99.99,0,WeatherLink 5.4,2013-01-26 22:39:00,
2013-01-26 18:40:00,78.3,70.5,29.93,North,-999,0.0,0.0,77,0.00,,,-99.99,0,WeatherLink 5.4,2013-01-26 22:40:00,
2013-01-26 18:41:00,78.3,70.5,29.93,North,-999,0.0,0.0,77,0.00,,,-99.99,0,WeatherLink 5.4,2013-01-26 22:41:00,
2013-01-26 18:42:00,78.3,70.5,29.93,North,-999,0.0,0.0,77,0.00,,,-99.99,0,WeatherLink 5.4,2013-01-26 22:42:00,
2013-01-26 18:43:00,78.2,70.4,29.93,North,-999,0.0,0.0,77,0.00,,,-99.99,0,WeatherLink 5.4,2013-01-26 22:43:00,
2013-01-26 18:44:00,78.1,70.3,29.93,North,-999,0.0,0.0,77,0.00,,,-99.99,0,WeatherLink 5.4,2013-01-26 22:44:00,
2013-01-26 18:45:00,78.1,70.3,29.93,North,-999,0.0,0.0,77,0.00,,,-99.99,0,WeatherLink 5.4,2013-01-26 22:45:00,
2013-01-26 18:46:00,78.1,70.3,29.93,North,-999,0.0,0.0,77,0.00,,,-99.99,0,WeatherLink 5.4,2013-01-26 22:46:00,
2013-01-26 18:47:00,78.1,70.3,29.93,North,-999,0.0,0.0,77,0.00,,,-99.99,0,WeatherLink 5.4,2013-01-26 22:47:00,
2013-01-26 18:48:00,78.1,70.3,29.93,North,-999,0.0,0.0,77,0.00,,,-99.99,0,WeatherLink 5.4,2013-01-26 22:48:00,
2013-01-26 18:49:00,78.1,70.3,29.93,North,-999,0.0,0.0,77,0.00,,,-99.99,0,WeatherLink 5.4,2013-01-26 22:49:00,
2013-01-26 18:50:00,78.1,70.3,29.93,North,-999,0.0,0.0,77,0.00,,,-99.99,0,WeatherLink 5.4,2013-01-26 22:50:00,
2013-01-26 18:51:00,78.1,70.3,29.93,North,-999,0.0,0.0,77,0.00,,,-99.99,0,WeatherLink 5.4,2013-01-26 22:51:00,
2013-01-26 18:52:00,78.1,70.3,29.93,North,-999,0.0,0.0,77,0.00,,,-99.99,0,WeatherLink 5.4,2013-01-26 22:52:00,
2013-01-26 18:53:00,78.1,70.3,29.93,North,-999,0.0,0.0,77,0.00,,,-99.99,0,WeatherLink 5.4,2013-01-26 22:53:00,
2013-01-26 18:54:00,77.9,70.1,29.93,North,-999,0.0,0.0,77,0.00,,,-99.99,0,WeatherLink 5.4,2013-01-26 22:54:00,
2013-01-26 18:55:00,77.9,70.1,29.93,North,-999,0.0,0.0,77,0.00,,,-99.99,0,WeatherLink 5.4,2013-01-26 22:55:00,
2013-01-26 18:56:00,77.9,70.5,29.93,North,-999,0.0,0.0,78,0.00,,,-99.99,0,WeatherLink 5.4,2013-01-26 22:56:00,
2013-01-26 18:57:00,77.9,70.5,29.93,North,-999,0.0,0.0,78,0.00,,,-99.99,0,WeatherLink 5.4,2013-01-26 22:57:00,
2013-01-26 18:58:00,77.9,70.5,29.93,North,-999,0.0,0.0,78,0.00,,,-99.99,0,WeatherLink 5.4,2013-01-26 22:58:00,
2013-01-26 18:59:00,77.9,70.5,29.93,North,-999,0.0,0.0,78,0.00,,,-99.99,0,WeatherLink 5.4,2013-01-26 22:59:00,
2013-01-26 19:00:00,77.9,70.5,29.93,North,-999,0.0,0.0,78,0.00,,,-99.99,0,WeatherLink 5.4,2013-01-26 23:00:00,
2013-01-26 19:01:00,77.7,70.3,29.93,North,-999,0.0,0.0,78,0.00,,,-99.99,0,WeatherLink 5.4,2013-01-26 23:01:00,
2013-01-26 19:02:00,77.7,70.3,29.93,North,-999,0.0,0.0,78,0.00,,,-99.99,0,WeatherLink 5.4,2013-01-26 23:02:00,
2013-01-26 19:03:00,77.7,70.3,29.93,North,-999,0.0,0.0,78,0.00,,,-99.99,0,WeatherLink 5.4,2013-01-26 23:03:00,
2013-01-26 19:04:00,77.7,70.3,29.93,North,-999,0.0,0.0,78,0.00,,,-99.99,0,WeatherLink 5.4,2013-01-26 23:04:00,
2013-01-26 19:05:00,77.7,70.3,29.93,North,-999,0.0,0.0,78,0.00,,,-99.99,0,WeatherLink 5.4,2013-01-26 23:05:00,
2013-01-26 19:06:00,77.7,70.3,29.93,North,-999,0.0,0.0,78,0.00,,,-99.99,0,WeatherLink 5.4,2013-01-26 23:06:00,
2013-01-26 19:07:00,77.7,70.3,29.93,North,-999,0.0,0.0,78,0.00,,,-99.99,0,WeatherLink 5.4,2013-01-26 23:07:00,
2013-01-26 19:08:00,77.7,70.3,29.93,North,-999,0.0,0.0,78,0.00,,,-99.99,0,WeatherLink 5.4,2013-01-26 23:08:00,
2013-01-26 19:09:00,77.7,70.3,29.93,North,-999,0.0,0.0,78,0.00,,,-99.99,0,WeatherLink 5.4,2013-01-26 23:09:00,
2013-01-26 19:10:00,77.6,70.6,29.93,North,-999,0.0,0.0,79,0.00,,,-99.99,0,WeatherLink 5.4,2013-01-26 23:10:00,
2013-01-26 19:11:00,77.6,70.6,29.93,North,-999,0.0,0.0,79,0.00,,,-99.99,0,WeatherLink 5.4,2013-01-26 23:11:00,
2013-01-26 19:12:00,77.6,70.6,29.93,North,-999,0.0,0.0,79,0.00,,,-99.99,0,WeatherLink 5.4,2013-01-26 23:12:00,
2013-01-26 19:13:00,77.6,70.6,29.93,North,-999,0.0,0.0,79,0.00,,,-99.99,0,WeatherLink 5.4,2013-01-26 23:13:00,
2013-01-26 19:14:00,77.6,70.6,29.93,North,-999,0.0,0.0,79,0.00,,,-99.99,0,WeatherLink 5.4,2013-01-26 23:14:00,
2013-01-26 19:15:00,77.6,70.6,29.94,North,-999,0.0,0.0,79,0.00,,,-99.99,0,WeatherLink 5.4,2013-01-26 23:15:00,
2013-01-26 19:16:00,77.6,70.6,29.94,North,-999,0.0,0.0,79,0.00,,,-99.99,0,WeatherLink 5.4,2013-01-26 23:16:00,
2013-01-26 19:17:00,77.6,70.6,29.94,North,-999,0.0,0.0,79,0.00,,,-99.99,0,WeatherLink 5.4,2013-01-26 23:17:00,
2013-01-26 19:18:00,77.6,70.6,29.94,North,-999,0.0,0.0,79,0.00,,,-99.99,0,WeatherLink 5.4,2013-01-26 23:18:00,
2013-01-26 19:19:00,77.5,70.5,29.94,North,-999,0.0,0.0,79,0.00,,,-99.99,0,WeatherLink 5.4,2013-01-26 23:19:00,
2013-01-26 19:20:00,77.4,70.4,29.94,North,-999,0.0,0.0,79,0.00,,,-99.99,0,WeatherLink 5.4,2013-01-26 23:20:00,
2013-01-26 19:21:00,77.4,70.4,29.94,North,-999,0.0,0.0,79,0.00,,,-99.99,0,WeatherLink 5.4,2013-01-26 23:21:00,
2013-01-26 19:22:00,77.4,70.4,29.94,North,-999,0.0,0.0,79,0.00,,,-99.99,0,WeatherLink 5.4,2013-01-26 23:22:00,
2013-01-26 19:23:00,77.4,70.4,29.94,North,-999,0.0,0.0,79,0.00,,,-99.99,0,WeatherLink 5.4,2013-01-26 23:23:00,
2013-01-26 19:24:00,77.4,70.4,29.94,North,-999,0.0,0.0,79,0.00,,,-99.99,0,WeatherLink 5.4,2013-01-26 23:24:00,
2013-01-26 19:25:00,77.4,70.4,29.94,North,-999,0.0,0.0,79,0.00,,,-99.99,0,WeatherLink 5.4,2013-01-26 23:25:00,
2013-01-26 19:26:00,77.4,70.4,29.94,North,-999,0.0,0.0,79,0.00,,,-99.99,0,WeatherLink 5.4,2013-01-26 23:26:00,
2013-01-26 19:27:00,77.4,70.4,29.94,North,-999,0.0,0.0,79,0.00,,,-99.99,0,WeatherLink 5.4,2013-01-26 23:27:00,
2013-01-26 19:28:00,77.4,70.4,29.94,North,-999,0.0,0.0,79,0.00,,,-99.99,0,WeatherLink 5.4,2013-01-26 23:28:00,
2013-01-26 19:29:00,77.4,70.4,29.94,North,-999,0.0,0.0,79,0.00,,,-99.99,0,WeatherLink 5.4,2013-01-26 23:29:00,
2013-01-26 19:30:00,77.4,70.4,29.94,North,-999,0.0,0.0,79,0.00,,,-99.99,0,WeatherLink 5.4,2013-01-26 23:30:00,
2013-01-26 19:31:00,77.4,70.4,29.94,North,-999,0.0,0.0,79,0.00,,,-99.99,0,WeatherLink 5.4,2013-01-26 23:31:00,
2013-01-26 19:32:00,77.4,70.4,29.94,North,-999,0.0,0.0,79,0.00,,,-99.99,0,WeatherLink 5.4,2013-01-26 23:32:00,
2013-01-26 19:33:00,77.4,70.4,29.94,North,-999,0.0,0.0,79,0.00,,,-99.99,0,WeatherLink 5.4,2013-01-26 23:33:00,
2013-01-26 19:34:00,77.4,70.4,29.94,North,-999,0.0,0.0,79,0.00,,,-99.99,0,WeatherLink 5.4,2013-01-26 23:34:00,
2013-01-26 19:35:00,77.4,70.4,29.94,North,-999,0.0,0.0,79,0.00,,,-99.99,0,WeatherLink 5.4,2013-01-26 23:35:00,
2013-01-26 19:36:00,77.4,70.4,29.94,North,-999,0.0,0.0,79,0.00,,,-99.99,0,WeatherLink 5.4,2013-01-26 23:36:00,
2013-01-26 19:37:00,77.4,70.7,29.94,North,-999,0.0,0.0,80,0.00,,,-99.99,0,WeatherLink 5.4,2013-01-26 23:37:00,
2013-01-26 19:38:00,77.4,70.7,29.94,North,-999,0.0,0.0,80,0.00,,,-99.99,0,WeatherLink 5.4,2013-01-26 23:38:00,
2013-01-26 19:39:00,77.4,70.7,29.94,North,-999,0.0,0.0,80,0.00,,,-99.99,0,WeatherLink 5.4,2013-01-26 23:39:00,
2013-01-26 19:40:00,77.4,70.7,29.94,North,-999,0.0,0.0,80,0.00,,,-99.99,0,WeatherLink 5.4,2013-01-26 23:40:00,
2013-01-26 19:41:00,77.4,70.7,29.94,North,-999,0.0,0.0,80,0.00,,,-99.99,0,WeatherLink 5.4,2013-01-26 23:41:00,
2013-01-26 19:42:00,77.4,70.7,29.94,North,-999,0.0,0.0,80,0.00,,,-99.99,0,WeatherLink 5.4,2013-01-26 23:42:00,
2013-01-26 19:43:00,77.3,70.6,29.94,North,-999,0.0,0.0,80,0.00,,,-99.99,0,WeatherLink 5.4,2013-01-26 23:43:00,
2013-01-26 19:44:00,77.2,70.5,29.94,North,-999,0.0,0.0,80,0.00,,,-99.99,0,WeatherLink 5.4,2013-01-26 23:44:00,
2013-01-26 19:45:00,77.2,70.5,29.94,North,-999,0.0,0.0,80,0.00,,,-99.99,0,WeatherLink 5.4,2013-01-26 23:45:00,
2013-01-26 19:46:00,77.2,70.5,29.94,North,-999,0.0,0.0,80,0.00,,,-99.99,0,WeatherLink 5.4,2013-01-26 23:46:00,
2013-01-26 19:47:00,77.2,70.5,29.94,North,-999,0.0,0.0,80,0.00,,,-99.99,0,WeatherLink 5.4,2013-01-26 23:47:00,
2013-01-26 19:48:00,77.2,70.5,29.94,North,-999,0.0,0.0,80,0.00,,,-99.99,0,WeatherLink 5.4,2013-01-26 23:48:00,
2013-01-26 19:49:00,77.2,70.5,29.94,North,-999,0.0,0.0,80,0.00,,,-99.99,0,WeatherLink 5.4,2013-01-26 23:49:00,
2013-01-26 19:50:00,77.2,70.5,29.94,North,-999,0.0,0.0,80,0.00,,,-99.99,0,WeatherLink 5.4,2013-01-26 23:50:00,
2013-01-26 19:51:00,77.2,70.5,29.94,North,-999,0.0,0.0,80,0.00,,,-99.99,0,WeatherLink 5.4,2013-01-26 23:51:00,
2013-01-26 19:52:00,77.2,70.5,29.94,North,-999,0.0,0.0,80,0.00,,,-99.99,0,WeatherLink 5.4,2013-01-26 23:52:00,
2013-01-26 19:53:00,77.2,70.5,29.94,North,-999,0.0,0.0,80,0.00,,,-99.99,0,WeatherLink 5.4,2013-01-26 23:53:00,
2013-01-26 19:54:00,77.2,70.5,29.94,North,-999,0.0,0.0,80,0.00,,,-99.99,0,WeatherLink 5.4,2013-01-26 23:54:00,
2013-01-26 19:55:00,77.2,70.5,29.94,North,-999,0.0,0.0,80,0.00,,,-99.99,0,WeatherLink 5.4,2013-01-26 23:55:00,
2013-01-26 19:56:00,77.2,70.5,29.94,North,-999,0.0,0.0,80,0.00,,,-99.99,0,WeatherLink 5.4,2013-01-26 23:56:00,
2013-01-26 19:57:00,77.0,70.7,29.94,North,-999,0.0,0.0,81,0.00,,,-99.99,0,WeatherLink 5.4,2013-01-26 23:57:00,
2013-01-26 19:58:00,77.0,70.7,29.94,North,-999,0.0,0.0,81,0.00,,,-99.99,0,WeatherLink 5.4,2013-01-26 23:58:00,
2013-01-26 19:59:00,77.0,70.7,29.94,North,-999,0.0,0.0,81,0.00,,,-99.99,0,WeatherLink 5.4,2013-01-26 23:59:00,
2013-01-26 20:00:00,77.0,70.7,29.94,North,-999,0.0,0.0,81,0.00,,,-99.99,0,WeatherLink 5.4,2013-01-27 00:00:00,
2013-01-26 20:01:00,77.0,70.7,29.94,North,-999,0.0,0.0,81,0.00,,,-99.99,0,WeatherLink 5.4,2013-01-27 00:01:00,
2013-01-26 20:02:00,77.0,70.7,29.94,North,-999,0.0,0.0,81,0.00,,,-99.99,0,WeatherLink 5.4,2013-01-27 00:02:00,
2013-01-26 20:03:00,77.0,70.7,29.94,North,-999,0.0,0.0,81,0.00,,,-99.99,0,WeatherLink 5.4,2013-01-27 00:03:00,
2013-01-26 20:04:00,77.0,70.7,29.94,North,-999,0.0,0.0,81,0.00,,,-99.99,0,WeatherLink 5.4,2013-01-27 00:04:00,
2013-01-26 20:05:00,77.0,70.7,29.94,North,-999,0.0,0.0,81,0.00,,,-99.99,0,WeatherLink 5.4,2013-01-27 00:05:00,
2013-01-26 20:06:00,77.0,70.7,29.94,North,-999,0.0,0.0,81,0.00,,,-99.99,0,WeatherLink 5.4,2013-01-27 00:06:00,
2013-01-26 20:07:00,77.0,70.7,29.94,North,-999,0.0,0.0,81,0.00,,,-99.99,0,WeatherLink 5.4,2013-01-27 00:07:00,
2013-01-26 20:08:00,77.0,70.7,29.94,North,-999,0.0,0.0,81,0.00,,,-99.99,0,WeatherLink 5.4,2013-01-27 00:08:00,
2013-01-26 20:09:00,76.8,70.5,29.94,North,-999,0.0,0.0,81,0.00,,,-99.99,0,WeatherLink 5.4,2013-01-27 00:09:00,
2013-01-26 20:10:00,76.8,70.5,29.94,North,-999,0.0,0.0,81,0.00,,,-99.99,0,WeatherLink 5.4,2013-01-27 00:10:00,
2013-01-26 20:11:00,76.8,70.5,29.94,North,-999,0.0,0.0,81,0.00,,,-99.99,0,WeatherLink 5.4,2013-01-27 00:11:00,
2013-01-26 20:12:00,76.8,70.5,29.94,North,-999,0.0,0.0,81,0.00,,,-99.99,0,WeatherLink 5.4,2013-01-27 00:12:00,
2013-01-26 20:13:00,76.8,70.5,29.94,North,-999,0.0,0.0,81,0.00,,,-99.99,0,WeatherLink 5.4,2013-01-27 00:13:00,
2013-01-26 20:14:00,76.8,70.5,29.94,North,-999,0.0,0.0,81,0.00,,,-99.99,0,WeatherLink 5.4,2013-01-27 00:14:00,
2013-01-26 20:15:00,76.8,70.5,29.94,North,-999,0.0,0.0,81,0.00,,,-99.99,0,WeatherLink 5.4,2013-01-27 00:15:00,
2013-01-26 20:16:00,76.8,70.5,29.94,North,-999,0.0,0.0,81,0.00,,,-99.99,0,WeatherLink 5.4,2013-01-27 00:16:00,
2013-01-26 20:17:00,76.8,70.9,29.94,North,-999,0.0,0.0,82,0.00,,,-99.99,0,WeatherLink 5.4,2013-01-27 00:17:00,
2013-01-26 20:18:00,76.8,70.9,29.94,North,-999,0.0,0.0,82,0.00,,,-99.99,0,WeatherLink 5.4,2013-01-27 00:18:00,
2013-01-26 20:19:00,76.8,70.9,29.94,North,-999,0.0,0.0,82,0.00,,,-99.99,0,WeatherLink 5.4,2013-01-27 00:19:00,
2013-01-26 20:20:00,76.8,70.9,29.94,North,-999,0.0,0.0,82,0.00,,,-99.99,0,WeatherLink 5.4,2013-01-27 00:20:00,
2013-01-26 20:21:00,76.8,70.9,29.94,North,-999,0.0,0.0,82,0.00,,,-99.99,0,WeatherLink 5.4,2013-01-27 00:21:00,
2013-01-26 20:22:00,76.8,70.9,29.94,North,-999,0.0,0.0,82,0.00,,,-99.99,0,WeatherLink 5.4,2013-01-27 00:22:00,
2013-01-26 20:23:00,76.8,70.9,29.94,North,-999,0.0,0.0,82,0.00,,,-99.99,0,WeatherLink 5.4,2013-01-27 00:23:00,
2013-01-26 20:24:00,76.8,70.9,29.94,North,-999,0.0,0.0,82,0.00,,,-99.99,0,WeatherLink 5.4,2013-01-27 00:24:00,
2013-01-26 20:25:00,76.7,70.8,29.94,North,-999,0.0,0.0,82,0.00,,,-99.99,0,WeatherLink 5.4,2013-01-27 00:25:00,
2013-01-26 20:26:00,76.7,70.8,29.94,North,-999,0.0,0.0,82,0.00,,,-99.99,0,WeatherLink 5.4,2013-01-27 00:26:00,
2013-01-26 20:27:00,76.7,70.8,29.94,North,-999,0.0,0.0,82,0.00,,,-99.99,0,WeatherLink 5.4,2013-01-27 00:27:00,
2013-01-26 20:28:00,76.7,70.8,29.94,North,-999,0.0,0.0,82,0.00,,,-99.99,0,WeatherLink 5.4,2013-01-27 00:28:00,
2013-01-26 20:29:00,76.7,70.8,29.94,North,-999,0.0,0.0,82,0.00,,,-99.99,0,WeatherLink 5.4,2013-01-27 00:29:00,
2013-01-26 20:30:00,76.7,70.8,29.95,North,-999,0.0,0.0,82,0.00,,,-99.99,0,WeatherLink 5.4,2013-01-27 00:30:00,
2013-01-26 20:31:00,76.7,70.8,29.95,North,-999,0.0,0.0,82,0.00,,,-99.99,0,WeatherLink 5.4,2013-01-27 00:31:00,
2013-01-26 20:32:00,76.7,71.1,29.95,North,-999,0.0,0.0,83,0.00,,,-99.99,0,WeatherLink 5.4,2013-01-27 00:32:00,
2013-01-26 20:33:00,76.6,71.0,29.95,North,-999,0.0,0.0,83,0.00,,,-99.99,0,WeatherLink 5.4,2013-01-27 00:33:00,
2013-01-26 20:34:00,76.5,70.9,29.95,North,-999,0.0,0.0,83,0.00,,,-99.99,0,WeatherLink 5.4,2013-01-27 00:34:00,
2013-01-26 20:35:00,76.5,70.9,29.95,North,-999,0.0,0.0,83,0.00,,,-99.99,0,WeatherLink 5.4,2013-01-27 00:35:00,
2013-01-26 20:36:00,76.5,70.9,29.95,North,-999,0.0,0.0,83,0.00,,,-99.99,0,WeatherLink 5.4,2013-01-27 00:36:00,
2013-01-26 20:37:00,76.5,70.9,29.95,North,-999,0.0,0.0,83,0.00,,,-99.99,0,WeatherLink 5.4,2013-01-27 00:37:00,
2013-01-26 20:38:00,76.5,70.9,29.95,North,-999,0.0,0.0,83,0.00,,,-99.99,0,WeatherLink 5.4,2013-01-27 00:38:00,
2013-01-26 20:39:00,76.5,70.9,29.95,North,-999,0.0,0.0,83,0.00,,,-99.99,0,WeatherLink 5.4,2013-01-27 00:39:00,
2013-01-26 20:40:00,76.5,70.9,29.95,North,-999,0.0,0.0,83,0.00,,,-99.99,0,WeatherLink 5.4,2013-01-27 00:40:00,
2013-01-26 20:41:00,76.5,70.9,29.95,North,-999,0.0,0.0,83,0.00,,,-99.99,0,WeatherLink 5.4,2013-01-27 00:41:00,
2013-01-26 20:42:00,76.5,70.9,29.95,North,-999,0.0,0.0,83,0.00,,,-99.99,0,WeatherLink 5.4,2013-01-27 00:42:00,
2013-01-26 20:43:00,76.5,70.9,29.95,North,-999,0.0,0.0,83,0.00,,,-99.99,0,WeatherLink 5.4,2013-01-27 00:43:00,
2013-01-26 20:44:00,76.5,70.9,29.95,North,-999,0.0,0.0,83,0.00,,,-99.99,0,WeatherLink 5.4,2013-01-27 00:44:00,
2013-01-26 20:45:00,76.3,70.8,29.95,North,-999,0.0,0.0,83,0.00,,,-99.99,0,WeatherLink 5.4,2013-01-27 00:45:00,
2013-01-26 20:46:00,76.3,70.8,29.95,North,-999,0.0,0.0,83,0.00,,,-99.99,0,WeatherLink 5.4,2013-01-27 00:46:00,
2013-01-26 20:47:00,76.3,70.8,29.95,North,-999,0.0,0.0,83,0.00,,,-99.99,0,WeatherLink 5.4,2013-01-27 00:47:00,
2013-01-26 20:48:00,76.3,70.8,29.95,North,-999,0.0,0.0,83,0.00,,,-99.99,0,WeatherLink 5.4,2013-01-27 00:48:00,
2013-01-26 20:49:00,76.3,70.8,29.95,North,-999,0.0,0.0,83,0.00,,,-99.99,0,WeatherLink 5.4,2013-01-27 00:49:00,
2013-01-26 20:50:00,76.3,70.8,29.95,North,-999,0.0,0.0,83,0.00,,,-99.99,0,WeatherLink 5.4,2013-01-27 00:50:00,
2013-01-26 20:51:00,76.3,70.8,29.95,North,-999,0.0,0.0,83,0.00,,,-99.99,0,WeatherLink 5.4,2013-01-27 00:51:00,
2013-01-26 20:52:00,76.3,70.8,29.95,North,-999,0.0,0.0,83,0.00,,,-99.99,0,WeatherLink 5.4,2013-01-27 00:52:00,
2013-01-26 20:53:00,76.3,70.8,29.95,North,-999,0.0,0.0,83,0.00,,,-99.99,0,WeatherLink 5.4,2013-01-27 00:53:00,
2013-01-26 20:54:00,76.3,70.8,29.95,North,-999,0.0,0.0,83,0.00,,,-99.99,0,WeatherLink 5.4,2013-01-27 00:54:00,
2013-01-26 20:55:00,76.3,71.1,29.95,North,-999,0.0,0.0,84,0.00,,,-99.99,0,WeatherLink 5.4,2013-01-27 00:55:00,
2013-01-26 20:56:00,76.3,71.1,29.95,North,-999,0.0,0.0,84,0.00,,,-99.99,0,WeatherLink 5.4,2013-01-27 00:56:00,
2013-01-26 20:57:00,76.3,71.1,29.95,North,-999,0.0,0.0,84,0.00,,,-99.99,0,WeatherLink 5.4,2013-01-27 00:57:00,
2013-01-26 20:58:00,76.2,71.0,29.95,North,-999,0.0,0.0,84,0.00,,,-99.99,0,WeatherLink 5.4,2013-01-27 00:58:00,
2013-01-26 20:59:00,76.1,70.9,29.95,North,-999,0.0,0.0,84,0.00,,,-99.99,0,WeatherLink 5.4,2013-01-27 00:59:00,
2013-01-26 21:00:00,76.1,70.9,29.95,North,-999,0.0,0.0,84,0.00,,,-99.99,0,WeatherLink 5.4,2013-01-27 01:00:00,
2013-01-26 21:01:00,76.1,70.9,29.95,North,-999,0.0,0.0,84,0.00,,,-99.99,0,WeatherLink 5.4,2013-01-27 01:01:00,
2013-01-26 21:02:00,76.1,70.9,29.95,North,-999,0.0,0.0,84,0.00,,,-99.99,0,WeatherLink 5.4,2013-01-27 01:02:00,
2013-01-26 21:03:00,76.1,70.9,29.95,North,-999,0.0,0.0,84,0.00,,,-99.99,0,WeatherLink 5.4,2013-01-27 01:03:00,
2013-01-26 21:04:00,76.1,70.9,29.95,North,-999,0.0,0.0,84,0.00,,,-99.99,0,WeatherLink 5.4,2013-01-27 01:04:00,
2013-01-26 21:05:00,76.1,70.9,29.95,North,-999,0.0,0.0,84,0.00,,,-99.99,0,WeatherLink 5.4,2013-01-27 01:05:00,
2013-01-26 21:06:00,76.1,70.9,29.95,North,-999,0.0,0.0,84,0.00,,,-99.99,0,WeatherLink 5.4,2013-01-27 01:06:00,
2013-01-26 21:07:00,76.1,70.9,29.95,North,-999,0.0,0.0,84,0.00,,,-99.99,0,WeatherLink 5.4,2013-01-27 01:07:00,
2013-01-26 21:08:00,76.1,70.9,29.95,North,-999,0.0,0.0,84,0.00,,,-99.99,0,WeatherLink 5.4,2013-01-27 01:08:00,
2013-01-26 21:09:00,76.1,70.9,29.95,North,-999,0.0,0.0,84,0.00,,,-99.99,0,WeatherLink 5.4,2013-01-27 01:09:00,
2013-01-26 21:10:00,76.1,70.9,29.95,North,-999,0.0,0.0,84,0.00,,,-99.99,0,WeatherLink 5.4,2013-01-27 01:10:00,
2013-01-26 21:11:00,76.0,70.8,29.95,North,-999,0.0,0.0,84,0.00,,,-99.99,0,WeatherLink 5.4,2013-01-27 01:11:00,
2013-01-26 21:12:00,76.0,70.8,29.95,North,-999,0.0,0.0,84,0.00,,,-99.99,0,WeatherLink 5.4,2013-01-27 01:12:00,
2013-01-26 21:13:00,76.0,70.8,29.95,North,-999,0.0,0.0,84,0.00,,,-99.99,0,WeatherLink 5.4,2013-01-27 01:13:00,
2013-01-26 21:14:00,76.0,70.8,29.95,North,-999,0.0,0.0,84,0.00,,,-99.99,0,WeatherLink 5.4,2013-01-27 01:14:00,
2013-01-26 21:15:00,76.0,70.8,29.95,North,-999,0.0,0.0,84,0.00,,,-99.99,0,WeatherLink 5.4,2013-01-27 01:15:00,
2013-01-26 21:16:00,76.0,70.8,29.95,North,-999,0.0,0.0,84,0.00,,,-99.99,0,WeatherLink 5.4,2013-01-27 01:16:00,
2013-01-26 21:17:00,76.0,70.8,29.95,North,-999,0.0,0.0,84,0.00,,,-99.99,0,WeatherLink 5.4,2013-01-27 01:17:00,
2013-01-26 21:18:00,76.0,70.8,29.95,North,-999,0.0,0.0,84,0.00,,,-99.99,0,WeatherLink 5.4,2013-01-27 01:18:00,
2013-01-26 21:19:00,76.0,70.8,29.95,North,-999,0.0,0.0,84,0.00,,,-99.99,0,WeatherLink 5.4,2013-01-27 01:19:00,
2013-01-26 21:20:00,76.0,70.8,29.95,North,-999,0.0,0.0,84,0.00,,,-99.99,0,WeatherLink 5.4,2013-01-27 01:20:00,
2013-01-26 21:21:00,76.0,70.8,29.95,North,-999,0.0,0.0,84,0.00,,,-99.99,0,WeatherLink 5.4,2013-01-27 01:21:00,
2013-01-26 21:22:00,76.0,70.8,29.95,North,-999,0.0,0.0,84,0.00,,,-99.99,0,WeatherLink 5.4,2013-01-27 01:22:00,
2013-01-26 21:23:00,76.0,70.8,29.95,North,-999,0.0,0.0,84,0.00,,,-99.99,0,WeatherLink 5.4,2013-01-27 01:23:00,
2013-01-26 21:24:00,75.8,70.6,29.95,North,-999,0.0,0.0,84,0.00,,,-99.99,0,WeatherLink 5.4,2013-01-27 01:24:00,
2013-01-26 21:25:00,75.8,70.6,29.95,North,-999,0.0,0.0,84,0.00,,,-99.99,0,WeatherLink 5.4,2013-01-27 01:25:00,
2013-01-26 21:26:00,75.8,70.6,29.95,North,-999,0.0,0.0,84,0.00,,,-99.99,0,WeatherLink 5.4,2013-01-27 01:26:00,
2013-01-26 21:27:00,75.8,70.6,29.95,North,-999,0.0,0.0,84,0.00,,,-99.99,0,WeatherLink 5.4,2013-01-27 01:27:00,
2013-01-26 21:28:00,75.8,70.6,29.95,North,-999,0.0,0.0,84,0.00,,,-99.99,0,WeatherLink 5.4,2013-01-27 01:28:00,
2013-01-26 21:29:00,75.8,71.0,29.95,North,-999,0.0,0.0,85,0.00,,,-99.99,0,WeatherLink 5.4,2013-01-27 01:29:00,
2013-01-26 21:30:00,75.8,71.0,29.95,North,-999,0.0,0.0,85,0.00,,,-99.99,0,WeatherLink 5.4,2013-01-27 01:30:00,
2013-01-26 21:31:00,75.8,71.0,29.95,North,-999,0.0,0.0,85,0.00,,,-99.99,0,WeatherLink 5.4,2013-01-27 01:31:00,
2013-01-26 21:32:00,75.8,71.0,29.95,North,-999,0.0,0.0,85,0.00,,,-99.99,0,WeatherLink 5.4,2013-01-27 01:32:00,
2013-01-26 21:33:00,75.8,71.0,29.95,North,-999,0.0,0.0,85,0.00,,,-99.99,0,WeatherLink 5.4,2013-01-27 01:33:00,
2013-01-26 21:34:00,75.8,71.0,29.95,North,-999,0.0,0.0,85,0.00,,,-99.99,0,WeatherLink 5.4,2013-01-27 01:34:00,
2013-01-26 21:35:00,75.8,71.0,29.95,North,-999,0.0,0.0,85,0.00,,,-99.99,0,WeatherLink 5.4,2013-01-27 01:35:00,
2013-01-26 21:36:00,75.7,70.9,29.95,North,-999,0.0,0.0,85,0.00,,,-99.99,0,WeatherLink 5.4,2013-01-27 01:36:00,
2013-01-26 21:37:00,75.6,70.8,29.95,North,-999,0.0,0.0,85,0.00,,,-99.99,0,WeatherLink 5.4,2013-01-27 01:37:00,
2013-01-26 21:38:00,75.6,70.8,29.95,North,-999,0.0,0.0,85,0.00,,,-99.99,0,WeatherLink 5.4,2013-01-27 01:38:00,
2013-01-26 21:39:00,75.6,70.8,29.95,North,-999,0.0,0.0,85,0.00,,,-99.99,0,WeatherLink 5.4,2013-01-27 01:39:00,
2013-01-26 21:40:00,75.6,70.8,29.95,North,-999,0.0,0.0,85,0.00,,,-99.99,0,WeatherLink 5.4,2013-01-27 01:40:00,
2013-01-26 21:41:00,75.6,70.8,29.95,North,-999,0.0,0.0,85,0.00,,,-99.99,0,WeatherLink 5.4,2013-01-27 01:41:00,
2013-01-26 21:42:00,75.6,70.8,29.95,North,-999,0.0,0.0,85,0.00,,,-99.99,0,WeatherLink 5.4,2013-01-27 01:42:00,
2013-01-26 21:43:00,75.6,70.8,29.95,North,-999,0.0,0.0,85,0.00,,,-99.99,0,WeatherLink 5.4,2013-01-27 01:43:00,
2013-01-26 21:44:00,75.6,70.8,29.95,North,-999,0.0,0.0,85,0.00,,,-99.99,0,WeatherLink 5.4,2013-01-27 01:44:00,
2013-01-26 21:45:00,75.5,70.7,29.96,North,-999,0.0,0.0,85,0.00,,,-99.99,0,WeatherLink 5.4,2013-01-27 01:45:00,
2013-01-26 21:46:00,75.4,70.6,29.96,North,-999,0.0,0.0,85,0.00,,,-99.99,0,WeatherLink 5.4,2013-01-27 01:46:00,
2013-01-26 21:47:00,75.4,70.6,29.96,North,-999,0.0,0.0,85,0.00,,,-99.99,0,WeatherLink 5.4,2013-01-27 01:47:00,
2013-01-26 21:48:00,75.4,70.6,29.96,North,-999,0.0,0.0,85,0.00,,,-99.99,0,WeatherLink 5.4,2013-01-27 01:48:00,
2013-01-26 21:49:00,75.4,70.6,29.96,North,-999,0.0,0.0,85,0.00,,,-99.99,0,WeatherLink 5.4,2013-01-27 01:49:00,
2013-01-26 21:50:00,75.4,70.6,29.96,North,-999,0.0,0.0,85,0.00,,,-99.99,0,WeatherLink 5.4,2013-01-27 01:50:00,
2013-01-26 21:51:00,75.4,70.6,29.96,North,-999,0.0,0.0,85,0.00,,,-99.99,0,WeatherLink 5.4,2013-01-27 01:51:00,
2013-01-26 21:52:00,75.4,70.6,29.96,North,-999,0.0,0.0,85,0.00,,,-99.99,0,WeatherLink 5.4,2013-01-27 01:52:00,
2013-01-26 21:53:00,75.4,70.6,29.96,North,-999,0.0,0.0,85,0.00,,,-99.99,0,WeatherLink 5.4,2013-01-27 01:53:00,
2013-01-26 21:54:00,75.4,70.6,29.96,North,-999,0.0,0.0,85,0.00,,,-99.99,0,WeatherLink 5.4,2013-01-27 01:54:00,
2013-01-26 21:55:00,75.3,70.8,29.96,North,-999,0.0,0.0,86,0.00,,,-99.99,0,WeatherLink 5.4,2013-01-27 01:55:00,
2013-01-26 21:56:00,75.3,70.8,29.96,North,-999,0.0,0.0,86,0.00,,,-99.99,0,WeatherLink 5.4,2013-01-27 01:56:00,
2013-01-26 21:57:00,75.3,70.8,29.96,North,-999,0.0,0.0,86,0.00,,,-99.99,0,WeatherLink 5.4,2013-01-27 01:57:00,
2013-01-26 21:58:00,75.3,70.8,29.96,North,-999,0.0,0.0,86,0.00,,,-99.99,0,WeatherLink 5.4,2013-01-27 01:58:00,
2013-01-26 21:59:00,75.3,70.8,29.96,North,-999,0.0,0.0,86,0.00,,,-99.99,0,WeatherLink 5.4,2013-01-27 01:59:00,
2013-01-26 22:00:00,75.3,70.8,29.96,North,-999,0.0,0.0,86,0.00,,,-99.99,0,WeatherLink 5.4,2013-01-27 02:00:00,
2013-01-26 22:01:00,75.3,70.8,29.96,North,-999,0.0,0.0,86,0.00,,,-99.99,0,WeatherLink 5.4,2013-01-27 02:01:00,
2013-01-26 22:02:00,75.3,70.8,29.96,North,-999,0.0,0.0,86,0.00,,,-99.99,0,WeatherLink 5.4,2013-01-27 02:02:00,
2013-01-26 22:03:00,75.3,70.8,29.96,North,-999,0.0,0.0,86,0.00,,,-99.99,0,WeatherLink 5.4,2013-01-27 02:03:00,
2013-01-26 22:04:00,75.2,70.7,29.96,North,-999,0.0,0.0,86,0.00,,,-99.99,0,WeatherLink 5.4,2013-01-27 02:04:00,
2013-01-26 22:06:00,75.1,70.6,29.96,North,-999,0.0,0.0,86,0.00,,,-99.99,0,WeatherLink 5.4,2013-01-27 02:06:00,
2013-01-26 22:07:00,75.1,70.6,29.96,North,-999,0.0,0.0,86,0.00,,,-99.99,0,WeatherLink 5.4,2013-01-27 02:07:00,
2013-01-26 22:08:00,75.1,70.6,29.96,North,-999,0.0,0.0,86,0.00,,,-99.99,0,WeatherLink 5.4,2013-01-27 02:08:00,
2013-01-26 22:09:00,75.1,70.6,29.96,North,-999,0.0,0.0,86,0.00,,,-99.99,0,WeatherLink 5.4,2013-01-27 02:09:00,
2013-01-26 22:10:00,75.1,70.6,29.96,North,-999,0.0,0.0,86,0.00,,,-99.99,0,WeatherLink 5.4,2013-01-27 02:10:00,
2013-01-26 22:11:00,75.1,70.6,29.96,North,-999,0.0,0.0,86,0.00,,,-99.99,0,WeatherLink 5.4,2013-01-27 02:11:00,
2013-01-26 22:12:00,75.1,70.6,29.96,North,-999,0.0,0.0,86,0.00,,,-99.99,0,WeatherLink 5.4,2013-01-27 02:12:00,
2013-01-26 22:13:00,75.1,70.6,29.96,North,-999,0.0,0.0,86,0.00,,,-99.99,0,WeatherLink 5.4,2013-01-27 02:13:00,
2013-01-26 22:14:00,75.1,70.6,29.96,North,-999,0.0,0.0,86,0.00,,,-99.99,0,WeatherLink 5.4,2013-01-27 02:14:00,
2013-01-26 22:15:00,75.1,70.6,29.96,North,-999,0.0,0.0,86,0.00,,,-99.99,0,WeatherLink 5.4,2013-01-27 02:15:00,
2013-01-26 22:16:00,75.1,70.6,29.96,North,-999,0.0,0.0,86,0.00,,,-99.99,0,WeatherLink 5.4,2013-01-27 02:16:00,
2013-01-26 22:17:00,74.9,70.4,29.96,North,-999,0.0,0.0,86,0.00,,,-99.99,0,WeatherLink 5.4,2013-01-27 02:17:00,
2013-01-26 22:18:00,74.9,70.4,29.96,North,-999,0.0,0.0,86,0.00,,,-99.99,0,WeatherLink 5.4,2013-01-27 02:18:00,
2013-01-26 22:19:00,74.9,70.4,29.96,North,-999,0.0,0.0,86,0.00,,,-99.99,0,WeatherLink 5.4,2013-01-27 02:19:00,
2013-01-26 22:20:00,74.9,70.4,29.96,North,-999,0.0,0.0,86,0.00,,,-99.99,0,WeatherLink 5.4,2013-01-27 02:20:00,
2013-01-26 22:21:00,74.9,70.4,29.96,North,-999,0.0,0.0,86,0.00,,,-99.99,0,WeatherLink 5.4,2013-01-27 02:21:00,
2013-01-26 22:22:00,74.9,70.4,29.96,North,-999,0.0,0.0,86,0.00,,,-99.99,0,WeatherLink 5.4,2013-01-27 02:22:00,
2013-01-26 22:23:00,74.9,70.8,29.96,North,-999,0.0,0.0,87,0.00,,,-99.99,0,WeatherLink 5.4,2013-01-27 02:23:00,
2013-01-26 22:24:00,74.9,70.8,29.96,North,-999,0.0,0.0,87,0.00,,,-99.99,0,WeatherLink 5.4,2013-01-27 02:24:00,
2013-01-26 22:25:00,74.9,70.8,29.96,North,-999,0.0,0.0,87,0.00,,,-99.99,0,WeatherLink 5.4,2013-01-27 02:25:00,
2013-01-26 22:26:00,74.9,70.8,29.96,North,-999,0.0,0.0,87,0.00,,,-99.99,0,WeatherLink 5.4,2013-01-27 02:26:00,
2013-01-26 22:27:00,74.8,70.7,29.96,North,-999,0.0,0.0,87,0.00,,,-99.99,0,WeatherLink 5.4,2013-01-27 02:27:00,
2013-01-26 22:28:00,74.7,70.6,29.96,North,-999,0.0,0.0,87,0.00,,,-99.99,0,WeatherLink 5.4,2013-01-27 02:28:00,
2013-01-26 22:29:00,74.7,70.6,29.96,North,-999,0.0,0.0,87,0.00,,,-99.99,0,WeatherLink 5.4,2013-01-27 02:29:00,
2013-01-26 22:30:00,74.7,70.6,29.96,North,-999,0.0,0.0,87,0.00,,,-99.99,0,WeatherLink 5.4,2013-01-27 02:30:00,
2013-01-26 22:31:00,74.7,70.6,29.96,North,-999,0.0,0.0,87,0.00,,,-99.99,0,WeatherLink 5.4,2013-01-27 02:31:00,
2013-01-26 22:32:00,74.7,70.6,29.96,North,-999,0.0,0.0,87,0.00,,,-99.99,0,WeatherLink 5.4,2013-01-27 02:32:00,
2013-01-26 22:33:00,74.7,70.6,29.96,North,-999,0.0,0.0,87,0.00,,,-99.99,0,WeatherLink 5.4,2013-01-27 02:33:00,
2013-01-26 22:34:00,74.7,70.6,29.96,North,-999,0.0,0.0,87,0.00,,,-99.99,0,WeatherLink 5.4,2013-01-27 02:34:00,
2013-01-26 22:35:00,74.6,70.5,29.96,North,-999,0.0,0.0,87,0.00,,,-99.99,0,WeatherLink 5.4,2013-01-27 02:35:00,
2013-01-26 22:36:00,74.6,70.5,29.96,North,-999,0.0,0.0,87,0.00,,,-99.99,0,WeatherLink 5.4,2013-01-27 02:36:00,
2013-01-26 22:37:00,74.6,70.5,29.96,North,-999,0.0,0.0,87,0.00,,,-99.99,0,WeatherLink 5.4,2013-01-27 02:37:00,
2013-01-26 22:38:00,74.6,70.5,29.96,North,-999,0.0,0.0,87,0.00,,,-99.99,0,WeatherLink 5.4,2013-01-27 02:38:00,
2013-01-26 22:39:00,74.6,70.5,29.96,North,-999,0.0,0.0,87,0.00,,,-99.99,0,WeatherLink 5.4,2013-01-27 02:39:00,
2013-01-26 22:40:00,74.6,70.5,29.96,North,-999,0.0,0.0,87,0.00,,,-99.99,0,WeatherLink 5.4,2013-01-27 02:40:00,
2013-01-26 22:41:00,74.6,70.5,29.96,North,-999,0.0,0.0,87,0.00,,,-99.99,0,WeatherLink 5.4,2013-01-27 02:41:00,
2013-01-26 22:42:00,74.6,70.5,29.96,North,-999,0.0,0.0,87,0.00,,,-99.99,0,WeatherLink 5.4,2013-01-27 02:42:00,
2013-01-26 22:43:00,74.6,70.5,29.96,North,-999,0.0,0.0,87,0.00,,,-99.99,0,WeatherLink 5.4,2013-01-27 02:43:00,
2013-01-26 22:44:00,74.6,70.5,29.96,North,-999,0.0,0.0,87,0.00,,,-99.99,0,WeatherLink 5.4,2013-01-27 02:44:00,
2013-01-26 22:45:00,74.6,70.5,29.96,North,-999,0.0,0.0,87,0.00,,,-99.99,0,WeatherLink 5.4,2013-01-27 02:45:00,
2013-01-26 22:46:00,74.6,70.5,29.96,North,-999,0.0,0.0,87,0.00,,,-99.99,0,WeatherLink 5.4,2013-01-27 02:46:00,
2013-01-26 22:47:00,74.6,70.5,29.96,North,-999,0.0,0.0,87,0.00,,,-99.99,0,WeatherLink 5.4,2013-01-27 02:47:00,
2013-01-26 22:48:00,74.4,70.3,29.96,North,-999,0.0,0.0,87,0.00,,,-99.99,0,WeatherLink 5.4,2013-01-27 02:48:00,
2013-01-26 22:49:00,74.4,70.3,29.96,North,-999,0.0,0.0,87,0.00,,,-99.99,0,WeatherLink 5.4,2013-01-27 02:49:00,
2013-01-26 22:50:00,74.4,70.6,29.96,North,-999,0.0,0.0,88,0.00,,,-99.99,0,WeatherLink 5.4,2013-01-27 02:50:00,
2013-01-26 22:51:00,74.4,70.6,29.96,North,-999,0.0,0.0,88,0.00,,,-99.99,0,WeatherLink 5.4,2013-01-27 02:51:00,
2013-01-26 22:52:00,74.4,70.6,29.96,North,-999,0.0,0.0,88,0.00,,,-99.99,0,WeatherLink 5.4,2013-01-27 02:52:00,
2013-01-26 22:53:00,74.4,70.6,29.96,North,-999,0.0,0.0,88,0.00,,,-99.99,0,WeatherLink 5.4,2013-01-27 02:53:00,
2013-01-26 22:54:00,74.4,70.6,29.96,North,-999,0.0,0.0,88,0.00,,,-99.99,0,WeatherLink 5.4,2013-01-27 02:54:00,
2013-01-26 22:55:00,74.4,70.6,29.96,North,-999,0.0,0.0,88,0.00,,,-99.99,0,WeatherLink 5.4,2013-01-27 02:55:00,
2013-01-26 22:56:00,74.4,70.6,29.96,North,-999,0.0,0.0,88,0.00,,,-99.99,0,WeatherLink 5.4,2013-01-27 02:56:00,
2013-01-26 22:57:00,74.4,70.6,29.96,North,-999,0.0,0.0,88,0.00,,,-99.99,0,WeatherLink 5.4,2013-01-27 02:57:00,
2013-01-26 22:58:00,74.4,70.6,29.96,North,-999,0.0,0.0,88,0.00,,,-99.99,0,WeatherLink 5.4,2013-01-27 02:58:00,
2013-01-26 22:59:00,74.4,70.6,29.96,North,-999,0.0,0.0,88,0.00,,,-99.99,0,WeatherLink 5.4,2013-01-27 02:59:00,
2013-01-26 23:00:00,74.4,70.6,29.96,North,-999,0.0,0.0,88,0.00,,,-99.99,0,WeatherLink 5.4,2013-01-27 03:00:00,
2013-01-26 23:01:00,74.3,70.5,29.96,North,-999,0.0,0.0,88,0.00,,,-99.99,0,WeatherLink 5.4,2013-01-27 03:01:00,
2013-01-26 23:02:00,74.2,70.4,29.96,North,-999,0.0,0.0,88,0.00,,,-99.99,0,WeatherLink 5.4,2013-01-27 03:02:00,
2013-01-26 23:03:00,-999.0,-99.9,29.96,North,-999,0.0,0.0,88,0.00,,,-99.99,0,WeatherLink 5.4,2013-01-27 03:03:00,
2013-01-26 23:04:00,74.2,70.4,29.96,North,-999,0.0,0.0,88,0.00,,,-99.99,0,WeatherLink 5.4,2013-01-27 03:04:00,
2013-01-26 23:05:00,74.2,70.4,29.96,North,-999,0.0,0.0,88,0.00,,,-99.99,0,WeatherLink 5.4,2013-01-27 03:05:00,
2013-01-26 23:06:00,74.2,70.4,29.96,North,-999,0.0,0.0,88,0.00,,,-99.99,0,WeatherLink 5.4,2013-01-27 03:06:00,
2013-01-26 23:07:00,74.2,70.4,29.96,North,-999,0.0,0.0,88,0.00,,,-99.99,0,WeatherLink 5.4,2013-01-27 03:07:00,
2013-01-26 23:08:00,74.2,70.4,29.96,North,-999,0.0,0.0,88,0.00,,,-99.99,0,WeatherLink 5.4,2013-01-27 03:08:00,
2013-01-26 23:09:00,74.2,70.4,29.96,North,-999,0.0,0.0,88,0.00,,,-99.99,0,WeatherLink 5.4,2013-01-27 03:09:00,
2013-01-26 23:10:00,74.2,70.4,29.96,North,-999,0.0,0.0,88,0.00,,,-99.99,0,WeatherLink 5.4,2013-01-27 03:10:00,
2013-01-26 23:11:00,74.0,70.2,29.96,North,-999,0.0,0.0,88,0.00,,,-99.99,0,WeatherLink 5.4,2013-01-27 03:11:00,
2013-01-26 23:12:00,74.0,70.2,29.96,North,-999,0.0,0.0,88,0.00,,,-99.99,0,WeatherLink 5.4,2013-01-27 03:12:00,
2013-01-26 23:13:00,74.0,70.2,29.96,North,-999,0.0,0.0,88,0.00,,,-99.99,0,WeatherLink 5.4,2013-01-27 03:13:00,
2013-01-26 23:14:00,74.0,70.2,29.96,North,-999,0.0,0.0,88,0.00,,,-99.99,0,WeatherLink 5.4,2013-01-27 03:14:00,
2013-01-26 23:15:00,74.0,70.2,29.96,North,-999,0.0,0.0,88,0.00,,,-99.99,0,WeatherLink 5.4,2013-01-27 03:15:00,
2013-01-26 23:16:00,74.0,70.2,29.96,North,-999,0.0,0.0,88,0.00,,,-99.99,0,WeatherLink 5.4,2013-01-27 03:16:00,
2013-01-26 23:17:00,74.0,70.2,29.96,North,-999,0.0,0.0,88,0.00,,,-99.99,0,WeatherLink 5.4,2013-01-27 03:17:00,
2013-01-26 23:18:00,73.9,70.1,29.96,North,-999,0.0,0.0,88,0.00,,,-99.99,0,WeatherLink 5.4,2013-01-27 03:18:00,
2013-01-26 23:19:00,73.9,70.1,29.96,North,-999,0.0,0.0,88,0.00,,,-99.99,0,WeatherLink 5.4,2013-01-27 03:19:00,
2013-01-26 23:20:00,73.9,70.1,29.96,North,-999,0.0,0.0,88,0.00,,,-99.99,0,WeatherLink 5.4,2013-01-27 03:20:00,
2013-01-26 23:21:00,73.9,70.1,29.96,North,-999,0.0,0.0,88,0.00,,,-99.99,0,WeatherLink 5.4,2013-01-27 03:21:00,
2013-01-26 23:22:00,73.9,70.1,29.96,North,-999,0.0,0.0,88,0.00,,,-99.99,0,WeatherLink 5.4,2013-01-27 03:22:00,
2013-01-26 23:23:00,73.9,70.1,29.96,North,-999,0.0,0.0,88,0.00,,,-99.99,0,WeatherLink 5.4,2013-01-27 03:23:00,
2013-01-26 23:24:00,73.9,70.1,29.96,North,-999,0.0,0.0,88,0.00,,,-99.99,0,WeatherLink 5.4,2013-01-27 03:24:00,
2013-01-26 23:25:00,73.7,69.9,29.96,North,-999,0.0,0.0,88,0.00,,,-99.99,0,WeatherLink 5.4,2013-01-27 03:25:00,
2013-01-26 23:26:00,73.7,69.9,29.96,North,-999,0.0,0.0,88,0.00,,,-99.99,0,WeatherLink 5.4,2013-01-27 03:26:00,
2013-01-26 23:27:00,73.7,69.9,29.96,North,-999,0.0,0.0,88,0.00,,,-99.99,0,WeatherLink 5.4,2013-01-27 03:27:00,
2013-01-26 23:28:00,73.7,69.9,29.96,North,-999,0.0,0.0,88,0.00,,,-99.99,0,WeatherLink 5.4,2013-01-27 03:28:00,
2013-01-26 23:29:00,73.7,69.9,29.96,North,-999,0.0,0.0,88,0.00,,,-99.99,0,WeatherLink 5.4,2013-01-27 03:29:00,
2013-01-26 23:30:00,73.7,69.9,29.96,North,-999,0.0,0.0,88,0.00,,,-99.99,0,WeatherLink 5.4,2013-01-27 03:30:00,
2013-01-26 23:31:00,73.7,69.9,29.96,North,-999,0.0,0.0,88,0.00,,,-99.99,0,WeatherLink 5.4,2013-01-27 03:31:00,
2013-01-26 23:32:00,73.7,69.9,29.96,North,-999,0.0,0.0,88,0.00,,,-99.99,0,WeatherLink 5.4,2013-01-27 03:32:00,
2013-01-26 23:33:00,73.7,69.9,29.96,North,-999,0.0,0.0,88,0.00,,,-99.99,0,WeatherLink 5.4,2013-01-27 03:33:00,
2013-01-26 23:34:00,73.5,69.7,29.96,North,-999,0.0,0.0,88,0.00,,,-99.99,0,WeatherLink 5.4,2013-01-27 03:34:00,
2013-01-26 23:35:00,73.5,69.7,29.96,North,-999,0.0,0.0,88,0.00,,,-99.99,0,WeatherLink 5.4,2013-01-27 03:35:00,
2013-01-26 23:36:00,73.5,69.7,29.96,North,-999,0.0,0.0,88,0.00,,,-99.99,0,WeatherLink 5.4,2013-01-27 03:36:00,
2013-01-26 23:37:00,73.5,69.7,29.96,North,-999,0.0,0.0,88,0.00,,,-99.99,0,WeatherLink 5.4,2013-01-27 03:37:00,
2013-01-26 23:38:00,73.5,69.7,29.96,North,-999,0.0,0.0,88,0.00,,,-99.99,0,WeatherLink 5.4,2013-01-27 03:38:00,
2013-01-26 23:39:00,73.5,69.7,29.96,North,-999,0.0,0.0,88,0.00,,,-99.99,0,WeatherLink 5.4,2013-01-27 03:39:00,
2013-01-26 23:40:00,73.5,69.7,29.96,North,-999,0.0,0.0,88,0.00,,,-99.99,0,WeatherLink 5.4,2013-01-27 03:40:00,
2013-01-26 23:41:00,73.5,69.7,29.96,North,-999,0.0,0.0,88,0.00,,,-99.99,0,WeatherLink 5.4,2013-01-27 03:41:00,
2013-01-26 23:42:00,73.5,69.7,29.96,North,-999,0.0,0.0,88,0.00,,,-99.99,0,WeatherLink 5.4,2013-01-27 03:42:00,
2013-01-26 23:43:00,73.5,69.7,29.96,North,-999,0.0,0.0,88,0.00,,,-99.99,0,WeatherLink 5.4,2013-01-27 03:43:00,
2013-01-26 23:44:00,73.3,69.5,29.96,North,-999,0.0,0.0,88,0.00,,,-99.99,0,WeatherLink 5.4,2013-01-27 03:44:00,
2013-01-26 23:45:00,73.3,69.5,29.96,North,-999,0.0,0.0,88,0.00,,,-99.99,0,WeatherLink 5.4,2013-01-27 03:45:00,
2013-01-26 23:46:00,73.3,69.5,29.96,North,-999,0.0,0.0,88,0.00,,,-99.99,0,WeatherLink 5.4,2013-01-27 03:46:00,
2013-01-26 23:47:00,73.3,69.5,29.96,North,-999,0.0,0.0,88,0.00,,,-99.99,0,WeatherLink 5.4,2013-01-27 03:47:00,
2013-01-26 23:48:00,73.3,69.5,29.96,North,-999,0.0,0.0,88,0.00,,,-99.99,0,WeatherLink 5.4,2013-01-27 03:48:00,
2013-01-26 23:49:00,73.3,69.5,29.96,North,-999,0.0,0.0,88,0.00,,,-99.99,0,WeatherLink 5.4,2013-01-27 03:49:00,
2013-01-26 23:50:00,73.3,69.5,29.96,North,-999,0.0,0.0,88,0.00,,,-99.99,0,WeatherLink 5.4,2013-01-27 03:50:00,
2013-01-26 23:51:00,73.3,69.5,29.96,North,-999,0.0,0.0,88,0.00,,,-99.99,0,WeatherLink 5.4,2013-01-27 03:51:00,
2013-01-26 23:52:00,73.3,69.5,29.96,North,-999,0.0,0.0,88,0.00,,,-99.99,0,WeatherLink 5.4,2013-01-27 03:52:00,
2013-01-26 23:53:00,73.3,69.5,29.96,North,-999,0.0,0.0,88,0.00,,,-99.99,0,WeatherLink 5.4,2013-01-27 03:53:00,
2013-01-26 23:54:00,73.3,69.5,29.96,North,-999,0.0,0.0,88,0.00,,,-99.99,0,WeatherLink 5.4,2013-01-27 03:54:00,
2013-01-26 23:55:00,73.2,69.4,29.96,North,-999,0.0,0.0,88,0.00,,,-99.99,0,WeatherLink 5.4,2013-01-27 03:55:00,
2013-01-26 23:56:00,73.2,69.8,29.96,North,-999,0.0,0.0,89,0.00,,,-99.99,0,WeatherLink 5.4,2013-01-27 03:56:00,
2013-01-26 23:57:00,73.2,69.8,29.96,North,-999,0.0,0.0,89,0.00,,,-99.99,0,WeatherLink 5.4,2013-01-27 03:57:00,
2013-01-26 23:58:00,73.2,69.8,29.96,North,-999,0.0,0.0,89,0.00,,,-99.99,0,WeatherLink 5.4,2013-01-27 03:58:00,
2013-01-26 23:59:00,73.2,69.8,29.96,North,-999,0.0,0.0,89,0.00,,,-99.99,0,WeatherLink 5.4,2013-01-27 03:59:00,